<?xml version="1.0" encoding="UTF-8" standalone="no" ?>
<gpx xmlns="http://www.topografix.com/GPX/1/1" xmlns:xsi="http://www.w3.org/2001/XMLSchema-instance" xsi:schemaLocation="http://www.topografix.com/GPX/1/1 http://www.topografix.com/GPX/1/1/gpx.xsd" version="1.1" creator="VisuGPX - https://www.visugpx.com">
  <metadata>
    <name>15.05.2022 -Etape 4 serres Valdrôme</name>
    <desc><![CDATA[Magnifique balcon depuis le col d'arron jusqu'à la citerne ; à faire. Belle étape dans l'ensemble. Je voulais passer par le Dindaret mais pas assez de jus sur cette étape. belle descente sur Valdrôme ]]></desc>
  </metadata>
  <trk>
    <name><![CDATA[14797779-Etape 4 serres Valdrôme]]></name>
    <extensions>
      <line xmlns="http://www.topografix.com/GPX/gpx_style/0/2">
        <color>0000FF</color>
        <width>4</width>
      </line>
    </extensions>
    <trkseg>
      <trkpt lat="44.41353" lon="5.76695">
        <ele>692</ele>
        <time>2022-06-09T20:41:19Z</time>
      </trkpt>
      <trkpt lat="44.41353" lon="5.76703">
        <ele>692</ele>
        <time>2022-06-09T20:41:20Z</time>
      </trkpt>
      <trkpt lat="44.41355" lon="5.76693">
        <ele>692</ele>
        <time>2022-06-09T20:41:22Z</time>
      </trkpt>
      <trkpt lat="44.41346" lon="5.7668">
        <ele>691</ele>
        <time>2022-06-09T20:41:25Z</time>
      </trkpt>
      <trkpt lat="44.4134" lon="5.76661">
        <ele>691</ele>
        <time>2022-06-09T20:41:29Z</time>
      </trkpt>
      <trkpt lat="44.41342" lon="5.76646">
        <ele>692</ele>
        <time>2022-06-09T20:41:31Z</time>
      </trkpt>
      <trkpt lat="44.4134" lon="5.76626">
        <ele>693</ele>
        <time>2022-06-09T20:41:34Z</time>
      </trkpt>
      <trkpt lat="44.41338" lon="5.76627">
        <ele>692</ele>
        <time>2022-06-09T20:41:35Z</time>
      </trkpt>
      <trkpt lat="44.41308" lon="5.76577">
        <ele>691</ele>
        <time>2022-06-09T20:41:46Z</time>
      </trkpt>
      <trkpt lat="44.413" lon="5.76539">
        <ele>690</ele>
        <time>2022-06-09T20:41:52Z</time>
      </trkpt>
      <trkpt lat="44.41304" lon="5.76504">
        <ele>691</ele>
        <time>2022-06-09T20:41:58Z</time>
      </trkpt>
      <trkpt lat="44.41303" lon="5.7649">
        <ele>691</ele>
        <time>2022-06-09T20:42:01Z</time>
      </trkpt>
      <trkpt lat="44.41296" lon="5.7647">
        <ele>690</ele>
        <time>2022-06-09T20:42:04Z</time>
      </trkpt>
      <trkpt lat="44.41279" lon="5.76444">
        <ele>688</ele>
        <time>2022-06-09T20:42:10Z</time>
      </trkpt>
      <trkpt lat="44.41275" lon="5.76433">
        <ele>687</ele>
        <time>2022-06-09T20:42:12Z</time>
      </trkpt>
      <trkpt lat="44.41275" lon="5.76425">
        <ele>688</ele>
        <time>2022-06-09T20:42:14Z</time>
      </trkpt>
      <trkpt lat="44.41286" lon="5.76399">
        <ele>688</ele>
        <time>2022-06-09T20:42:19Z</time>
      </trkpt>
      <trkpt lat="44.41291" lon="5.76339">
        <ele>685</ele>
        <time>2022-06-09T20:42:29Z</time>
      </trkpt>
      <trkpt lat="44.41319" lon="5.7628">
        <ele>685</ele>
        <time>2022-06-09T20:42:41Z</time>
      </trkpt>
      <trkpt lat="44.41336" lon="5.76231">
        <ele>684</ele>
        <time>2022-06-09T20:42:50Z</time>
      </trkpt>
      <trkpt lat="44.41342" lon="5.76221">
        <ele>684</ele>
        <time>2022-06-09T20:42:52Z</time>
      </trkpt>
      <trkpt lat="44.41377" lon="5.76185">
        <ele>686</ele>
        <time>2022-06-09T20:43:02Z</time>
      </trkpt>
      <trkpt lat="44.41374" lon="5.76186">
        <ele>686</ele>
        <time>2022-06-09T20:43:03Z</time>
      </trkpt>
      <trkpt lat="44.41374" lon="5.7619">
        <ele>686</ele>
        <time>2022-06-09T20:43:03Z</time>
      </trkpt>
      <trkpt lat="44.41375" lon="5.76184">
        <ele>686</ele>
        <time>2022-06-09T20:43:04Z</time>
      </trkpt>
      <trkpt lat="44.41385" lon="5.7618">
        <ele>686</ele>
        <time>2022-06-09T20:43:07Z</time>
      </trkpt>
      <trkpt lat="44.41396" lon="5.76167">
        <ele>687</ele>
        <time>2022-06-09T20:43:10Z</time>
      </trkpt>
      <trkpt lat="44.41414" lon="5.76136">
        <ele>688</ele>
        <time>2022-06-09T20:43:17Z</time>
      </trkpt>
      <trkpt lat="44.41417" lon="5.76126">
        <ele>688</ele>
        <time>2022-06-09T20:43:19Z</time>
      </trkpt>
      <trkpt lat="44.41417" lon="5.76113">
        <ele>688</ele>
        <time>2022-06-09T20:43:21Z</time>
      </trkpt>
      <trkpt lat="44.4141" lon="5.7608">
        <ele>688</ele>
        <time>2022-06-09T20:43:27Z</time>
      </trkpt>
      <trkpt lat="44.41406" lon="5.76071">
        <ele>689</ele>
        <time>2022-06-09T20:43:28Z</time>
      </trkpt>
      <trkpt lat="44.41397" lon="5.76058">
        <ele>689</ele>
        <time>2022-06-09T20:43:31Z</time>
      </trkpt>
      <trkpt lat="44.41387" lon="5.7605">
        <ele>689</ele>
        <time>2022-06-09T20:43:34Z</time>
      </trkpt>
      <trkpt lat="44.41381" lon="5.76049">
        <ele>689</ele>
        <time>2022-06-09T20:43:36Z</time>
      </trkpt>
      <trkpt lat="44.41355" lon="5.76049">
        <ele>689</ele>
        <time>2022-06-09T20:43:42Z</time>
      </trkpt>
      <trkpt lat="44.41323" lon="5.76063">
        <ele>686</ele>
        <time>2022-06-09T20:43:49Z</time>
      </trkpt>
      <trkpt lat="44.41307" lon="5.76062">
        <ele>686</ele>
        <time>2022-06-09T20:43:53Z</time>
      </trkpt>
      <trkpt lat="44.41289" lon="5.76048">
        <ele>686</ele>
        <time>2022-06-09T20:43:58Z</time>
      </trkpt>
      <trkpt lat="44.41265" lon="5.76018">
        <ele>687</ele>
        <time>2022-06-09T20:44:05Z</time>
      </trkpt>
      <trkpt lat="44.41251" lon="5.76005">
        <ele>687</ele>
        <time>2022-06-09T20:44:09Z</time>
      </trkpt>
      <trkpt lat="44.41226" lon="5.75993">
        <ele>686</ele>
        <time>2022-06-09T20:44:16Z</time>
      </trkpt>
      <trkpt lat="44.41187" lon="5.75982">
        <ele>684</ele>
        <time>2022-06-09T20:44:25Z</time>
      </trkpt>
      <trkpt lat="44.41174" lon="5.75974">
        <ele>683</ele>
        <time>2022-06-09T20:44:28Z</time>
      </trkpt>
      <trkpt lat="44.41079" lon="5.75864">
        <ele>682</ele>
        <time>2022-06-09T20:44:57Z</time>
      </trkpt>
      <trkpt lat="44.41073" lon="5.75854">
        <ele>681</ele>
        <time>2022-06-09T20:44:59Z</time>
      </trkpt>
      <trkpt lat="44.41064" lon="5.75848">
        <ele>681</ele>
        <time>2022-06-09T20:45:01Z</time>
      </trkpt>
      <trkpt lat="44.41058" lon="5.75838">
        <ele>681</ele>
        <time>2022-06-09T20:45:04Z</time>
      </trkpt>
      <trkpt lat="44.41047" lon="5.75828">
        <ele>680</ele>
        <time>2022-06-09T20:45:07Z</time>
      </trkpt>
      <trkpt lat="44.41039" lon="5.75817">
        <ele>679</ele>
        <time>2022-06-09T20:45:09Z</time>
      </trkpt>
      <trkpt lat="44.4101" lon="5.75762">
        <ele>678</ele>
        <time>2022-06-09T20:45:21Z</time>
      </trkpt>
      <trkpt lat="44.40991" lon="5.75733">
        <ele>677</ele>
        <time>2022-06-09T20:45:27Z</time>
      </trkpt>
      <trkpt lat="44.40982" lon="5.75724">
        <ele>676</ele>
        <time>2022-06-09T20:45:30Z</time>
      </trkpt>
      <trkpt lat="44.4096" lon="5.75682">
        <ele>676</ele>
        <time>2022-06-09T20:45:39Z</time>
      </trkpt>
      <trkpt lat="44.40941" lon="5.75656">
        <ele>675</ele>
        <time>2022-06-09T20:45:45Z</time>
      </trkpt>
      <trkpt lat="44.40906" lon="5.7562">
        <ele>674</ele>
        <time>2022-06-09T20:45:55Z</time>
      </trkpt>
      <trkpt lat="44.40876" lon="5.75579">
        <ele>673</ele>
        <time>2022-06-09T20:46:05Z</time>
      </trkpt>
      <trkpt lat="44.4084" lon="5.75497">
        <ele>672</ele>
        <time>2022-06-09T20:46:21Z</time>
      </trkpt>
      <trkpt lat="44.40828" lon="5.75474">
        <ele>671</ele>
        <time>2022-06-09T20:46:26Z</time>
      </trkpt>
      <trkpt lat="44.40814" lon="5.75454">
        <ele>670</ele>
        <time>2022-06-09T20:46:30Z</time>
      </trkpt>
      <trkpt lat="44.40785" lon="5.75416">
        <ele>670</ele>
        <time>2022-06-09T20:46:39Z</time>
      </trkpt>
      <trkpt lat="44.40712" lon="5.75341">
        <ele>671</ele>
        <time>2022-06-09T20:47:01Z</time>
      </trkpt>
      <trkpt lat="44.40689" lon="5.75321">
        <ele>671</ele>
        <time>2022-06-09T20:47:07Z</time>
      </trkpt>
      <trkpt lat="44.40663" lon="5.75285">
        <ele>673</ele>
        <time>2022-06-09T20:47:16Z</time>
      </trkpt>
      <trkpt lat="44.40664" lon="5.75283">
        <ele>674</ele>
        <time>2022-06-09T20:47:16Z</time>
      </trkpt>
      <trkpt lat="44.40651" lon="5.7526">
        <ele>675</ele>
        <time>2022-06-09T20:47:21Z</time>
      </trkpt>
      <trkpt lat="44.40628" lon="5.75198">
        <ele>674</ele>
        <time>2022-06-09T20:47:32Z</time>
      </trkpt>
      <trkpt lat="44.40598" lon="5.75127">
        <ele>672</ele>
        <time>2022-06-09T20:47:46Z</time>
      </trkpt>
      <trkpt lat="44.40574" lon="5.75053">
        <ele>672</ele>
        <time>2022-06-09T20:48:00Z</time>
      </trkpt>
      <trkpt lat="44.40558" lon="5.75017">
        <ele>673</ele>
        <time>2022-06-09T20:48:07Z</time>
      </trkpt>
      <trkpt lat="44.40552" lon="5.74995">
        <ele>673</ele>
        <time>2022-06-09T20:48:11Z</time>
      </trkpt>
      <trkpt lat="44.40547" lon="5.7496">
        <ele>673</ele>
        <time>2022-06-09T20:48:17Z</time>
      </trkpt>
      <trkpt lat="44.40533" lon="5.74779">
        <ele>673</ele>
        <time>2022-06-09T20:48:47Z</time>
      </trkpt>
      <trkpt lat="44.40528" lon="5.74685">
        <ele>672</ele>
        <time>2022-06-09T20:49:03Z</time>
      </trkpt>
      <trkpt lat="44.40529" lon="5.74629">
        <ele>673</ele>
        <time>2022-06-09T20:49:12Z</time>
      </trkpt>
      <trkpt lat="44.40528" lon="5.74601">
        <ele>674</ele>
        <time>2022-06-09T20:49:17Z</time>
      </trkpt>
      <trkpt lat="44.40525" lon="5.74597">
        <ele>674</ele>
        <time>2022-06-09T20:49:18Z</time>
      </trkpt>
      <trkpt lat="44.40527" lon="5.74573">
        <ele>675</ele>
        <time>2022-06-09T20:49:22Z</time>
      </trkpt>
      <trkpt lat="44.40524" lon="5.74544">
        <ele>676</ele>
        <time>2022-06-09T20:49:27Z</time>
      </trkpt>
      <trkpt lat="44.40522" lon="5.74474">
        <ele>678</ele>
        <time>2022-06-09T20:49:38Z</time>
      </trkpt>
      <trkpt lat="44.40523" lon="5.74437">
        <ele>679</ele>
        <time>2022-06-09T20:49:45Z</time>
      </trkpt>
      <trkpt lat="44.40543" lon="5.74376">
        <ele>681</ele>
        <time>2022-06-09T20:49:56Z</time>
      </trkpt>
      <trkpt lat="44.40562" lon="5.74281">
        <ele>678</ele>
        <time>2022-06-09T20:50:12Z</time>
      </trkpt>
      <trkpt lat="44.40561" lon="5.74231">
        <ele>675</ele>
        <time>2022-06-09T20:50:21Z</time>
      </trkpt>
      <trkpt lat="44.40535" lon="5.73972">
        <ele>670</ele>
        <time>2022-06-09T20:51:04Z</time>
      </trkpt>
      <trkpt lat="44.40532" lon="5.73904">
        <ele>669</ele>
        <time>2022-06-09T20:51:16Z</time>
      </trkpt>
      <trkpt lat="44.4054" lon="5.73723">
        <ele>667</ele>
        <time>2022-06-09T20:51:46Z</time>
      </trkpt>
      <trkpt lat="44.40544" lon="5.73693">
        <ele>667</ele>
        <time>2022-06-09T20:51:51Z</time>
      </trkpt>
      <trkpt lat="44.40571" lon="5.7357">
        <ele>667</ele>
        <time>2022-06-09T20:52:12Z</time>
      </trkpt>
      <trkpt lat="44.40574" lon="5.73533">
        <ele>667</ele>
        <time>2022-06-09T20:52:19Z</time>
      </trkpt>
      <trkpt lat="44.40569" lon="5.73503">
        <ele>667</ele>
        <time>2022-06-09T20:52:24Z</time>
      </trkpt>
      <trkpt lat="44.40466" lon="5.73107">
        <ele>660</ele>
        <time>2022-06-09T20:53:34Z</time>
      </trkpt>
      <trkpt lat="44.4049" lon="5.73088">
        <ele>659</ele>
        <time>2022-06-09T20:53:41Z</time>
      </trkpt>
      <trkpt lat="44.40542" lon="5.73054">
        <ele>658</ele>
        <time>2022-06-09T20:53:54Z</time>
      </trkpt>
      <trkpt lat="44.40537" lon="5.73061">
        <ele>659</ele>
        <time>2022-06-09T20:53:56Z</time>
      </trkpt>
      <trkpt lat="44.40507" lon="5.73075">
        <ele>659</ele>
        <time>2022-06-09T20:54:03Z</time>
      </trkpt>
      <trkpt lat="44.40471" lon="5.73104">
        <ele>660</ele>
        <time>2022-06-09T20:54:13Z</time>
      </trkpt>
      <trkpt lat="44.40465" lon="5.73106">
        <ele>660</ele>
        <time>2022-06-09T20:54:14Z</time>
      </trkpt>
      <trkpt lat="44.4046" lon="5.73102">
        <ele>660</ele>
        <time>2022-06-09T20:54:15Z</time>
      </trkpt>
      <trkpt lat="44.40459" lon="5.73088">
        <ele>660</ele>
        <time>2022-06-09T20:54:18Z</time>
      </trkpt>
      <trkpt lat="44.40467" lon="5.73077">
        <ele>659</ele>
        <time>2022-06-09T20:54:20Z</time>
      </trkpt>
      <trkpt lat="44.40514" lon="5.73038">
        <ele>658</ele>
        <time>2022-06-09T20:54:33Z</time>
      </trkpt>
      <trkpt lat="44.4064" lon="5.72948">
        <ele>656</ele>
        <time>2022-06-09T20:55:06Z</time>
      </trkpt>
      <trkpt lat="44.40642" lon="5.72951">
        <ele>657</ele>
        <time>2022-06-09T20:55:07Z</time>
      </trkpt>
      <trkpt lat="44.40669" lon="5.72925">
        <ele>657</ele>
        <time>2022-06-09T20:55:15Z</time>
      </trkpt>
      <trkpt lat="44.40925" lon="5.72738">
        <ele>661</ele>
        <time>2022-06-09T20:56:22Z</time>
      </trkpt>
      <trkpt lat="44.40957" lon="5.72713">
        <ele>662</ele>
        <time>2022-06-09T20:56:31Z</time>
      </trkpt>
      <trkpt lat="44.40956" lon="5.72711">
        <ele>662</ele>
        <time>2022-06-09T20:56:31Z</time>
      </trkpt>
      <trkpt lat="44.40982" lon="5.727">
        <ele>663</ele>
        <time>2022-06-09T20:56:37Z</time>
      </trkpt>
      <trkpt lat="44.41001" lon="5.72698">
        <ele>664</ele>
        <time>2022-06-09T20:56:42Z</time>
      </trkpt>
      <trkpt lat="44.41015" lon="5.72692">
        <ele>665</ele>
        <time>2022-06-09T20:56:45Z</time>
      </trkpt>
      <trkpt lat="44.41025" lon="5.72682">
        <ele>665</ele>
        <time>2022-06-09T20:56:48Z</time>
      </trkpt>
      <trkpt lat="44.41051" lon="5.72645">
        <ele>666</ele>
        <time>2022-06-09T20:56:57Z</time>
      </trkpt>
      <trkpt lat="44.41341" lon="5.7243">
        <ele>675</ele>
        <time>2022-06-09T20:58:13Z</time>
      </trkpt>
      <trkpt lat="44.41371" lon="5.7241">
        <ele>676</ele>
        <time>2022-06-09T20:58:21Z</time>
      </trkpt>
      <trkpt lat="44.41488" lon="5.72322">
        <ele>678</ele>
        <time>2022-06-09T20:58:52Z</time>
      </trkpt>
      <trkpt lat="44.41501" lon="5.72309">
        <ele>678</ele>
        <time>2022-06-09T20:58:56Z</time>
      </trkpt>
      <trkpt lat="44.41658" lon="5.72196">
        <ele>687</ele>
        <time>2022-06-09T20:59:37Z</time>
      </trkpt>
      <trkpt lat="44.41708" lon="5.72156">
        <ele>690</ele>
        <time>2022-06-09T20:59:51Z</time>
      </trkpt>
      <trkpt lat="44.41731" lon="5.72141">
        <ele>692</ele>
        <time>2022-06-09T20:59:56Z</time>
      </trkpt>
      <trkpt lat="44.41813" lon="5.72078">
        <ele>694</ele>
        <time>2022-06-09T21:00:18Z</time>
      </trkpt>
      <trkpt lat="44.41909" lon="5.72014">
        <ele>689</ele>
        <time>2022-06-09T21:00:43Z</time>
      </trkpt>
      <trkpt lat="44.41944" lon="5.72001">
        <ele>687</ele>
        <time>2022-06-09T21:00:52Z</time>
      </trkpt>
      <trkpt lat="44.4203" lon="5.71982">
        <ele>684</ele>
        <time>2022-06-09T21:01:12Z</time>
      </trkpt>
      <trkpt lat="44.42084" lon="5.71973">
        <ele>682</ele>
        <time>2022-06-09T21:01:25Z</time>
      </trkpt>
      <trkpt lat="44.42137" lon="5.7196">
        <ele>682</ele>
        <time>2022-06-09T21:01:37Z</time>
      </trkpt>
      <trkpt lat="44.42192" lon="5.71954">
        <ele>682</ele>
        <time>2022-06-09T21:01:50Z</time>
      </trkpt>
      <trkpt lat="44.42202" lon="5.71961">
        <ele>682</ele>
        <time>2022-06-09T21:01:53Z</time>
      </trkpt>
      <trkpt lat="44.42203" lon="5.71957">
        <ele>682</ele>
        <time>2022-06-09T21:01:53Z</time>
      </trkpt>
      <trkpt lat="44.42208" lon="5.71957">
        <ele>682</ele>
        <time>2022-06-09T21:01:55Z</time>
      </trkpt>
      <trkpt lat="44.42206" lon="5.71956">
        <ele>682</ele>
        <time>2022-06-09T21:01:55Z</time>
      </trkpt>
      <trkpt lat="44.42207" lon="5.71947">
        <ele>681</ele>
        <time>2022-06-09T21:01:57Z</time>
      </trkpt>
      <trkpt lat="44.4221" lon="5.71946">
        <ele>681</ele>
        <time>2022-06-09T21:01:57Z</time>
      </trkpt>
      <trkpt lat="44.42216" lon="5.71947">
        <ele>681</ele>
        <time>2022-06-09T21:01:59Z</time>
      </trkpt>
      <trkpt lat="44.42255" lon="5.7194">
        <ele>680</ele>
        <time>2022-06-09T21:02:08Z</time>
      </trkpt>
      <trkpt lat="44.42288" lon="5.71931">
        <ele>679</ele>
        <time>2022-06-09T21:02:16Z</time>
      </trkpt>
      <trkpt lat="44.42448" lon="5.71898">
        <ele>678</ele>
        <time>2022-06-09T21:02:53Z</time>
      </trkpt>
      <trkpt lat="44.42455" lon="5.71893">
        <ele>678</ele>
        <time>2022-06-09T21:02:55Z</time>
      </trkpt>
      <trkpt lat="44.42473" lon="5.71892">
        <ele>679</ele>
        <time>2022-06-09T21:03:00Z</time>
      </trkpt>
      <trkpt lat="44.42578" lon="5.71866">
        <ele>681</ele>
        <time>2022-06-09T21:03:24Z</time>
      </trkpt>
      <trkpt lat="44.42624" lon="5.71858">
        <ele>680</ele>
        <time>2022-06-09T21:03:35Z</time>
      </trkpt>
      <trkpt lat="44.42646" lon="5.71851">
        <ele>679</ele>
        <time>2022-06-09T21:03:41Z</time>
      </trkpt>
      <trkpt lat="44.4266" lon="5.71842">
        <ele>677</ele>
        <time>2022-06-09T21:03:44Z</time>
      </trkpt>
      <trkpt lat="44.42679" lon="5.71823">
        <ele>672</ele>
        <time>2022-06-09T21:03:50Z</time>
      </trkpt>
      <trkpt lat="44.42699" lon="5.7182">
        <ele>672</ele>
        <time>2022-06-09T21:03:54Z</time>
      </trkpt>
      <trkpt lat="44.42723" lon="5.71827">
        <ele>672</ele>
        <time>2022-06-09T21:04:00Z</time>
      </trkpt>
      <trkpt lat="44.42737" lon="5.71828">
        <ele>672</ele>
        <time>2022-06-09T21:04:03Z</time>
      </trkpt>
      <trkpt lat="44.42744" lon="5.71822">
        <ele>672</ele>
        <time>2022-06-09T21:04:05Z</time>
      </trkpt>
      <trkpt lat="44.42757" lon="5.71771">
        <ele>665</ele>
        <time>2022-06-09T21:04:14Z</time>
      </trkpt>
      <trkpt lat="44.42778" lon="5.71718">
        <ele>660</ele>
        <time>2022-06-09T21:04:24Z</time>
      </trkpt>
      <trkpt lat="44.42793" lon="5.71689">
        <ele>659</ele>
        <time>2022-06-09T21:04:30Z</time>
      </trkpt>
      <trkpt lat="44.428" lon="5.71691">
        <ele>659</ele>
        <time>2022-06-09T21:04:32Z</time>
      </trkpt>
      <trkpt lat="44.42811" lon="5.71708">
        <ele>659</ele>
        <time>2022-06-09T21:04:36Z</time>
      </trkpt>
      <trkpt lat="44.42819" lon="5.7171">
        <ele>659</ele>
        <time>2022-06-09T21:04:38Z</time>
      </trkpt>
      <trkpt lat="44.42827" lon="5.71726">
        <ele>660</ele>
        <time>2022-06-09T21:04:41Z</time>
      </trkpt>
      <trkpt lat="44.42839" lon="5.7174">
        <ele>660</ele>
        <time>2022-06-09T21:04:45Z</time>
      </trkpt>
      <trkpt lat="44.42856" lon="5.71768">
        <ele>662</ele>
        <time>2022-06-09T21:04:51Z</time>
      </trkpt>
      <trkpt lat="44.42865" lon="5.7179">
        <ele>663</ele>
        <time>2022-06-09T21:04:55Z</time>
      </trkpt>
      <trkpt lat="44.4287" lon="5.71789">
        <ele>663</ele>
        <time>2022-06-09T21:04:56Z</time>
      </trkpt>
      <trkpt lat="44.42875" lon="5.71784">
        <ele>662</ele>
        <time>2022-06-09T21:04:58Z</time>
      </trkpt>
      <trkpt lat="44.42911" lon="5.71738">
        <ele>662</ele>
        <time>2022-06-09T21:05:09Z</time>
      </trkpt>
      <trkpt lat="44.42928" lon="5.71726">
        <ele>664</ele>
        <time>2022-06-09T21:05:13Z</time>
      </trkpt>
      <trkpt lat="44.42931" lon="5.71717">
        <ele>665</ele>
        <time>2022-06-09T21:05:15Z</time>
      </trkpt>
      <trkpt lat="44.4293" lon="5.71711">
        <ele>666</ele>
        <time>2022-06-09T21:05:16Z</time>
      </trkpt>
      <trkpt lat="44.42918" lon="5.71681">
        <ele>669</ele>
        <time>2022-06-09T21:05:22Z</time>
      </trkpt>
      <trkpt lat="44.42878" lon="5.71605">
        <ele>672</ele>
        <time>2022-06-09T21:05:38Z</time>
      </trkpt>
      <trkpt lat="44.42864" lon="5.71583">
        <ele>672</ele>
        <time>2022-06-09T21:05:42Z</time>
      </trkpt>
      <trkpt lat="44.4285" lon="5.71547">
        <ele>671</ele>
        <time>2022-06-09T21:05:49Z</time>
      </trkpt>
      <trkpt lat="44.4283" lon="5.71509">
        <ele>668</ele>
        <time>2022-06-09T21:05:57Z</time>
      </trkpt>
      <trkpt lat="44.4282" lon="5.71476">
        <ele>669</ele>
        <time>2022-06-09T21:06:03Z</time>
      </trkpt>
      <trkpt lat="44.42815" lon="5.71439">
        <ele>670</ele>
        <time>2022-06-09T21:06:09Z</time>
      </trkpt>
      <trkpt lat="44.42808" lon="5.71419">
        <ele>670</ele>
        <time>2022-06-09T21:06:13Z</time>
      </trkpt>
      <trkpt lat="44.42798" lon="5.71346">
        <ele>674</ele>
        <time>2022-06-09T21:06:26Z</time>
      </trkpt>
      <trkpt lat="44.42772" lon="5.71257">
        <ele>673</ele>
        <time>2022-06-09T21:06:42Z</time>
      </trkpt>
      <trkpt lat="44.42741" lon="5.71171">
        <ele>673</ele>
        <time>2022-06-09T21:06:58Z</time>
      </trkpt>
      <trkpt lat="44.42743" lon="5.71169">
        <ele>674</ele>
        <time>2022-06-09T21:06:58Z</time>
      </trkpt>
      <trkpt lat="44.42749" lon="5.71175">
        <ele>674</ele>
        <time>2022-06-09T21:07:00Z</time>
      </trkpt>
      <trkpt lat="44.42768" lon="5.71233">
        <ele>674</ele>
        <time>2022-06-09T21:07:11Z</time>
      </trkpt>
      <trkpt lat="44.42777" lon="5.71253">
        <ele>675</ele>
        <time>2022-06-09T21:07:15Z</time>
      </trkpt>
      <trkpt lat="44.428" lon="5.71292">
        <ele>679</ele>
        <time>2022-06-09T21:07:23Z</time>
      </trkpt>
      <trkpt lat="44.42803" lon="5.71303">
        <ele>679</ele>
        <time>2022-06-09T21:07:25Z</time>
      </trkpt>
      <trkpt lat="44.42812" lon="5.7132">
        <ele>680</ele>
        <time>2022-06-09T21:07:28Z</time>
      </trkpt>
      <trkpt lat="44.42813" lon="5.7133">
        <ele>679</ele>
        <time>2022-06-09T21:07:30Z</time>
      </trkpt>
      <trkpt lat="44.4282" lon="5.71343">
        <ele>680</ele>
        <time>2022-06-09T21:07:33Z</time>
      </trkpt>
      <trkpt lat="44.42823" lon="5.71341">
        <ele>681</ele>
        <time>2022-06-09T21:07:34Z</time>
      </trkpt>
      <trkpt lat="44.42815" lon="5.71323">
        <ele>681</ele>
        <time>2022-06-09T21:07:37Z</time>
      </trkpt>
      <trkpt lat="44.42784" lon="5.71214">
        <ele>681</ele>
        <time>2022-06-09T21:07:57Z</time>
      </trkpt>
      <trkpt lat="44.42748" lon="5.71126">
        <ele>678</ele>
        <time>2022-06-09T21:08:14Z</time>
      </trkpt>
      <trkpt lat="44.42754" lon="5.71121">
        <ele>680</ele>
        <time>2022-06-09T21:08:15Z</time>
      </trkpt>
      <trkpt lat="44.42759" lon="5.71107">
        <ele>683</ele>
        <time>2022-06-09T21:08:18Z</time>
      </trkpt>
      <trkpt lat="44.42764" lon="5.71105">
        <ele>685</ele>
        <time>2022-06-09T21:08:19Z</time>
      </trkpt>
      <trkpt lat="44.42763" lon="5.71095">
        <ele>686</ele>
        <time>2022-06-09T21:08:21Z</time>
      </trkpt>
      <trkpt lat="44.42765" lon="5.71086">
        <ele>688</ele>
        <time>2022-06-09T21:08:22Z</time>
      </trkpt>
      <trkpt lat="44.42762" lon="5.7105">
        <ele>691</ele>
        <time>2022-06-09T21:08:28Z</time>
      </trkpt>
      <trkpt lat="44.42757" lon="5.71032">
        <ele>691</ele>
        <time>2022-06-09T21:08:32Z</time>
      </trkpt>
      <trkpt lat="44.42757" lon="5.7099">
        <ele>696</ele>
        <time>2022-06-09T21:08:39Z</time>
      </trkpt>
      <trkpt lat="44.42753" lon="5.70953">
        <ele>697</ele>
        <time>2022-06-09T21:08:45Z</time>
      </trkpt>
      <trkpt lat="44.42759" lon="5.70938">
        <ele>700</ele>
        <time>2022-06-09T21:08:48Z</time>
      </trkpt>
      <trkpt lat="44.42775" lon="5.70878">
        <ele>707</ele>
        <time>2022-06-09T21:08:58Z</time>
      </trkpt>
      <trkpt lat="44.42789" lon="5.70849">
        <ele>713</ele>
        <time>2022-06-09T21:09:04Z</time>
      </trkpt>
      <trkpt lat="44.42789" lon="5.70826">
        <ele>714</ele>
        <time>2022-06-09T21:09:08Z</time>
      </trkpt>
      <trkpt lat="44.42792" lon="5.70815">
        <ele>715</ele>
        <time>2022-06-09T21:09:10Z</time>
      </trkpt>
      <trkpt lat="44.4279" lon="5.70802">
        <ele>714</ele>
        <time>2022-06-09T21:09:12Z</time>
      </trkpt>
      <trkpt lat="44.42791" lon="5.70787">
        <ele>715</ele>
        <time>2022-06-09T21:09:15Z</time>
      </trkpt>
      <trkpt lat="44.4281" lon="5.70734">
        <ele>723</ele>
        <time>2022-06-09T21:09:25Z</time>
      </trkpt>
      <trkpt lat="44.42807" lon="5.70704">
        <ele>722</ele>
        <time>2022-06-09T21:09:30Z</time>
      </trkpt>
      <trkpt lat="44.42814" lon="5.70642">
        <ele>725</ele>
        <time>2022-06-09T21:09:40Z</time>
      </trkpt>
      <trkpt lat="44.42814" lon="5.70622">
        <ele>726</ele>
        <time>2022-06-09T21:09:44Z</time>
      </trkpt>
      <trkpt lat="44.42825" lon="5.70565">
        <ele>730</ele>
        <time>2022-06-09T21:09:53Z</time>
      </trkpt>
      <trkpt lat="44.42829" lon="5.70528">
        <ele>732</ele>
        <time>2022-06-09T21:10:00Z</time>
      </trkpt>
      <trkpt lat="44.42829" lon="5.70501">
        <ele>733</ele>
        <time>2022-06-09T21:10:04Z</time>
      </trkpt>
      <trkpt lat="44.4284" lon="5.70482">
        <ele>738</ele>
        <time>2022-06-09T21:10:08Z</time>
      </trkpt>
      <trkpt lat="44.42853" lon="5.70443">
        <ele>745</ele>
        <time>2022-06-09T21:10:15Z</time>
      </trkpt>
      <trkpt lat="44.42853" lon="5.70427">
        <ele>746</ele>
        <time>2022-06-09T21:10:18Z</time>
      </trkpt>
      <trkpt lat="44.42846" lon="5.7041">
        <ele>745</ele>
        <time>2022-06-09T21:10:21Z</time>
      </trkpt>
      <trkpt lat="44.42846" lon="5.70391">
        <ele>748</ele>
        <time>2022-06-09T21:10:24Z</time>
      </trkpt>
      <trkpt lat="44.42842" lon="5.70369">
        <ele>751</ele>
        <time>2022-06-09T21:10:28Z</time>
      </trkpt>
      <trkpt lat="44.42833" lon="5.70345">
        <ele>752</ele>
        <time>2022-06-09T21:10:33Z</time>
      </trkpt>
      <trkpt lat="44.42834" lon="5.70313">
        <ele>758</ele>
        <time>2022-06-09T21:10:38Z</time>
      </trkpt>
      <trkpt lat="44.42831" lon="5.70303">
        <ele>759</ele>
        <time>2022-06-09T21:10:40Z</time>
      </trkpt>
      <trkpt lat="44.42811" lon="5.70272">
        <ele>757</ele>
        <time>2022-06-09T21:10:47Z</time>
      </trkpt>
      <trkpt lat="44.42805" lon="5.70228">
        <ele>760</ele>
        <time>2022-06-09T21:10:54Z</time>
      </trkpt>
      <trkpt lat="44.42805" lon="5.70211">
        <ele>762</ele>
        <time>2022-06-09T21:10:57Z</time>
      </trkpt>
      <trkpt lat="44.42815" lon="5.70174">
        <ele>768</ele>
        <time>2022-06-09T21:11:04Z</time>
      </trkpt>
      <trkpt lat="44.42825" lon="5.70153">
        <ele>772</ele>
        <time>2022-06-09T21:11:08Z</time>
      </trkpt>
      <trkpt lat="44.4283" lon="5.70147">
        <ele>773</ele>
        <time>2022-06-09T21:11:10Z</time>
      </trkpt>
      <trkpt lat="44.42833" lon="5.70146">
        <ele>774</ele>
        <time>2022-06-09T21:11:10Z</time>
      </trkpt>
      <trkpt lat="44.42835" lon="5.70148">
        <ele>775</ele>
        <time>2022-06-09T21:11:11Z</time>
      </trkpt>
      <trkpt lat="44.42829" lon="5.70175">
        <ele>773</ele>
        <time>2022-06-09T21:11:16Z</time>
      </trkpt>
      <trkpt lat="44.4283" lon="5.70186">
        <ele>772</ele>
        <time>2022-06-09T21:11:17Z</time>
      </trkpt>
      <trkpt lat="44.42845" lon="5.70218">
        <ele>775</ele>
        <time>2022-06-09T21:11:24Z</time>
      </trkpt>
      <trkpt lat="44.42865" lon="5.7024">
        <ele>781</ele>
        <time>2022-06-09T21:11:30Z</time>
      </trkpt>
      <trkpt lat="44.4287" lon="5.70235">
        <ele>783</ele>
        <time>2022-06-09T21:11:31Z</time>
      </trkpt>
      <trkpt lat="44.4286" lon="5.70212">
        <ele>781</ele>
        <time>2022-06-09T21:11:36Z</time>
      </trkpt>
      <trkpt lat="44.42866" lon="5.70187">
        <ele>784</ele>
        <time>2022-06-09T21:11:40Z</time>
      </trkpt>
      <trkpt lat="44.42868" lon="5.70191">
        <ele>785</ele>
        <time>2022-06-09T21:11:41Z</time>
      </trkpt>
      <trkpt lat="44.42866" lon="5.70197">
        <ele>784</ele>
        <time>2022-06-09T21:11:42Z</time>
      </trkpt>
      <trkpt lat="44.42864" lon="5.70171">
        <ele>785</ele>
        <time>2022-06-09T21:11:46Z</time>
      </trkpt>
      <trkpt lat="44.4288" lon="5.70131">
        <ele>789</ele>
        <time>2022-06-09T21:11:54Z</time>
      </trkpt>
      <trkpt lat="44.42881" lon="5.70109">
        <ele>789</ele>
        <time>2022-06-09T21:11:58Z</time>
      </trkpt>
      <trkpt lat="44.42888" lon="5.70113">
        <ele>791</ele>
        <time>2022-06-09T21:11:59Z</time>
      </trkpt>
      <trkpt lat="44.4289" lon="5.70112">
        <ele>792</ele>
        <time>2022-06-09T21:12:00Z</time>
      </trkpt>
      <trkpt lat="44.42901" lon="5.70085">
        <ele>794</ele>
        <time>2022-06-09T21:12:05Z</time>
      </trkpt>
      <trkpt lat="44.42925" lon="5.70049">
        <ele>800</ele>
        <time>2022-06-09T21:12:13Z</time>
      </trkpt>
      <trkpt lat="44.42956" lon="5.69991">
        <ele>806</ele>
        <time>2022-06-09T21:12:25Z</time>
      </trkpt>
      <trkpt lat="44.4297" lon="5.69953">
        <ele>808</ele>
        <time>2022-06-09T21:12:33Z</time>
      </trkpt>
      <trkpt lat="44.42977" lon="5.69942">
        <ele>810</ele>
        <time>2022-06-09T21:12:35Z</time>
      </trkpt>
      <trkpt lat="44.42985" lon="5.69922">
        <ele>811</ele>
        <time>2022-06-09T21:12:39Z</time>
      </trkpt>
      <trkpt lat="44.42999" lon="5.69909">
        <ele>814</ele>
        <time>2022-06-09T21:12:43Z</time>
      </trkpt>
      <trkpt lat="44.43004" lon="5.699">
        <ele>815</ele>
        <time>2022-06-09T21:12:45Z</time>
      </trkpt>
      <trkpt lat="44.43016" lon="5.69891">
        <ele>817</ele>
        <time>2022-06-09T21:12:48Z</time>
      </trkpt>
      <trkpt lat="44.43028" lon="5.69887">
        <ele>820</ele>
        <time>2022-06-09T21:12:51Z</time>
      </trkpt>
      <trkpt lat="44.43035" lon="5.69882">
        <ele>821</ele>
        <time>2022-06-09T21:12:53Z</time>
      </trkpt>
      <trkpt lat="44.43051" lon="5.69861">
        <ele>824</ele>
        <time>2022-06-09T21:12:58Z</time>
      </trkpt>
      <trkpt lat="44.43065" lon="5.69855">
        <ele>827</ele>
        <time>2022-06-09T21:13:01Z</time>
      </trkpt>
      <trkpt lat="44.4307" lon="5.69857">
        <ele>828</ele>
        <time>2022-06-09T21:13:02Z</time>
      </trkpt>
      <trkpt lat="44.43092" lon="5.69844">
        <ele>833</ele>
        <time>2022-06-09T21:13:08Z</time>
      </trkpt>
      <trkpt lat="44.43105" lon="5.69828">
        <ele>835</ele>
        <time>2022-06-09T21:13:12Z</time>
      </trkpt>
      <trkpt lat="44.43113" lon="5.69825">
        <ele>836</ele>
        <time>2022-06-09T21:13:14Z</time>
      </trkpt>
      <trkpt lat="44.43171" lon="5.69771">
        <ele>847</ele>
        <time>2022-06-09T21:13:30Z</time>
      </trkpt>
      <trkpt lat="44.43176" lon="5.69764">
        <ele>848</ele>
        <time>2022-06-09T21:13:32Z</time>
      </trkpt>
      <trkpt lat="44.4319" lon="5.69753">
        <ele>851</ele>
        <time>2022-06-09T21:13:36Z</time>
      </trkpt>
      <trkpt lat="44.43195" lon="5.6974">
        <ele>852</ele>
        <time>2022-06-09T21:13:38Z</time>
      </trkpt>
      <trkpt lat="44.43208" lon="5.69723">
        <ele>855</ele>
        <time>2022-06-09T21:13:42Z</time>
      </trkpt>
      <trkpt lat="44.43209" lon="5.69708">
        <ele>854</ele>
        <time>2022-06-09T21:13:45Z</time>
      </trkpt>
      <trkpt lat="44.43215" lon="5.69693">
        <ele>855</ele>
        <time>2022-06-09T21:13:48Z</time>
      </trkpt>
      <trkpt lat="44.43213" lon="5.69684">
        <ele>854</ele>
        <time>2022-06-09T21:13:49Z</time>
      </trkpt>
      <trkpt lat="44.43221" lon="5.69665">
        <ele>856</ele>
        <time>2022-06-09T21:13:53Z</time>
      </trkpt>
      <trkpt lat="44.43227" lon="5.69657">
        <ele>858</ele>
        <time>2022-06-09T21:13:55Z</time>
      </trkpt>
      <trkpt lat="44.43231" lon="5.69645">
        <ele>859</ele>
        <time>2022-06-09T21:13:57Z</time>
      </trkpt>
      <trkpt lat="44.43241" lon="5.69637">
        <ele>862</ele>
        <time>2022-06-09T21:14:00Z</time>
      </trkpt>
      <trkpt lat="44.43251" lon="5.69603">
        <ele>866</ele>
        <time>2022-06-09T21:14:06Z</time>
      </trkpt>
      <trkpt lat="44.43267" lon="5.69582">
        <ele>870</ele>
        <time>2022-06-09T21:14:11Z</time>
      </trkpt>
      <trkpt lat="44.43271" lon="5.69581">
        <ele>871</ele>
        <time>2022-06-09T21:14:12Z</time>
      </trkpt>
      <trkpt lat="44.43279" lon="5.6956">
        <ele>873</ele>
        <time>2022-06-09T21:14:16Z</time>
      </trkpt>
      <trkpt lat="44.43296" lon="5.6953">
        <ele>876</ele>
        <time>2022-06-09T21:14:22Z</time>
      </trkpt>
      <trkpt lat="44.43302" lon="5.69529">
        <ele>877</ele>
        <time>2022-06-09T21:14:24Z</time>
      </trkpt>
      <trkpt lat="44.4332" lon="5.69511">
        <ele>880</ele>
        <time>2022-06-09T21:14:29Z</time>
      </trkpt>
      <trkpt lat="44.43338" lon="5.69498">
        <ele>882</ele>
        <time>2022-06-09T21:14:33Z</time>
      </trkpt>
      <trkpt lat="44.43367" lon="5.69485">
        <ele>888</ele>
        <time>2022-06-09T21:14:41Z</time>
      </trkpt>
      <trkpt lat="44.4338" lon="5.69476">
        <ele>891</ele>
        <time>2022-06-09T21:14:44Z</time>
      </trkpt>
      <trkpt lat="44.43399" lon="5.69474">
        <ele>894</ele>
        <time>2022-06-09T21:14:48Z</time>
      </trkpt>
      <trkpt lat="44.43407" lon="5.69467">
        <ele>895</ele>
        <time>2022-06-09T21:14:51Z</time>
      </trkpt>
      <trkpt lat="44.43416" lon="5.69468">
        <ele>897</ele>
        <time>2022-06-09T21:14:53Z</time>
      </trkpt>
      <trkpt lat="44.43432" lon="5.69461">
        <ele>901</ele>
        <time>2022-06-09T21:14:57Z</time>
      </trkpt>
      <trkpt lat="44.4344" lon="5.69452">
        <ele>902</ele>
        <time>2022-06-09T21:14:59Z</time>
      </trkpt>
      <trkpt lat="44.43466" lon="5.69444">
        <ele>909</ele>
        <time>2022-06-09T21:15:05Z</time>
      </trkpt>
      <trkpt lat="44.43473" lon="5.6944">
        <ele>910</ele>
        <time>2022-06-09T21:15:07Z</time>
      </trkpt>
      <trkpt lat="44.4348" lon="5.69432">
        <ele>911</ele>
        <time>2022-06-09T21:15:09Z</time>
      </trkpt>
      <trkpt lat="44.43502" lon="5.69388">
        <ele>913</ele>
        <time>2022-06-09T21:15:18Z</time>
      </trkpt>
      <trkpt lat="44.4351" lon="5.6935">
        <ele>914</ele>
        <time>2022-06-09T21:15:25Z</time>
      </trkpt>
      <trkpt lat="44.43517" lon="5.69339">
        <ele>916</ele>
        <time>2022-06-09T21:15:27Z</time>
      </trkpt>
      <trkpt lat="44.43527" lon="5.69333">
        <ele>919</ele>
        <time>2022-06-09T21:15:30Z</time>
      </trkpt>
      <trkpt lat="44.43534" lon="5.69325">
        <ele>921</ele>
        <time>2022-06-09T21:15:32Z</time>
      </trkpt>
      <trkpt lat="44.43539" lon="5.69307">
        <ele>923</ele>
        <time>2022-06-09T21:15:35Z</time>
      </trkpt>
      <trkpt lat="44.43542" lon="5.69306">
        <ele>924</ele>
        <time>2022-06-09T21:15:36Z</time>
      </trkpt>
      <trkpt lat="44.43543" lon="5.69297">
        <ele>924</ele>
        <time>2022-06-09T21:15:37Z</time>
      </trkpt>
      <trkpt lat="44.43553" lon="5.69284">
        <ele>927</ele>
        <time>2022-06-09T21:15:40Z</time>
      </trkpt>
      <trkpt lat="44.43561" lon="5.69268">
        <ele>929</ele>
        <time>2022-06-09T21:15:44Z</time>
      </trkpt>
      <trkpt lat="44.43556" lon="5.69211">
        <ele>932</ele>
        <time>2022-06-09T21:15:53Z</time>
      </trkpt>
      <trkpt lat="44.43558" lon="5.69204">
        <ele>933</ele>
        <time>2022-06-09T21:15:55Z</time>
      </trkpt>
      <trkpt lat="44.43561" lon="5.69203">
        <ele>933</ele>
        <time>2022-06-09T21:15:55Z</time>
      </trkpt>
      <trkpt lat="44.43567" lon="5.69211">
        <ele>933</ele>
        <time>2022-06-09T21:15:57Z</time>
      </trkpt>
      <trkpt lat="44.43572" lon="5.69226">
        <ele>933</ele>
        <time>2022-06-09T21:16:00Z</time>
      </trkpt>
      <trkpt lat="44.43581" lon="5.69242">
        <ele>933</ele>
        <time>2022-06-09T21:16:03Z</time>
      </trkpt>
      <trkpt lat="44.43589" lon="5.69267">
        <ele>936</ele>
        <time>2022-06-09T21:16:08Z</time>
      </trkpt>
      <trkpt lat="44.43576" lon="5.69321">
        <ele>936</ele>
        <time>2022-06-09T21:16:17Z</time>
      </trkpt>
      <trkpt lat="44.43578" lon="5.69354">
        <ele>939</ele>
        <time>2022-06-09T21:16:23Z</time>
      </trkpt>
      <trkpt lat="44.43572" lon="5.69394">
        <ele>942</ele>
        <time>2022-06-09T21:16:30Z</time>
      </trkpt>
      <trkpt lat="44.43576" lon="5.69404">
        <ele>944</ele>
        <time>2022-06-09T21:16:32Z</time>
      </trkpt>
      <trkpt lat="44.43582" lon="5.69411">
        <ele>948</ele>
        <time>2022-06-09T21:16:33Z</time>
      </trkpt>
      <trkpt lat="44.43591" lon="5.6941">
        <ele>952</ele>
        <time>2022-06-09T21:16:36Z</time>
      </trkpt>
      <trkpt lat="44.43596" lon="5.69405">
        <ele>954</ele>
        <time>2022-06-09T21:16:37Z</time>
      </trkpt>
      <trkpt lat="44.436" lon="5.69405">
        <ele>956</ele>
        <time>2022-06-09T21:16:38Z</time>
      </trkpt>
      <trkpt lat="44.43609" lon="5.69381">
        <ele>957</ele>
        <time>2022-06-09T21:16:42Z</time>
      </trkpt>
      <trkpt lat="44.43608" lon="5.69351">
        <ele>952</ele>
        <time>2022-06-09T21:16:47Z</time>
      </trkpt>
      <trkpt lat="44.43612" lon="5.69339">
        <ele>951</ele>
        <time>2022-06-09T21:16:50Z</time>
      </trkpt>
      <trkpt lat="44.43628" lon="5.69313">
        <ele>955</ele>
        <time>2022-06-09T21:16:55Z</time>
      </trkpt>
      <trkpt lat="44.43639" lon="5.69302">
        <ele>958</ele>
        <time>2022-06-09T21:16:59Z</time>
      </trkpt>
      <trkpt lat="44.43645" lon="5.69291">
        <ele>959</ele>
        <time>2022-06-09T21:17:01Z</time>
      </trkpt>
      <trkpt lat="44.43652" lon="5.69275">
        <ele>960</ele>
        <time>2022-06-09T21:17:04Z</time>
      </trkpt>
      <trkpt lat="44.43658" lon="5.69247">
        <ele>959</ele>
        <time>2022-06-09T21:17:09Z</time>
      </trkpt>
      <trkpt lat="44.4367" lon="5.69222">
        <ele>963</ele>
        <time>2022-06-09T21:17:14Z</time>
      </trkpt>
      <trkpt lat="44.43678" lon="5.69189">
        <ele>965</ele>
        <time>2022-06-09T21:17:20Z</time>
      </trkpt>
      <trkpt lat="44.43684" lon="5.69175">
        <ele>967</ele>
        <time>2022-06-09T21:17:22Z</time>
      </trkpt>
      <trkpt lat="44.43691" lon="5.69169">
        <ele>969</ele>
        <time>2022-06-09T21:17:24Z</time>
      </trkpt>
      <trkpt lat="44.43698" lon="5.69158">
        <ele>972</ele>
        <time>2022-06-09T21:17:27Z</time>
      </trkpt>
      <trkpt lat="44.43707" lon="5.69132">
        <ele>975</ele>
        <time>2022-06-09T21:17:32Z</time>
      </trkpt>
      <trkpt lat="44.43709" lon="5.6912">
        <ele>976</ele>
        <time>2022-06-09T21:17:34Z</time>
      </trkpt>
      <trkpt lat="44.43704" lon="5.69105">
        <ele>975</ele>
        <time>2022-06-09T21:17:36Z</time>
      </trkpt>
      <trkpt lat="44.43699" lon="5.69073">
        <ele>976</ele>
        <time>2022-06-09T21:17:42Z</time>
      </trkpt>
      <trkpt lat="44.437" lon="5.69068">
        <ele>977</ele>
        <time>2022-06-09T21:17:43Z</time>
      </trkpt>
      <trkpt lat="44.43703" lon="5.69066">
        <ele>978</ele>
        <time>2022-06-09T21:17:44Z</time>
      </trkpt>
      <trkpt lat="44.4371" lon="5.69067">
        <ele>979</ele>
        <time>2022-06-09T21:17:45Z</time>
      </trkpt>
      <trkpt lat="44.43719" lon="5.69082">
        <ele>980</ele>
        <time>2022-06-09T21:17:48Z</time>
      </trkpt>
      <trkpt lat="44.43733" lon="5.69131">
        <ele>983</ele>
        <time>2022-06-09T21:17:57Z</time>
      </trkpt>
      <trkpt lat="44.43736" lon="5.69164">
        <ele>985</ele>
        <time>2022-06-09T21:18:03Z</time>
      </trkpt>
      <trkpt lat="44.43735" lon="5.69176">
        <ele>985</ele>
        <time>2022-06-09T21:18:05Z</time>
      </trkpt>
      <trkpt lat="44.43738" lon="5.69186">
        <ele>987</ele>
        <time>2022-06-09T21:18:07Z</time>
      </trkpt>
      <trkpt lat="44.43744" lon="5.69195">
        <ele>990</ele>
        <time>2022-06-09T21:18:09Z</time>
      </trkpt>
      <trkpt lat="44.43749" lon="5.69195">
        <ele>992</ele>
        <time>2022-06-09T21:18:10Z</time>
      </trkpt>
      <trkpt lat="44.43762" lon="5.69177">
        <ele>995</ele>
        <time>2022-06-09T21:18:14Z</time>
      </trkpt>
      <trkpt lat="44.4378" lon="5.69127">
        <ele>999</ele>
        <time>2022-06-09T21:18:23Z</time>
      </trkpt>
      <trkpt lat="44.43794" lon="5.69112">
        <ele>1003</ele>
        <time>2022-06-09T21:18:28Z</time>
      </trkpt>
      <trkpt lat="44.43808" lon="5.69086">
        <ele>1006</ele>
        <time>2022-06-09T21:18:33Z</time>
      </trkpt>
      <trkpt lat="44.43813" lon="5.69073">
        <ele>1008</ele>
        <time>2022-06-09T21:18:35Z</time>
      </trkpt>
      <trkpt lat="44.43819" lon="5.69037">
        <ele>1011</ele>
        <time>2022-06-09T21:18:42Z</time>
      </trkpt>
      <trkpt lat="44.43828" lon="5.69028">
        <ele>1014</ele>
        <time>2022-06-09T21:18:44Z</time>
      </trkpt>
      <trkpt lat="44.43834" lon="5.69033">
        <ele>1016</ele>
        <time>2022-06-09T21:18:46Z</time>
      </trkpt>
      <trkpt lat="44.43837" lon="5.69041">
        <ele>1017</ele>
        <time>2022-06-09T21:18:47Z</time>
      </trkpt>
      <trkpt lat="44.43832" lon="5.69114">
        <ele>1016</ele>
        <time>2022-06-09T21:19:00Z</time>
      </trkpt>
      <trkpt lat="44.43833" lon="5.69154">
        <ele>1019</ele>
        <time>2022-06-09T21:19:06Z</time>
      </trkpt>
      <trkpt lat="44.43822" lon="5.69208">
        <ele>1020</ele>
        <time>2022-06-09T21:19:16Z</time>
      </trkpt>
      <trkpt lat="44.43809" lon="5.69239">
        <ele>1018</ele>
        <time>2022-06-09T21:19:22Z</time>
      </trkpt>
      <trkpt lat="44.43806" lon="5.69257">
        <ele>1019</ele>
        <time>2022-06-09T21:19:25Z</time>
      </trkpt>
      <trkpt lat="44.43795" lon="5.69285">
        <ele>1017</ele>
        <time>2022-06-09T21:19:30Z</time>
      </trkpt>
      <trkpt lat="44.4379" lon="5.69308">
        <ele>1017</ele>
        <time>2022-06-09T21:19:34Z</time>
      </trkpt>
      <trkpt lat="44.43787" lon="5.69338">
        <ele>1019</ele>
        <time>2022-06-09T21:19:39Z</time>
      </trkpt>
      <trkpt lat="44.43779" lon="5.69371">
        <ele>1020</ele>
        <time>2022-06-09T21:19:45Z</time>
      </trkpt>
      <trkpt lat="44.43781" lon="5.69384">
        <ele>1021</ele>
        <time>2022-06-09T21:19:47Z</time>
      </trkpt>
      <trkpt lat="44.43789" lon="5.69395">
        <ele>1023</ele>
        <time>2022-06-09T21:19:50Z</time>
      </trkpt>
      <trkpt lat="44.43807" lon="5.69385">
        <ele>1025</ele>
        <time>2022-06-09T21:19:54Z</time>
      </trkpt>
      <trkpt lat="44.4382" lon="5.69371">
        <ele>1027</ele>
        <time>2022-06-09T21:19:58Z</time>
      </trkpt>
      <trkpt lat="44.43832" lon="5.69363">
        <ele>1029</ele>
        <time>2022-06-09T21:20:01Z</time>
      </trkpt>
      <trkpt lat="44.43883" lon="5.6936">
        <ele>1028</ele>
        <time>2022-06-09T21:20:13Z</time>
      </trkpt>
      <trkpt lat="44.43914" lon="5.69348">
        <ele>1029</ele>
        <time>2022-06-09T21:20:21Z</time>
      </trkpt>
      <trkpt lat="44.4393" lon="5.69336">
        <ele>1029</ele>
        <time>2022-06-09T21:20:25Z</time>
      </trkpt>
      <trkpt lat="44.43977" lon="5.69314">
        <ele>1026</ele>
        <time>2022-06-09T21:20:36Z</time>
      </trkpt>
      <trkpt lat="44.44061" lon="5.69285">
        <ele>1020</ele>
        <time>2022-06-09T21:20:57Z</time>
      </trkpt>
      <trkpt lat="44.44074" lon="5.69277">
        <ele>1019</ele>
        <time>2022-06-09T21:21:00Z</time>
      </trkpt>
      <trkpt lat="44.44106" lon="5.69242">
        <ele>1019</ele>
        <time>2022-06-09T21:21:09Z</time>
      </trkpt>
      <trkpt lat="44.4412" lon="5.6923">
        <ele>1018</ele>
        <time>2022-06-09T21:21:13Z</time>
      </trkpt>
      <trkpt lat="44.44126" lon="5.69216">
        <ele>1019</ele>
        <time>2022-06-09T21:21:16Z</time>
      </trkpt>
      <trkpt lat="44.4415" lon="5.69217">
        <ele>1015</ele>
        <time>2022-06-09T21:21:22Z</time>
      </trkpt>
      <trkpt lat="44.44159" lon="5.69221">
        <ele>1013</ele>
        <time>2022-06-09T21:21:24Z</time>
      </trkpt>
      <trkpt lat="44.44178" lon="5.69212">
        <ele>1010</ele>
        <time>2022-06-09T21:21:28Z</time>
      </trkpt>
      <trkpt lat="44.44189" lon="5.69198">
        <ele>1010</ele>
        <time>2022-06-09T21:21:32Z</time>
      </trkpt>
      <trkpt lat="44.44195" lon="5.69186">
        <ele>1010</ele>
        <time>2022-06-09T21:21:34Z</time>
      </trkpt>
      <trkpt lat="44.44214" lon="5.6917">
        <ele>1008</ele>
        <time>2022-06-09T21:21:40Z</time>
      </trkpt>
      <trkpt lat="44.44241" lon="5.69129">
        <ele>1007</ele>
        <time>2022-06-09T21:21:49Z</time>
      </trkpt>
      <trkpt lat="44.44254" lon="5.69092">
        <ele>1009</ele>
        <time>2022-06-09T21:21:56Z</time>
      </trkpt>
      <trkpt lat="44.44264" lon="5.69075">
        <ele>1009</ele>
        <time>2022-06-09T21:21:59Z</time>
      </trkpt>
      <trkpt lat="44.44273" lon="5.69039">
        <ele>1011</ele>
        <time>2022-06-09T21:22:06Z</time>
      </trkpt>
      <trkpt lat="44.44278" lon="5.6903">
        <ele>1011</ele>
        <time>2022-06-09T21:22:08Z</time>
      </trkpt>
      <trkpt lat="44.44311" lon="5.69015">
        <ele>1003</ele>
        <time>2022-06-09T21:22:16Z</time>
      </trkpt>
      <trkpt lat="44.44357" lon="5.68982">
        <ele>995</ele>
        <time>2022-06-09T21:22:28Z</time>
      </trkpt>
      <trkpt lat="44.44402" lon="5.68925">
        <ele>993</ele>
        <time>2022-06-09T21:22:42Z</time>
      </trkpt>
      <trkpt lat="44.44413" lon="5.68905">
        <ele>994</ele>
        <time>2022-06-09T21:22:46Z</time>
      </trkpt>
      <trkpt lat="44.44418" lon="5.68902">
        <ele>993</ele>
        <time>2022-06-09T21:22:47Z</time>
      </trkpt>
      <trkpt lat="44.44431" lon="5.68859">
        <ele>998</ele>
        <time>2022-06-09T21:22:55Z</time>
      </trkpt>
      <trkpt lat="44.44448" lon="5.68833">
        <ele>997</ele>
        <time>2022-06-09T21:23:01Z</time>
      </trkpt>
      <trkpt lat="44.44451" lon="5.68819">
        <ele>999</ele>
        <time>2022-06-09T21:23:04Z</time>
      </trkpt>
      <trkpt lat="44.44461" lon="5.68801">
        <ele>998</ele>
        <time>2022-06-09T21:23:07Z</time>
      </trkpt>
      <trkpt lat="44.44465" lon="5.68785">
        <ele>999</ele>
        <time>2022-06-09T21:23:10Z</time>
      </trkpt>
      <trkpt lat="44.44483" lon="5.68762">
        <ele>995</ele>
        <time>2022-06-09T21:23:16Z</time>
      </trkpt>
      <trkpt lat="44.44491" lon="5.68744">
        <ele>994</ele>
        <time>2022-06-09T21:23:19Z</time>
      </trkpt>
      <trkpt lat="44.44496" lon="5.68719">
        <ele>993</ele>
        <time>2022-06-09T21:23:24Z</time>
      </trkpt>
      <trkpt lat="44.44494" lon="5.68654">
        <ele>996</ele>
        <time>2022-06-09T21:23:35Z</time>
      </trkpt>
      <trkpt lat="44.44497" lon="5.68621">
        <ele>994</ele>
        <time>2022-06-09T21:23:40Z</time>
      </trkpt>
      <trkpt lat="44.44505" lon="5.68601">
        <ele>990</ele>
        <time>2022-06-09T21:23:44Z</time>
      </trkpt>
      <trkpt lat="44.44525" lon="5.68571">
        <ele>982</ele>
        <time>2022-06-09T21:23:51Z</time>
      </trkpt>
      <trkpt lat="44.44531" lon="5.68572">
        <ele>980</ele>
        <time>2022-06-09T21:23:52Z</time>
      </trkpt>
      <trkpt lat="44.44572" lon="5.68553">
        <ele>966</ele>
        <time>2022-06-09T21:24:02Z</time>
      </trkpt>
      <trkpt lat="44.44591" lon="5.68537">
        <ele>964</ele>
        <time>2022-06-09T21:24:08Z</time>
      </trkpt>
      <trkpt lat="44.44609" lon="5.68517">
        <ele>965</ele>
        <time>2022-06-09T21:24:13Z</time>
      </trkpt>
      <trkpt lat="44.44632" lon="5.68508">
        <ele>963</ele>
        <time>2022-06-09T21:24:18Z</time>
      </trkpt>
      <trkpt lat="44.44636" lon="5.68503">
        <ele>963</ele>
        <time>2022-06-09T21:24:20Z</time>
      </trkpt>
      <trkpt lat="44.44651" lon="5.68495">
        <ele>962</ele>
        <time>2022-06-09T21:24:23Z</time>
      </trkpt>
      <trkpt lat="44.44689" lon="5.6846">
        <ele>959</ele>
        <time>2022-06-09T21:24:34Z</time>
      </trkpt>
      <trkpt lat="44.44706" lon="5.68434">
        <ele>958</ele>
        <time>2022-06-09T21:24:40Z</time>
      </trkpt>
      <trkpt lat="44.44732" lon="5.68408">
        <ele>952</ele>
        <time>2022-06-09T21:24:47Z</time>
      </trkpt>
      <trkpt lat="44.44741" lon="5.68406">
        <ele>948</ele>
        <time>2022-06-09T21:24:50Z</time>
      </trkpt>
      <trkpt lat="44.44762" lon="5.68412">
        <ele>941</ele>
        <time>2022-06-09T21:24:55Z</time>
      </trkpt>
      <trkpt lat="44.44802" lon="5.68411">
        <ele>929</ele>
        <time>2022-06-09T21:25:04Z</time>
      </trkpt>
      <trkpt lat="44.44818" lon="5.68395">
        <ele>927</ele>
        <time>2022-06-09T21:25:08Z</time>
      </trkpt>
      <trkpt lat="44.44822" lon="5.68372">
        <ele>929</ele>
        <time>2022-06-09T21:25:12Z</time>
      </trkpt>
      <trkpt lat="44.44817" lon="5.68352">
        <ele>933</ele>
        <time>2022-06-09T21:25:16Z</time>
      </trkpt>
      <trkpt lat="44.44818" lon="5.68344">
        <ele>934</ele>
        <time>2022-06-09T21:25:17Z</time>
      </trkpt>
      <trkpt lat="44.44828" lon="5.68316">
        <ele>935</ele>
        <time>2022-06-09T21:25:23Z</time>
      </trkpt>
      <trkpt lat="44.44834" lon="5.68286">
        <ele>937</ele>
        <time>2022-06-09T21:25:28Z</time>
      </trkpt>
      <trkpt lat="44.4483" lon="5.68268">
        <ele>940</ele>
        <time>2022-06-09T21:25:31Z</time>
      </trkpt>
      <trkpt lat="44.44822" lon="5.68256">
        <ele>943</ele>
        <time>2022-06-09T21:25:34Z</time>
      </trkpt>
      <trkpt lat="44.44819" lon="5.68245">
        <ele>945</ele>
        <time>2022-06-09T21:25:36Z</time>
      </trkpt>
      <trkpt lat="44.44824" lon="5.6824">
        <ele>945</ele>
        <time>2022-06-09T21:25:37Z</time>
      </trkpt>
      <trkpt lat="44.44827" lon="5.68229">
        <ele>946</ele>
        <time>2022-06-09T21:25:39Z</time>
      </trkpt>
      <trkpt lat="44.44831" lon="5.68228">
        <ele>945</ele>
        <time>2022-06-09T21:25:40Z</time>
      </trkpt>
      <trkpt lat="44.44836" lon="5.68231">
        <ele>944</ele>
        <time>2022-06-09T21:25:41Z</time>
      </trkpt>
      <trkpt lat="44.44843" lon="5.68223">
        <ele>944</ele>
        <time>2022-06-09T21:25:43Z</time>
      </trkpt>
      <trkpt lat="44.4485" lon="5.68219">
        <ele>943</ele>
        <time>2022-06-09T21:25:45Z</time>
      </trkpt>
      <trkpt lat="44.44853" lon="5.682">
        <ele>946</ele>
        <time>2022-06-09T21:25:48Z</time>
      </trkpt>
      <trkpt lat="44.44859" lon="5.68191">
        <ele>946</ele>
        <time>2022-06-09T21:25:50Z</time>
      </trkpt>
      <trkpt lat="44.44861" lon="5.68179">
        <ele>947</ele>
        <time>2022-06-09T21:25:52Z</time>
      </trkpt>
      <trkpt lat="44.44874" lon="5.68153">
        <ele>948</ele>
        <time>2022-06-09T21:25:58Z</time>
      </trkpt>
      <trkpt lat="44.44881" lon="5.68152">
        <ele>947</ele>
        <time>2022-06-09T21:25:59Z</time>
      </trkpt>
      <trkpt lat="44.44882" lon="5.68145">
        <ele>948</ele>
        <time>2022-06-09T21:26:01Z</time>
      </trkpt>
      <trkpt lat="44.44884" lon="5.68145">
        <ele>947</ele>
        <time>2022-06-09T21:26:01Z</time>
      </trkpt>
      <trkpt lat="44.44888" lon="5.6811">
        <ele>951</ele>
        <time>2022-06-09T21:26:07Z</time>
      </trkpt>
      <trkpt lat="44.44892" lon="5.68095">
        <ele>952</ele>
        <time>2022-06-09T21:26:10Z</time>
      </trkpt>
      <trkpt lat="44.44903" lon="5.68073">
        <ele>952</ele>
        <time>2022-06-09T21:26:14Z</time>
      </trkpt>
      <trkpt lat="44.44904" lon="5.68037">
        <ele>958</ele>
        <time>2022-06-09T21:26:20Z</time>
      </trkpt>
      <trkpt lat="44.44902" lon="5.68028">
        <ele>960</ele>
        <time>2022-06-09T21:26:22Z</time>
      </trkpt>
      <trkpt lat="44.44897" lon="5.68024">
        <ele>962</ele>
        <time>2022-06-09T21:26:23Z</time>
      </trkpt>
      <trkpt lat="44.44897" lon="5.68003">
        <ele>965</ele>
        <time>2022-06-09T21:26:26Z</time>
      </trkpt>
      <trkpt lat="44.44907" lon="5.67985">
        <ele>965</ele>
        <time>2022-06-09T21:26:30Z</time>
      </trkpt>
      <trkpt lat="44.44911" lon="5.67959">
        <ele>969</ele>
        <time>2022-06-09T21:26:35Z</time>
      </trkpt>
      <trkpt lat="44.44916" lon="5.67949">
        <ele>970</ele>
        <time>2022-06-09T21:26:37Z</time>
      </trkpt>
      <trkpt lat="44.44926" lon="5.67939">
        <ele>970</ele>
        <time>2022-06-09T21:26:40Z</time>
      </trkpt>
      <trkpt lat="44.44945" lon="5.67903">
        <ele>975</ele>
        <time>2022-06-09T21:26:47Z</time>
      </trkpt>
      <trkpt lat="44.44948" lon="5.67887">
        <ele>977</ele>
        <time>2022-06-09T21:26:50Z</time>
      </trkpt>
      <trkpt lat="44.44952" lon="5.67884">
        <ele>977</ele>
        <time>2022-06-09T21:26:51Z</time>
      </trkpt>
      <trkpt lat="44.44958" lon="5.67873">
        <ele>978</ele>
        <time>2022-06-09T21:26:53Z</time>
      </trkpt>
      <trkpt lat="44.44967" lon="5.67866">
        <ele>977</ele>
        <time>2022-06-09T21:26:56Z</time>
      </trkpt>
      <trkpt lat="44.44971" lon="5.67853">
        <ele>979</ele>
        <time>2022-06-09T21:26:58Z</time>
      </trkpt>
      <trkpt lat="44.44984" lon="5.67843">
        <ele>978</ele>
        <time>2022-06-09T21:27:01Z</time>
      </trkpt>
      <trkpt lat="44.45" lon="5.67817">
        <ele>977</ele>
        <time>2022-06-09T21:27:07Z</time>
      </trkpt>
      <trkpt lat="44.45008" lon="5.67794">
        <ele>977</ele>
        <time>2022-06-09T21:27:11Z</time>
      </trkpt>
      <trkpt lat="44.45009" lon="5.67799">
        <ele>977</ele>
        <time>2022-06-09T21:27:12Z</time>
      </trkpt>
      <trkpt lat="44.45013" lon="5.6778">
        <ele>978</ele>
        <time>2022-06-09T21:27:16Z</time>
      </trkpt>
      <trkpt lat="44.45014" lon="5.67778">
        <ele>977</ele>
        <time>2022-06-09T21:27:16Z</time>
      </trkpt>
      <trkpt lat="44.45015" lon="5.6778">
        <ele>977</ele>
        <time>2022-06-09T21:27:16Z</time>
      </trkpt>
      <trkpt lat="44.45017" lon="5.67779">
        <ele>977</ele>
        <time>2022-06-09T21:27:17Z</time>
      </trkpt>
      <trkpt lat="44.45021" lon="5.67772">
        <ele>977</ele>
        <time>2022-06-09T21:27:18Z</time>
      </trkpt>
      <trkpt lat="44.45024" lon="5.67744">
        <ele>977</ele>
        <time>2022-06-09T21:27:23Z</time>
      </trkpt>
      <trkpt lat="44.45022" lon="5.67736">
        <ele>977</ele>
        <time>2022-06-09T21:27:25Z</time>
      </trkpt>
      <trkpt lat="44.4502" lon="5.67738">
        <ele>978</ele>
        <time>2022-06-09T21:27:25Z</time>
      </trkpt>
      <trkpt lat="44.45022" lon="5.67739">
        <ele>977</ele>
        <time>2022-06-09T21:27:26Z</time>
      </trkpt>
      <trkpt lat="44.45023" lon="5.67746">
        <ele>977</ele>
        <time>2022-06-09T21:27:27Z</time>
      </trkpt>
      <trkpt lat="44.45021" lon="5.6773">
        <ele>977</ele>
        <time>2022-06-09T21:27:30Z</time>
      </trkpt>
      <trkpt lat="44.45022" lon="5.6771">
        <ele>977</ele>
        <time>2022-06-09T21:27:33Z</time>
      </trkpt>
      <trkpt lat="44.45023" lon="5.67706">
        <ele>977</ele>
        <time>2022-06-09T21:27:34Z</time>
      </trkpt>
      <trkpt lat="44.45032" lon="5.67696">
        <ele>975</ele>
        <time>2022-06-09T21:27:36Z</time>
      </trkpt>
      <trkpt lat="44.45034" lon="5.67699">
        <ele>974</ele>
        <time>2022-06-09T21:27:37Z</time>
      </trkpt>
      <trkpt lat="44.45039" lon="5.67678">
        <ele>972</ele>
        <time>2022-06-09T21:27:41Z</time>
      </trkpt>
      <trkpt lat="44.4504" lon="5.67639">
        <ele>972</ele>
        <time>2022-06-09T21:27:47Z</time>
      </trkpt>
      <trkpt lat="44.45045" lon="5.67592">
        <ele>972</ele>
        <time>2022-06-09T21:27:55Z</time>
      </trkpt>
      <trkpt lat="44.45043" lon="5.67572">
        <ele>973</ele>
        <time>2022-06-09T21:27:58Z</time>
      </trkpt>
      <trkpt lat="44.45046" lon="5.67561">
        <ele>973</ele>
        <time>2022-06-09T21:28:00Z</time>
      </trkpt>
      <trkpt lat="44.45043" lon="5.67549">
        <ele>974</ele>
        <time>2022-06-09T21:28:02Z</time>
      </trkpt>
      <trkpt lat="44.45039" lon="5.67543">
        <ele>975</ele>
        <time>2022-06-09T21:28:04Z</time>
      </trkpt>
      <trkpt lat="44.45038" lon="5.67527">
        <ele>976</ele>
        <time>2022-06-09T21:28:07Z</time>
      </trkpt>
      <trkpt lat="44.45033" lon="5.67517">
        <ele>977</ele>
        <time>2022-06-09T21:28:09Z</time>
      </trkpt>
      <trkpt lat="44.45036" lon="5.67507">
        <ele>977</ele>
        <time>2022-06-09T21:28:10Z</time>
      </trkpt>
      <trkpt lat="44.45026" lon="5.67483">
        <ele>980</ele>
        <time>2022-06-09T21:28:15Z</time>
      </trkpt>
      <trkpt lat="44.45031" lon="5.67445">
        <ele>981</ele>
        <time>2022-06-09T21:28:21Z</time>
      </trkpt>
      <trkpt lat="44.45033" lon="5.67399">
        <ele>984</ele>
        <time>2022-06-09T21:28:29Z</time>
      </trkpt>
      <trkpt lat="44.45026" lon="5.67359">
        <ele>989</ele>
        <time>2022-06-09T21:28:36Z</time>
      </trkpt>
      <trkpt lat="44.45023" lon="5.67354">
        <ele>990</ele>
        <time>2022-06-09T21:28:37Z</time>
      </trkpt>
      <trkpt lat="44.45024" lon="5.67351">
        <ele>990</ele>
        <time>2022-06-09T21:28:38Z</time>
      </trkpt>
      <trkpt lat="44.4502" lon="5.67351">
        <ele>991</ele>
        <time>2022-06-09T21:28:39Z</time>
      </trkpt>
      <trkpt lat="44.45012" lon="5.67317">
        <ele>995</ele>
        <time>2022-06-09T21:28:45Z</time>
      </trkpt>
      <trkpt lat="44.45012" lon="5.67287">
        <ele>996</ele>
        <time>2022-06-09T21:28:50Z</time>
      </trkpt>
      <trkpt lat="44.44999" lon="5.67256">
        <ele>1000</ele>
        <time>2022-06-09T21:28:56Z</time>
      </trkpt>
      <trkpt lat="44.44996" lon="5.67226">
        <ele>1003</ele>
        <time>2022-06-09T21:29:01Z</time>
      </trkpt>
      <trkpt lat="44.44991" lon="5.6721">
        <ele>1005</ele>
        <time>2022-06-09T21:29:04Z</time>
      </trkpt>
      <trkpt lat="44.44991" lon="5.67201">
        <ele>1005</ele>
        <time>2022-06-09T21:29:05Z</time>
      </trkpt>
      <trkpt lat="44.44998" lon="5.67172">
        <ele>1005</ele>
        <time>2022-06-09T21:29:10Z</time>
      </trkpt>
      <trkpt lat="44.44996" lon="5.6717">
        <ele>1006</ele>
        <time>2022-06-09T21:29:11Z</time>
      </trkpt>
      <trkpt lat="44.44997" lon="5.67145">
        <ele>1009</ele>
        <time>2022-06-09T21:29:15Z</time>
      </trkpt>
      <trkpt lat="44.44995" lon="5.67136">
        <ele>1011</ele>
        <time>2022-06-09T21:29:16Z</time>
      </trkpt>
      <trkpt lat="44.44997" lon="5.6712">
        <ele>1013</ele>
        <time>2022-06-09T21:29:19Z</time>
      </trkpt>
      <trkpt lat="44.45001" lon="5.67112">
        <ele>1013</ele>
        <time>2022-06-09T21:29:21Z</time>
      </trkpt>
      <trkpt lat="44.44998" lon="5.67085">
        <ele>1018</ele>
        <time>2022-06-09T21:29:25Z</time>
      </trkpt>
      <trkpt lat="44.45018" lon="5.67062">
        <ele>1018</ele>
        <time>2022-06-09T21:29:31Z</time>
      </trkpt>
      <trkpt lat="44.45039" lon="5.67052">
        <ele>1016</ele>
        <time>2022-06-09T21:29:37Z</time>
      </trkpt>
      <trkpt lat="44.4504" lon="5.67041">
        <ele>1017</ele>
        <time>2022-06-09T21:29:38Z</time>
      </trkpt>
      <trkpt lat="44.45035" lon="5.67032">
        <ele>1019</ele>
        <time>2022-06-09T21:29:40Z</time>
      </trkpt>
      <trkpt lat="44.45036" lon="5.67025">
        <ele>1019</ele>
        <time>2022-06-09T21:29:41Z</time>
      </trkpt>
      <trkpt lat="44.45025" lon="5.67005">
        <ele>1024</ele>
        <time>2022-06-09T21:29:46Z</time>
      </trkpt>
      <trkpt lat="44.45025" lon="5.66997">
        <ele>1024</ele>
        <time>2022-06-09T21:29:47Z</time>
      </trkpt>
      <trkpt lat="44.45022" lon="5.66998">
        <ele>1025</ele>
        <time>2022-06-09T21:29:48Z</time>
      </trkpt>
      <trkpt lat="44.45015" lon="5.66977">
        <ele>1025</ele>
        <time>2022-06-09T21:29:52Z</time>
      </trkpt>
      <trkpt lat="44.45013" lon="5.66958">
        <ele>1025</ele>
        <time>2022-06-09T21:29:55Z</time>
      </trkpt>
      <trkpt lat="44.45006" lon="5.66944">
        <ele>1026</ele>
        <time>2022-06-09T21:29:58Z</time>
      </trkpt>
      <trkpt lat="44.44994" lon="5.66934">
        <ele>1028</ele>
        <time>2022-06-09T21:30:01Z</time>
      </trkpt>
      <trkpt lat="44.44969" lon="5.66927">
        <ele>1033</ele>
        <time>2022-06-09T21:30:07Z</time>
      </trkpt>
      <trkpt lat="44.44954" lon="5.6692">
        <ele>1036</ele>
        <time>2022-06-09T21:30:11Z</time>
      </trkpt>
      <trkpt lat="44.44944" lon="5.6692">
        <ele>1038</ele>
        <time>2022-06-09T21:30:13Z</time>
      </trkpt>
      <trkpt lat="44.44931" lon="5.66897">
        <ele>1039</ele>
        <time>2022-06-09T21:30:18Z</time>
      </trkpt>
      <trkpt lat="44.4492" lon="5.66863">
        <ele>1038</ele>
        <time>2022-06-09T21:30:24Z</time>
      </trkpt>
      <trkpt lat="44.44915" lon="5.66836">
        <ele>1037</ele>
        <time>2022-06-09T21:30:29Z</time>
      </trkpt>
      <trkpt lat="44.44921" lon="5.66818">
        <ele>1034</ele>
        <time>2022-06-09T21:30:32Z</time>
      </trkpt>
      <trkpt lat="44.44924" lon="5.66796">
        <ele>1032</ele>
        <time>2022-06-09T21:30:36Z</time>
      </trkpt>
      <trkpt lat="44.44924" lon="5.6676">
        <ele>1031</ele>
        <time>2022-06-09T21:30:42Z</time>
      </trkpt>
      <trkpt lat="44.44949" lon="5.66686">
        <ele>1027</ele>
        <time>2022-06-09T21:30:55Z</time>
      </trkpt>
      <trkpt lat="44.44964" lon="5.66654">
        <ele>1026</ele>
        <time>2022-06-09T21:31:02Z</time>
      </trkpt>
      <trkpt lat="44.44975" lon="5.66639">
        <ele>1025</ele>
        <time>2022-06-09T21:31:05Z</time>
      </trkpt>
      <trkpt lat="44.44979" lon="5.66629">
        <ele>1025</ele>
        <time>2022-06-09T21:31:07Z</time>
      </trkpt>
      <trkpt lat="44.44983" lon="5.66597">
        <ele>1027</ele>
        <time>2022-06-09T21:31:13Z</time>
      </trkpt>
      <trkpt lat="44.44993" lon="5.66574">
        <ele>1025</ele>
        <time>2022-06-09T21:31:17Z</time>
      </trkpt>
      <trkpt lat="44.44991" lon="5.66574">
        <ele>1026</ele>
        <time>2022-06-09T21:31:18Z</time>
      </trkpt>
      <trkpt lat="44.44996" lon="5.66556">
        <ele>1024</ele>
        <time>2022-06-09T21:31:21Z</time>
      </trkpt>
      <trkpt lat="44.44997" lon="5.66537">
        <ele>1025</ele>
        <time>2022-06-09T21:31:24Z</time>
      </trkpt>
      <trkpt lat="44.45006" lon="5.66505">
        <ele>1023</ele>
        <time>2022-06-09T21:31:30Z</time>
      </trkpt>
      <trkpt lat="44.45016" lon="5.66495">
        <ele>1021</ele>
        <time>2022-06-09T21:31:33Z</time>
      </trkpt>
      <trkpt lat="44.45014" lon="5.66495">
        <ele>1022</ele>
        <time>2022-06-09T21:31:33Z</time>
      </trkpt>
      <trkpt lat="44.45014" lon="5.66499">
        <ele>1021</ele>
        <time>2022-06-09T21:31:34Z</time>
      </trkpt>
      <trkpt lat="44.45017" lon="5.66497">
        <ele>1021</ele>
        <time>2022-06-09T21:31:35Z</time>
      </trkpt>
      <trkpt lat="44.45025" lon="5.66481">
        <ele>1019</ele>
        <time>2022-06-09T21:31:38Z</time>
      </trkpt>
      <trkpt lat="44.45025" lon="5.66465">
        <ele>1020</ele>
        <time>2022-06-09T21:31:40Z</time>
      </trkpt>
      <trkpt lat="44.45026" lon="5.6647">
        <ele>1020</ele>
        <time>2022-06-09T21:31:41Z</time>
      </trkpt>
      <trkpt lat="44.45031" lon="5.66469">
        <ele>1019</ele>
        <time>2022-06-09T21:31:42Z</time>
      </trkpt>
      <trkpt lat="44.45052" lon="5.66426">
        <ele>1015</ele>
        <time>2022-06-09T21:31:51Z</time>
      </trkpt>
      <trkpt lat="44.45056" lon="5.66399">
        <ele>1015</ele>
        <time>2022-06-09T21:31:56Z</time>
      </trkpt>
      <trkpt lat="44.45068" lon="5.66376">
        <ele>1012</ele>
        <time>2022-06-09T21:32:01Z</time>
      </trkpt>
      <trkpt lat="44.45068" lon="5.6635">
        <ele>1012</ele>
        <time>2022-06-09T21:32:05Z</time>
      </trkpt>
      <trkpt lat="44.45072" lon="5.66335">
        <ele>1011</ele>
        <time>2022-06-09T21:32:08Z</time>
      </trkpt>
      <trkpt lat="44.45069" lon="5.66336">
        <ele>1012</ele>
        <time>2022-06-09T21:32:08Z</time>
      </trkpt>
      <trkpt lat="44.45072" lon="5.66337">
        <ele>1011</ele>
        <time>2022-06-09T21:32:09Z</time>
      </trkpt>
      <trkpt lat="44.45079" lon="5.6633">
        <ele>1009</ele>
        <time>2022-06-09T21:32:11Z</time>
      </trkpt>
      <trkpt lat="44.45092" lon="5.66324">
        <ele>1007</ele>
        <time>2022-06-09T21:32:14Z</time>
      </trkpt>
      <trkpt lat="44.45112" lon="5.66298">
        <ele>1005</ele>
        <time>2022-06-09T21:32:21Z</time>
      </trkpt>
      <trkpt lat="44.45127" lon="5.66293">
        <ele>1002</ele>
        <time>2022-06-09T21:32:24Z</time>
      </trkpt>
      <trkpt lat="44.45137" lon="5.66274">
        <ele>1002</ele>
        <time>2022-06-09T21:32:28Z</time>
      </trkpt>
      <trkpt lat="44.4515" lon="5.66271">
        <ele>1000</ele>
        <time>2022-06-09T21:32:31Z</time>
      </trkpt>
      <trkpt lat="44.45195" lon="5.66272">
        <ele>993</ele>
        <time>2022-06-09T21:32:42Z</time>
      </trkpt>
      <trkpt lat="44.45208" lon="5.66282">
        <ele>990</ele>
        <time>2022-06-09T21:32:45Z</time>
      </trkpt>
      <trkpt lat="44.45227" lon="5.66291">
        <ele>987</ele>
        <time>2022-06-09T21:32:50Z</time>
      </trkpt>
      <trkpt lat="44.45243" lon="5.66291">
        <ele>985</ele>
        <time>2022-06-09T21:32:54Z</time>
      </trkpt>
      <trkpt lat="44.45274" lon="5.66297">
        <ele>981</ele>
        <time>2022-06-09T21:33:01Z</time>
      </trkpt>
      <trkpt lat="44.45294" lon="5.66312">
        <ele>978</ele>
        <time>2022-06-09T21:33:06Z</time>
      </trkpt>
      <trkpt lat="44.45329" lon="5.66328">
        <ele>973</ele>
        <time>2022-06-09T21:33:15Z</time>
      </trkpt>
      <trkpt lat="44.45332" lon="5.66332">
        <ele>972</ele>
        <time>2022-06-09T21:33:16Z</time>
      </trkpt>
      <trkpt lat="44.45355" lon="5.66336">
        <ele>968</ele>
        <time>2022-06-09T21:33:21Z</time>
      </trkpt>
      <trkpt lat="44.45371" lon="5.66334">
        <ele>965</ele>
        <time>2022-06-09T21:33:25Z</time>
      </trkpt>
      <trkpt lat="44.45376" lon="5.66326">
        <ele>965</ele>
        <time>2022-06-09T21:33:27Z</time>
      </trkpt>
      <trkpt lat="44.45379" lon="5.66312">
        <ele>965</ele>
        <time>2022-06-09T21:33:29Z</time>
      </trkpt>
      <trkpt lat="44.45383" lon="5.66272">
        <ele>967</ele>
        <time>2022-06-09T21:33:36Z</time>
      </trkpt>
      <trkpt lat="44.45392" lon="5.66228">
        <ele>969</ele>
        <time>2022-06-09T21:33:43Z</time>
      </trkpt>
      <trkpt lat="44.4539" lon="5.662">
        <ele>971</ele>
        <time>2022-06-09T21:33:48Z</time>
      </trkpt>
      <trkpt lat="44.45378" lon="5.66174">
        <ele>975</ele>
        <time>2022-06-09T21:33:53Z</time>
      </trkpt>
      <trkpt lat="44.45377" lon="5.66162">
        <ele>976</ele>
        <time>2022-06-09T21:33:55Z</time>
      </trkpt>
      <trkpt lat="44.45379" lon="5.66152">
        <ele>976</ele>
        <time>2022-06-09T21:33:57Z</time>
      </trkpt>
      <trkpt lat="44.45392" lon="5.66125">
        <ele>977</ele>
        <time>2022-06-09T21:34:02Z</time>
      </trkpt>
      <trkpt lat="44.45407" lon="5.66108">
        <ele>976</ele>
        <time>2022-06-09T21:34:07Z</time>
      </trkpt>
      <trkpt lat="44.4542" lon="5.66106">
        <ele>974</ele>
        <time>2022-06-09T21:34:10Z</time>
      </trkpt>
      <trkpt lat="44.4544" lon="5.66118">
        <ele>969</ele>
        <time>2022-06-09T21:34:15Z</time>
      </trkpt>
      <trkpt lat="44.45444" lon="5.66118">
        <ele>968</ele>
        <time>2022-06-09T21:34:16Z</time>
      </trkpt>
      <trkpt lat="44.45451" lon="5.66114">
        <ele>966</ele>
        <time>2022-06-09T21:34:18Z</time>
      </trkpt>
      <trkpt lat="44.45459" lon="5.66099">
        <ele>965</ele>
        <time>2022-06-09T21:34:21Z</time>
      </trkpt>
      <trkpt lat="44.45456" lon="5.66081">
        <ele>966</ele>
        <time>2022-06-09T21:34:24Z</time>
      </trkpt>
      <trkpt lat="44.45442" lon="5.66039">
        <ele>971</ele>
        <time>2022-06-09T21:34:32Z</time>
      </trkpt>
      <trkpt lat="44.45404" lon="5.6597">
        <ele>983</ele>
        <time>2022-06-09T21:34:46Z</time>
      </trkpt>
      <trkpt lat="44.45391" lon="5.65908">
        <ele>987</ele>
        <time>2022-06-09T21:34:57Z</time>
      </trkpt>
      <trkpt lat="44.45383" lon="5.65881">
        <ele>990</ele>
        <time>2022-06-09T21:35:02Z</time>
      </trkpt>
      <trkpt lat="44.4538" lon="5.65837">
        <ele>993</ele>
        <time>2022-06-09T21:35:09Z</time>
      </trkpt>
      <trkpt lat="44.45376" lon="5.65821">
        <ele>994</ele>
        <time>2022-06-09T21:35:12Z</time>
      </trkpt>
      <trkpt lat="44.45338" lon="5.65752">
        <ele>1001</ele>
        <time>2022-06-09T21:35:27Z</time>
      </trkpt>
      <trkpt lat="44.45305" lon="5.65701">
        <ele>1008</ele>
        <time>2022-06-09T21:35:38Z</time>
      </trkpt>
      <trkpt lat="44.45297" lon="5.65675">
        <ele>1010</ele>
        <time>2022-06-09T21:35:43Z</time>
      </trkpt>
      <trkpt lat="44.45292" lon="5.6567">
        <ele>1011</ele>
        <time>2022-06-09T21:35:44Z</time>
      </trkpt>
      <trkpt lat="44.45291" lon="5.65659">
        <ele>1012</ele>
        <time>2022-06-09T21:35:46Z</time>
      </trkpt>
      <trkpt lat="44.45287" lon="5.65652">
        <ele>1013</ele>
        <time>2022-06-09T21:35:48Z</time>
      </trkpt>
      <trkpt lat="44.45286" lon="5.65631">
        <ele>1015</ele>
        <time>2022-06-09T21:35:51Z</time>
      </trkpt>
      <trkpt lat="44.45288" lon="5.65619">
        <ele>1015</ele>
        <time>2022-06-09T21:35:53Z</time>
      </trkpt>
      <trkpt lat="44.45306" lon="5.65579">
        <ele>1017</ele>
        <time>2022-06-09T21:36:01Z</time>
      </trkpt>
      <trkpt lat="44.45309" lon="5.65567">
        <ele>1017</ele>
        <time>2022-06-09T21:36:03Z</time>
      </trkpt>
      <trkpt lat="44.4531" lon="5.65544">
        <ele>1019</ele>
        <time>2022-06-09T21:36:07Z</time>
      </trkpt>
      <trkpt lat="44.45294" lon="5.65466">
        <ele>1026</ele>
        <time>2022-06-09T21:36:21Z</time>
      </trkpt>
      <trkpt lat="44.45275" lon="5.65422">
        <ele>1031</ele>
        <time>2022-06-09T21:36:29Z</time>
      </trkpt>
      <trkpt lat="44.45273" lon="5.65412">
        <ele>1032</ele>
        <time>2022-06-09T21:36:31Z</time>
      </trkpt>
      <trkpt lat="44.45275" lon="5.65397">
        <ele>1033</ele>
        <time>2022-06-09T21:36:33Z</time>
      </trkpt>
      <trkpt lat="44.453" lon="5.6536">
        <ele>1032</ele>
        <time>2022-06-09T21:36:42Z</time>
      </trkpt>
      <trkpt lat="44.45305" lon="5.65334">
        <ele>1032</ele>
        <time>2022-06-09T21:36:46Z</time>
      </trkpt>
      <trkpt lat="44.45322" lon="5.65289">
        <ele>1033</ele>
        <time>2022-06-09T21:36:55Z</time>
      </trkpt>
      <trkpt lat="44.45325" lon="5.65255">
        <ele>1034</ele>
        <time>2022-06-09T21:37:01Z</time>
      </trkpt>
      <trkpt lat="44.45325" lon="5.6524">
        <ele>1035</ele>
        <time>2022-06-09T21:37:03Z</time>
      </trkpt>
      <trkpt lat="44.45319" lon="5.65216">
        <ele>1038</ele>
        <time>2022-06-09T21:37:07Z</time>
      </trkpt>
      <trkpt lat="44.45318" lon="5.65188">
        <ele>1039</ele>
        <time>2022-06-09T21:37:12Z</time>
      </trkpt>
      <trkpt lat="44.45304" lon="5.65122">
        <ele>1047</ele>
        <time>2022-06-09T21:37:23Z</time>
      </trkpt>
      <trkpt lat="44.45305" lon="5.65111">
        <ele>1047</ele>
        <time>2022-06-09T21:37:25Z</time>
      </trkpt>
      <trkpt lat="44.4531" lon="5.651">
        <ele>1047</ele>
        <time>2022-06-09T21:37:27Z</time>
      </trkpt>
      <trkpt lat="44.45312" lon="5.65074">
        <ele>1049</ele>
        <time>2022-06-09T21:37:32Z</time>
      </trkpt>
      <trkpt lat="44.45311" lon="5.65064">
        <ele>1050</ele>
        <time>2022-06-09T21:37:34Z</time>
      </trkpt>
      <trkpt lat="44.45307" lon="5.65056">
        <ele>1051</ele>
        <time>2022-06-09T21:37:35Z</time>
      </trkpt>
      <trkpt lat="44.45305" lon="5.65034">
        <ele>1054</ele>
        <time>2022-06-09T21:37:39Z</time>
      </trkpt>
      <trkpt lat="44.45306" lon="5.65009">
        <ele>1056</ele>
        <time>2022-06-09T21:37:43Z</time>
      </trkpt>
      <trkpt lat="44.45301" lon="5.64988">
        <ele>1058</ele>
        <time>2022-06-09T21:37:47Z</time>
      </trkpt>
      <trkpt lat="44.45304" lon="5.64977">
        <ele>1059</ele>
        <time>2022-06-09T21:37:49Z</time>
      </trkpt>
      <trkpt lat="44.45306" lon="5.64938">
        <ele>1064</ele>
        <time>2022-06-09T21:37:55Z</time>
      </trkpt>
      <trkpt lat="44.4531" lon="5.64926">
        <ele>1065</ele>
        <time>2022-06-09T21:37:57Z</time>
      </trkpt>
      <trkpt lat="44.45316" lon="5.6492">
        <ele>1065</ele>
        <time>2022-06-09T21:37:59Z</time>
      </trkpt>
      <trkpt lat="44.45321" lon="5.64909">
        <ele>1066</ele>
        <time>2022-06-09T21:38:01Z</time>
      </trkpt>
      <trkpt lat="44.45322" lon="5.64888">
        <ele>1069</ele>
        <time>2022-06-09T21:38:05Z</time>
      </trkpt>
      <trkpt lat="44.45325" lon="5.6488">
        <ele>1070</ele>
        <time>2022-06-09T21:38:06Z</time>
      </trkpt>
      <trkpt lat="44.45329" lon="5.64875">
        <ele>1070</ele>
        <time>2022-06-09T21:38:08Z</time>
      </trkpt>
      <trkpt lat="44.45346" lon="5.64866">
        <ele>1074</ele>
        <time>2022-06-09T21:38:12Z</time>
      </trkpt>
      <trkpt lat="44.45352" lon="5.6486">
        <ele>1076</ele>
        <time>2022-06-09T21:38:14Z</time>
      </trkpt>
      <trkpt lat="44.45357" lon="5.64844">
        <ele>1079</ele>
        <time>2022-06-09T21:38:16Z</time>
      </trkpt>
      <trkpt lat="44.45356" lon="5.64836">
        <ele>1080</ele>
        <time>2022-06-09T21:38:18Z</time>
      </trkpt>
      <trkpt lat="44.45348" lon="5.64824">
        <ele>1080</ele>
        <time>2022-06-09T21:38:21Z</time>
      </trkpt>
      <trkpt lat="44.45348" lon="5.64819">
        <ele>1080</ele>
        <time>2022-06-09T21:38:21Z</time>
      </trkpt>
      <trkpt lat="44.4534" lon="5.64817">
        <ele>1079</ele>
        <time>2022-06-09T21:38:23Z</time>
      </trkpt>
      <trkpt lat="44.4533" lon="5.6481">
        <ele>1078</ele>
        <time>2022-06-09T21:38:26Z</time>
      </trkpt>
      <trkpt lat="44.45327" lon="5.64811">
        <ele>1079</ele>
        <time>2022-06-09T21:38:27Z</time>
      </trkpt>
      <trkpt lat="44.45317" lon="5.64792">
        <ele>1081</ele>
        <time>2022-06-09T21:38:31Z</time>
      </trkpt>
      <trkpt lat="44.45316" lon="5.64778">
        <ele>1083</ele>
        <time>2022-06-09T21:38:33Z</time>
      </trkpt>
      <trkpt lat="44.4532" lon="5.64764">
        <ele>1084</ele>
        <time>2022-06-09T21:38:35Z</time>
      </trkpt>
      <trkpt lat="44.45319" lon="5.64753">
        <ele>1085</ele>
        <time>2022-06-09T21:38:37Z</time>
      </trkpt>
      <trkpt lat="44.45322" lon="5.64724">
        <ele>1086</ele>
        <time>2022-06-09T21:38:42Z</time>
      </trkpt>
      <trkpt lat="44.45334" lon="5.64702">
        <ele>1087</ele>
        <time>2022-06-09T21:38:47Z</time>
      </trkpt>
      <trkpt lat="44.45339" lon="5.64684">
        <ele>1089</ele>
        <time>2022-06-09T21:38:50Z</time>
      </trkpt>
      <trkpt lat="44.4534" lon="5.64648">
        <ele>1091</ele>
        <time>2022-06-09T21:38:56Z</time>
      </trkpt>
      <trkpt lat="44.45352" lon="5.64601">
        <ele>1095</ele>
        <time>2022-06-09T21:39:04Z</time>
      </trkpt>
      <trkpt lat="44.45358" lon="5.64562">
        <ele>1098</ele>
        <time>2022-06-09T21:39:11Z</time>
      </trkpt>
      <trkpt lat="44.45363" lon="5.64552">
        <ele>1099</ele>
        <time>2022-06-09T21:39:13Z</time>
      </trkpt>
      <trkpt lat="44.45372" lon="5.64547">
        <ele>1102</ele>
        <time>2022-06-09T21:39:15Z</time>
      </trkpt>
      <trkpt lat="44.45382" lon="5.64536">
        <ele>1104</ele>
        <time>2022-06-09T21:39:18Z</time>
      </trkpt>
      <trkpt lat="44.45392" lon="5.64512">
        <ele>1108</ele>
        <time>2022-06-09T21:39:23Z</time>
      </trkpt>
      <trkpt lat="44.45393" lon="5.6449">
        <ele>1110</ele>
        <time>2022-06-09T21:39:27Z</time>
      </trkpt>
      <trkpt lat="44.4539" lon="5.6447">
        <ele>1111</ele>
        <time>2022-06-09T21:39:30Z</time>
      </trkpt>
      <trkpt lat="44.45394" lon="5.64453">
        <ele>1114</ele>
        <time>2022-06-09T21:39:33Z</time>
      </trkpt>
      <trkpt lat="44.45393" lon="5.64414">
        <ele>1118</ele>
        <time>2022-06-09T21:39:39Z</time>
      </trkpt>
      <trkpt lat="44.45399" lon="5.64357">
        <ele>1124</ele>
        <time>2022-06-09T21:39:49Z</time>
      </trkpt>
      <trkpt lat="44.45397" lon="5.64316">
        <ele>1127</ele>
        <time>2022-06-09T21:39:56Z</time>
      </trkpt>
      <trkpt lat="44.45403" lon="5.64291">
        <ele>1128</ele>
        <time>2022-06-09T21:40:00Z</time>
      </trkpt>
      <trkpt lat="44.45417" lon="5.64253">
        <ele>1130</ele>
        <time>2022-06-09T21:40:07Z</time>
      </trkpt>
      <trkpt lat="44.45419" lon="5.64254">
        <ele>1131</ele>
        <time>2022-06-09T21:40:08Z</time>
      </trkpt>
      <trkpt lat="44.45422" lon="5.64248">
        <ele>1132</ele>
        <time>2022-06-09T21:40:09Z</time>
      </trkpt>
      <trkpt lat="44.45436" lon="5.64234">
        <ele>1138</ele>
        <time>2022-06-09T21:40:13Z</time>
      </trkpt>
      <trkpt lat="44.45454" lon="5.64201">
        <ele>1145</ele>
        <time>2022-06-09T21:40:20Z</time>
      </trkpt>
      <trkpt lat="44.45461" lon="5.64183">
        <ele>1147</ele>
        <time>2022-06-09T21:40:23Z</time>
      </trkpt>
      <trkpt lat="44.4548" lon="5.64154">
        <ele>1153</ele>
        <time>2022-06-09T21:40:30Z</time>
      </trkpt>
      <trkpt lat="44.45485" lon="5.64137">
        <ele>1156</ele>
        <time>2022-06-09T21:40:33Z</time>
      </trkpt>
      <trkpt lat="44.45488" lon="5.64135">
        <ele>1156</ele>
        <time>2022-06-09T21:40:34Z</time>
      </trkpt>
      <trkpt lat="44.45488" lon="5.64106">
        <ele>1158</ele>
        <time>2022-06-09T21:40:39Z</time>
      </trkpt>
      <trkpt lat="44.45489" lon="5.64093">
        <ele>1159</ele>
        <time>2022-06-09T21:40:41Z</time>
      </trkpt>
      <trkpt lat="44.45492" lon="5.64086">
        <ele>1159</ele>
        <time>2022-06-09T21:40:42Z</time>
      </trkpt>
      <trkpt lat="44.45494" lon="5.64056">
        <ele>1162</ele>
        <time>2022-06-09T21:40:47Z</time>
      </trkpt>
      <trkpt lat="44.4549" lon="5.64021">
        <ele>1164</ele>
        <time>2022-06-09T21:40:53Z</time>
      </trkpt>
      <trkpt lat="44.45497" lon="5.64017">
        <ele>1165</ele>
        <time>2022-06-09T21:40:55Z</time>
      </trkpt>
      <trkpt lat="44.45498" lon="5.63999">
        <ele>1166</ele>
        <time>2022-06-09T21:40:58Z</time>
      </trkpt>
      <trkpt lat="44.45503" lon="5.63977">
        <ele>1169</ele>
        <time>2022-06-09T21:41:02Z</time>
      </trkpt>
      <trkpt lat="44.45504" lon="5.63941">
        <ele>1171</ele>
        <time>2022-06-09T21:41:08Z</time>
      </trkpt>
      <trkpt lat="44.45511" lon="5.63892">
        <ele>1176</ele>
        <time>2022-06-09T21:41:16Z</time>
      </trkpt>
      <trkpt lat="44.45511" lon="5.63864">
        <ele>1177</ele>
        <time>2022-06-09T21:41:21Z</time>
      </trkpt>
      <trkpt lat="44.4552" lon="5.63833">
        <ele>1182</ele>
        <time>2022-06-09T21:41:26Z</time>
      </trkpt>
      <trkpt lat="44.45532" lon="5.63807">
        <ele>1189</ele>
        <time>2022-06-09T21:41:32Z</time>
      </trkpt>
      <trkpt lat="44.45536" lon="5.63782">
        <ele>1192</ele>
        <time>2022-06-09T21:41:36Z</time>
      </trkpt>
      <trkpt lat="44.45532" lon="5.63741">
        <ele>1194</ele>
        <time>2022-06-09T21:41:43Z</time>
      </trkpt>
      <trkpt lat="44.45527" lon="5.63725">
        <ele>1194</ele>
        <time>2022-06-09T21:41:46Z</time>
      </trkpt>
      <trkpt lat="44.45513" lon="5.63701">
        <ele>1191</ele>
        <time>2022-06-09T21:41:51Z</time>
      </trkpt>
      <trkpt lat="44.45496" lon="5.63657">
        <ele>1192</ele>
        <time>2022-06-09T21:41:59Z</time>
      </trkpt>
      <trkpt lat="44.45479" lon="5.63626">
        <ele>1196</ele>
        <time>2022-06-09T21:42:06Z</time>
      </trkpt>
      <trkpt lat="44.45466" lon="5.63592">
        <ele>1198</ele>
        <time>2022-06-09T21:42:12Z</time>
      </trkpt>
      <trkpt lat="44.45442" lon="5.6355">
        <ele>1199</ele>
        <time>2022-06-09T21:42:21Z</time>
      </trkpt>
      <trkpt lat="44.45441" lon="5.63526">
        <ele>1203</ele>
        <time>2022-06-09T21:42:25Z</time>
      </trkpt>
      <trkpt lat="44.45426" lon="5.6348">
        <ele>1205</ele>
        <time>2022-06-09T21:42:33Z</time>
      </trkpt>
      <trkpt lat="44.45415" lon="5.63373">
        <ele>1211</ele>
        <time>2022-06-09T21:42:52Z</time>
      </trkpt>
      <trkpt lat="44.45415" lon="5.63352">
        <ele>1211</ele>
        <time>2022-06-09T21:42:55Z</time>
      </trkpt>
      <trkpt lat="44.45428" lon="5.63268">
        <ele>1217</ele>
        <time>2022-06-09T21:43:09Z</time>
      </trkpt>
      <trkpt lat="44.45451" lon="5.63188">
        <ele>1225</ele>
        <time>2022-06-09T21:43:24Z</time>
      </trkpt>
      <trkpt lat="44.45464" lon="5.63159">
        <ele>1227</ele>
        <time>2022-06-09T21:43:29Z</time>
      </trkpt>
      <trkpt lat="44.45469" lon="5.63138">
        <ele>1229</ele>
        <time>2022-06-09T21:43:33Z</time>
      </trkpt>
      <trkpt lat="44.45467" lon="5.63123">
        <ele>1229</ele>
        <time>2022-06-09T21:43:36Z</time>
      </trkpt>
      <trkpt lat="44.45469" lon="5.63093">
        <ele>1231</ele>
        <time>2022-06-09T21:43:41Z</time>
      </trkpt>
      <trkpt lat="44.45461" lon="5.63058">
        <ele>1234</ele>
        <time>2022-06-09T21:43:47Z</time>
      </trkpt>
      <trkpt lat="44.45441" lon="5.63026">
        <ele>1234</ele>
        <time>2022-06-09T21:43:54Z</time>
      </trkpt>
      <trkpt lat="44.45435" lon="5.63008">
        <ele>1235</ele>
        <time>2022-06-09T21:43:57Z</time>
      </trkpt>
      <trkpt lat="44.45428" lon="5.62968">
        <ele>1237</ele>
        <time>2022-06-09T21:44:04Z</time>
      </trkpt>
      <trkpt lat="44.45426" lon="5.62924">
        <ele>1242</ele>
        <time>2022-06-09T21:44:11Z</time>
      </trkpt>
      <trkpt lat="44.45423" lon="5.6291">
        <ele>1242</ele>
        <time>2022-06-09T21:44:14Z</time>
      </trkpt>
      <trkpt lat="44.45424" lon="5.62899">
        <ele>1244</ele>
        <time>2022-06-09T21:44:16Z</time>
      </trkpt>
      <trkpt lat="44.45406" lon="5.62848">
        <ele>1250</ele>
        <time>2022-06-09T21:44:25Z</time>
      </trkpt>
      <trkpt lat="44.45392" lon="5.6282">
        <ele>1258</ele>
        <time>2022-06-09T21:44:31Z</time>
      </trkpt>
      <trkpt lat="44.4539" lon="5.62789">
        <ele>1261</ele>
        <time>2022-06-09T21:44:36Z</time>
      </trkpt>
      <trkpt lat="44.45385" lon="5.62776">
        <ele>1263</ele>
        <time>2022-06-09T21:44:39Z</time>
      </trkpt>
      <trkpt lat="44.45384" lon="5.6275">
        <ele>1265</ele>
        <time>2022-06-09T21:44:43Z</time>
      </trkpt>
      <trkpt lat="44.45369" lon="5.62715">
        <ele>1268</ele>
        <time>2022-06-09T21:44:50Z</time>
      </trkpt>
      <trkpt lat="44.45366" lon="5.62696">
        <ele>1270</ele>
        <time>2022-06-09T21:44:53Z</time>
      </trkpt>
      <trkpt lat="44.45368" lon="5.62681">
        <ele>1271</ele>
        <time>2022-06-09T21:44:55Z</time>
      </trkpt>
      <trkpt lat="44.45367" lon="5.62657">
        <ele>1273</ele>
        <time>2022-06-09T21:44:59Z</time>
      </trkpt>
      <trkpt lat="44.45361" lon="5.62635">
        <ele>1273</ele>
        <time>2022-06-09T21:45:03Z</time>
      </trkpt>
      <trkpt lat="44.45364" lon="5.62608">
        <ele>1276</ele>
        <time>2022-06-09T21:45:08Z</time>
      </trkpt>
      <trkpt lat="44.45355" lon="5.62577">
        <ele>1275</ele>
        <time>2022-06-09T21:45:14Z</time>
      </trkpt>
      <trkpt lat="44.45355" lon="5.62532">
        <ele>1278</ele>
        <time>2022-06-09T21:45:21Z</time>
      </trkpt>
      <trkpt lat="44.45353" lon="5.62531">
        <ele>1277</ele>
        <time>2022-06-09T21:45:22Z</time>
      </trkpt>
      <trkpt lat="44.45355" lon="5.62526">
        <ele>1278</ele>
        <time>2022-06-09T21:45:22Z</time>
      </trkpt>
      <trkpt lat="44.45351" lon="5.62506">
        <ele>1278</ele>
        <time>2022-06-09T21:45:26Z</time>
      </trkpt>
      <trkpt lat="44.45342" lon="5.62499">
        <ele>1274</ele>
        <time>2022-06-09T21:45:28Z</time>
      </trkpt>
      <trkpt lat="44.4533" lon="5.62477">
        <ele>1276</ele>
        <time>2022-06-09T21:45:33Z</time>
      </trkpt>
      <trkpt lat="44.4531" lon="5.62469">
        <ele>1278</ele>
        <time>2022-06-09T21:45:38Z</time>
      </trkpt>
      <trkpt lat="44.45306" lon="5.6247">
        <ele>1278</ele>
        <time>2022-06-09T21:45:39Z</time>
      </trkpt>
      <trkpt lat="44.45302" lon="5.62481">
        <ele>1276</ele>
        <time>2022-06-09T21:45:41Z</time>
      </trkpt>
      <trkpt lat="44.45302" lon="5.6249">
        <ele>1275</ele>
        <time>2022-06-09T21:45:42Z</time>
      </trkpt>
      <trkpt lat="44.45298" lon="5.62498">
        <ele>1274</ele>
        <time>2022-06-09T21:45:44Z</time>
      </trkpt>
      <trkpt lat="44.45286" lon="5.62502">
        <ele>1275</ele>
        <time>2022-06-09T21:45:47Z</time>
      </trkpt>
      <trkpt lat="44.45285" lon="5.62496">
        <ele>1276</ele>
        <time>2022-06-09T21:45:48Z</time>
      </trkpt>
      <trkpt lat="44.45259" lon="5.62475">
        <ele>1279</ele>
        <time>2022-06-09T21:45:55Z</time>
      </trkpt>
      <trkpt lat="44.45258" lon="5.62469">
        <ele>1279</ele>
        <time>2022-06-09T21:45:56Z</time>
      </trkpt>
      <trkpt lat="44.45244" lon="5.62453">
        <ele>1281</ele>
        <time>2022-06-09T21:46:00Z</time>
      </trkpt>
      <trkpt lat="44.45234" lon="5.6245">
        <ele>1284</ele>
        <time>2022-06-09T21:46:03Z</time>
      </trkpt>
      <trkpt lat="44.45229" lon="5.62441">
        <ele>1285</ele>
        <time>2022-06-09T21:46:04Z</time>
      </trkpt>
      <trkpt lat="44.45219" lon="5.62439">
        <ele>1287</ele>
        <time>2022-06-09T21:46:07Z</time>
      </trkpt>
      <trkpt lat="44.45208" lon="5.62441">
        <ele>1290</ele>
        <time>2022-06-09T21:46:09Z</time>
      </trkpt>
      <trkpt lat="44.45191" lon="5.62435">
        <ele>1294</ele>
        <time>2022-06-09T21:46:13Z</time>
      </trkpt>
      <trkpt lat="44.4518" lon="5.62427">
        <ele>1296</ele>
        <time>2022-06-09T21:46:16Z</time>
      </trkpt>
      <trkpt lat="44.45175" lon="5.62417">
        <ele>1297</ele>
        <time>2022-06-09T21:46:18Z</time>
      </trkpt>
      <trkpt lat="44.45164" lon="5.62407">
        <ele>1300</ele>
        <time>2022-06-09T21:46:21Z</time>
      </trkpt>
      <trkpt lat="44.45152" lon="5.62403">
        <ele>1303</ele>
        <time>2022-06-09T21:46:24Z</time>
      </trkpt>
      <trkpt lat="44.45141" lon="5.62393">
        <ele>1306</ele>
        <time>2022-06-09T21:46:27Z</time>
      </trkpt>
      <trkpt lat="44.45119" lon="5.62386">
        <ele>1312</ele>
        <time>2022-06-09T21:46:33Z</time>
      </trkpt>
      <trkpt lat="44.45108" lon="5.62377">
        <ele>1315</ele>
        <time>2022-06-09T21:46:36Z</time>
      </trkpt>
      <trkpt lat="44.45094" lon="5.62373">
        <ele>1318</ele>
        <time>2022-06-09T21:46:39Z</time>
      </trkpt>
      <trkpt lat="44.45088" lon="5.62362">
        <ele>1319</ele>
        <time>2022-06-09T21:46:41Z</time>
      </trkpt>
      <trkpt lat="44.45081" lon="5.62355">
        <ele>1321</ele>
        <time>2022-06-09T21:46:43Z</time>
      </trkpt>
      <trkpt lat="44.45075" lon="5.62356">
        <ele>1324</ele>
        <time>2022-06-09T21:46:45Z</time>
      </trkpt>
      <trkpt lat="44.45063" lon="5.6231">
        <ele>1330</ele>
        <time>2022-06-09T21:46:53Z</time>
      </trkpt>
      <trkpt lat="44.45057" lon="5.62271">
        <ele>1336</ele>
        <time>2022-06-09T21:47:00Z</time>
      </trkpt>
      <trkpt lat="44.45061" lon="5.62257">
        <ele>1336</ele>
        <time>2022-06-09T21:47:02Z</time>
      </trkpt>
      <trkpt lat="44.45067" lon="5.62253">
        <ele>1334</ele>
        <time>2022-06-09T21:47:04Z</time>
      </trkpt>
      <trkpt lat="44.45077" lon="5.62225">
        <ele>1337</ele>
        <time>2022-06-09T21:47:09Z</time>
      </trkpt>
      <trkpt lat="44.45082" lon="5.62219">
        <ele>1336</ele>
        <time>2022-06-09T21:47:10Z</time>
      </trkpt>
      <trkpt lat="44.45082" lon="5.62211">
        <ele>1338</ele>
        <time>2022-06-09T21:47:12Z</time>
      </trkpt>
      <trkpt lat="44.45093" lon="5.62183">
        <ele>1340</ele>
        <time>2022-06-09T21:47:17Z</time>
      </trkpt>
      <trkpt lat="44.45096" lon="5.62163">
        <ele>1342</ele>
        <time>2022-06-09T21:47:20Z</time>
      </trkpt>
      <trkpt lat="44.45103" lon="5.62155">
        <ele>1341</ele>
        <time>2022-06-09T21:47:23Z</time>
      </trkpt>
      <trkpt lat="44.45102" lon="5.62149">
        <ele>1342</ele>
        <time>2022-06-09T21:47:24Z</time>
      </trkpt>
      <trkpt lat="44.45108" lon="5.62115">
        <ele>1345</ele>
        <time>2022-06-09T21:47:29Z</time>
      </trkpt>
      <trkpt lat="44.45115" lon="5.62093">
        <ele>1346</ele>
        <time>2022-06-09T21:47:33Z</time>
      </trkpt>
      <trkpt lat="44.45117" lon="5.62054">
        <ele>1351</ele>
        <time>2022-06-09T21:47:40Z</time>
      </trkpt>
      <trkpt lat="44.45124" lon="5.62024">
        <ele>1353</ele>
        <time>2022-06-09T21:47:45Z</time>
      </trkpt>
      <trkpt lat="44.4513" lon="5.6198">
        <ele>1358</ele>
        <time>2022-06-09T21:47:53Z</time>
      </trkpt>
      <trkpt lat="44.45143" lon="5.61956">
        <ele>1360</ele>
        <time>2022-06-09T21:47:58Z</time>
      </trkpt>
      <trkpt lat="44.45156" lon="5.61945">
        <ele>1358</ele>
        <time>2022-06-09T21:48:01Z</time>
      </trkpt>
      <trkpt lat="44.45168" lon="5.61929">
        <ele>1358</ele>
        <time>2022-06-09T21:48:05Z</time>
      </trkpt>
      <trkpt lat="44.45183" lon="5.61879">
        <ele>1365</ele>
        <time>2022-06-09T21:48:14Z</time>
      </trkpt>
      <trkpt lat="44.4519" lon="5.61872">
        <ele>1364</ele>
        <time>2022-06-09T21:48:16Z</time>
      </trkpt>
      <trkpt lat="44.45194" lon="5.61856">
        <ele>1366</ele>
        <time>2022-06-09T21:48:19Z</time>
      </trkpt>
      <trkpt lat="44.45209" lon="5.61821">
        <ele>1367</ele>
        <time>2022-06-09T21:48:26Z</time>
      </trkpt>
      <trkpt lat="44.4523" lon="5.61749">
        <ele>1371</ele>
        <time>2022-06-09T21:48:39Z</time>
      </trkpt>
      <trkpt lat="44.45234" lon="5.6174">
        <ele>1371</ele>
        <time>2022-06-09T21:48:41Z</time>
      </trkpt>
      <trkpt lat="44.45245" lon="5.61726">
        <ele>1369</ele>
        <time>2022-06-09T21:48:44Z</time>
      </trkpt>
      <trkpt lat="44.45254" lon="5.61704">
        <ele>1370</ele>
        <time>2022-06-09T21:48:48Z</time>
      </trkpt>
      <trkpt lat="44.45259" lon="5.61682">
        <ele>1374</ele>
        <time>2022-06-09T21:48:52Z</time>
      </trkpt>
      <trkpt lat="44.45277" lon="5.61662">
        <ele>1374</ele>
        <time>2022-06-09T21:48:57Z</time>
      </trkpt>
      <trkpt lat="44.45297" lon="5.61658">
        <ele>1371</ele>
        <time>2022-06-09T21:49:02Z</time>
      </trkpt>
      <trkpt lat="44.45308" lon="5.61648">
        <ele>1371</ele>
        <time>2022-06-09T21:49:05Z</time>
      </trkpt>
      <trkpt lat="44.45327" lon="5.6164">
        <ele>1369</ele>
        <time>2022-06-09T21:49:10Z</time>
      </trkpt>
      <trkpt lat="44.45333" lon="5.61631">
        <ele>1369</ele>
        <time>2022-06-09T21:49:12Z</time>
      </trkpt>
      <trkpt lat="44.45352" lon="5.61621">
        <ele>1372</ele>
        <time>2022-06-09T21:49:17Z</time>
      </trkpt>
      <trkpt lat="44.45354" lon="5.61622">
        <ele>1372</ele>
        <time>2022-06-09T21:49:17Z</time>
      </trkpt>
      <trkpt lat="44.45358" lon="5.61618">
        <ele>1373</ele>
        <time>2022-06-09T21:49:18Z</time>
      </trkpt>
      <trkpt lat="44.4537" lon="5.61617">
        <ele>1374</ele>
        <time>2022-06-09T21:49:21Z</time>
      </trkpt>
      <trkpt lat="44.45372" lon="5.61615">
        <ele>1374</ele>
        <time>2022-06-09T21:49:22Z</time>
      </trkpt>
      <trkpt lat="44.45372" lon="5.61618">
        <ele>1374</ele>
        <time>2022-06-09T21:49:22Z</time>
      </trkpt>
      <trkpt lat="44.45374" lon="5.61612">
        <ele>1375</ele>
        <time>2022-06-09T21:49:23Z</time>
      </trkpt>
      <trkpt lat="44.45374" lon="5.61625">
        <ele>1373</ele>
        <time>2022-06-09T21:49:25Z</time>
      </trkpt>
      <trkpt lat="44.45387" lon="5.61624">
        <ele>1374</ele>
        <time>2022-06-09T21:49:28Z</time>
      </trkpt>
      <trkpt lat="44.4539" lon="5.61631">
        <ele>1374</ele>
        <time>2022-06-09T21:49:30Z</time>
      </trkpt>
      <trkpt lat="44.45394" lon="5.61631">
        <ele>1374</ele>
        <time>2022-06-09T21:49:31Z</time>
      </trkpt>
      <trkpt lat="44.45398" lon="5.6162">
        <ele>1376</ele>
        <time>2022-06-09T21:49:33Z</time>
      </trkpt>
      <trkpt lat="44.454" lon="5.6162">
        <ele>1376</ele>
        <time>2022-06-09T21:49:33Z</time>
      </trkpt>
      <trkpt lat="44.45402" lon="5.61614">
        <ele>1377</ele>
        <time>2022-06-09T21:49:34Z</time>
      </trkpt>
      <trkpt lat="44.45408" lon="5.61608">
        <ele>1378</ele>
        <time>2022-06-09T21:49:36Z</time>
      </trkpt>
      <trkpt lat="44.45424" lon="5.61605">
        <ele>1380</ele>
        <time>2022-06-09T21:49:40Z</time>
      </trkpt>
      <trkpt lat="44.45435" lon="5.61599">
        <ele>1382</ele>
        <time>2022-06-09T21:49:43Z</time>
      </trkpt>
      <trkpt lat="44.45449" lon="5.61597">
        <ele>1384</ele>
        <time>2022-06-09T21:49:46Z</time>
      </trkpt>
      <trkpt lat="44.45472" lon="5.61578">
        <ele>1389</ele>
        <time>2022-06-09T21:49:52Z</time>
      </trkpt>
      <trkpt lat="44.45479" lon="5.61577">
        <ele>1390</ele>
        <time>2022-06-09T21:49:54Z</time>
      </trkpt>
      <trkpt lat="44.45482" lon="5.61571">
        <ele>1391</ele>
        <time>2022-06-09T21:49:55Z</time>
      </trkpt>
      <trkpt lat="44.45489" lon="5.61567">
        <ele>1392</ele>
        <time>2022-06-09T21:49:57Z</time>
      </trkpt>
      <trkpt lat="44.45487" lon="5.61558">
        <ele>1393</ele>
        <time>2022-06-09T21:49:58Z</time>
      </trkpt>
      <trkpt lat="44.45496" lon="5.61552">
        <ele>1394</ele>
        <time>2022-06-09T21:50:01Z</time>
      </trkpt>
      <trkpt lat="44.455" lon="5.61544">
        <ele>1395</ele>
        <time>2022-06-09T21:50:02Z</time>
      </trkpt>
      <trkpt lat="44.45511" lon="5.61539">
        <ele>1399</ele>
        <time>2022-06-09T21:50:05Z</time>
      </trkpt>
      <trkpt lat="44.45513" lon="5.61516">
        <ele>1401</ele>
        <time>2022-06-09T21:50:09Z</time>
      </trkpt>
      <trkpt lat="44.45522" lon="5.61514">
        <ele>1403</ele>
        <time>2022-06-09T21:50:11Z</time>
      </trkpt>
      <trkpt lat="44.45546" lon="5.61487">
        <ele>1412</ele>
        <time>2022-06-09T21:50:18Z</time>
      </trkpt>
      <trkpt lat="44.45556" lon="5.61481">
        <ele>1415</ele>
        <time>2022-06-09T21:50:21Z</time>
      </trkpt>
      <trkpt lat="44.45561" lon="5.61468">
        <ele>1418</ele>
        <time>2022-06-09T21:50:23Z</time>
      </trkpt>
      <trkpt lat="44.45572" lon="5.61459">
        <ele>1420</ele>
        <time>2022-06-09T21:50:26Z</time>
      </trkpt>
      <trkpt lat="44.45573" lon="5.61439">
        <ele>1421</ele>
        <time>2022-06-09T21:50:30Z</time>
      </trkpt>
      <trkpt lat="44.45578" lon="5.61417">
        <ele>1422</ele>
        <time>2022-06-09T21:50:33Z</time>
      </trkpt>
      <trkpt lat="44.45594" lon="5.61398">
        <ele>1428</ele>
        <time>2022-06-09T21:50:38Z</time>
      </trkpt>
      <trkpt lat="44.45601" lon="5.61363">
        <ele>1433</ele>
        <time>2022-06-09T21:50:44Z</time>
      </trkpt>
      <trkpt lat="44.45601" lon="5.61348">
        <ele>1435</ele>
        <time>2022-06-09T21:50:47Z</time>
      </trkpt>
      <trkpt lat="44.45605" lon="5.6134">
        <ele>1436</ele>
        <time>2022-06-09T21:50:48Z</time>
      </trkpt>
      <trkpt lat="44.45605" lon="5.61329">
        <ele>1437</ele>
        <time>2022-06-09T21:50:50Z</time>
      </trkpt>
      <trkpt lat="44.45601" lon="5.61317">
        <ele>1437</ele>
        <time>2022-06-09T21:50:52Z</time>
      </trkpt>
      <trkpt lat="44.45604" lon="5.61307">
        <ele>1438</ele>
        <time>2022-06-09T21:50:54Z</time>
      </trkpt>
      <trkpt lat="44.45601" lon="5.61299">
        <ele>1439</ele>
        <time>2022-06-09T21:50:56Z</time>
      </trkpt>
      <trkpt lat="44.45599" lon="5.61274">
        <ele>1440</ele>
        <time>2022-06-09T21:51:00Z</time>
      </trkpt>
      <trkpt lat="44.456" lon="5.61242">
        <ele>1442</ele>
        <time>2022-06-09T21:51:05Z</time>
      </trkpt>
      <trkpt lat="44.45605" lon="5.61216">
        <ele>1443</ele>
        <time>2022-06-09T21:51:10Z</time>
      </trkpt>
      <trkpt lat="44.45614" lon="5.612">
        <ele>1444</ele>
        <time>2022-06-09T21:51:13Z</time>
      </trkpt>
      <trkpt lat="44.45616" lon="5.61192">
        <ele>1444</ele>
        <time>2022-06-09T21:51:15Z</time>
      </trkpt>
      <trkpt lat="44.45636" lon="5.61169">
        <ele>1445</ele>
        <time>2022-06-09T21:51:21Z</time>
      </trkpt>
      <trkpt lat="44.45641" lon="5.61166">
        <ele>1445</ele>
        <time>2022-06-09T21:51:22Z</time>
      </trkpt>
      <trkpt lat="44.45653" lon="5.61167">
        <ele>1446</ele>
        <time>2022-06-09T21:51:25Z</time>
      </trkpt>
      <trkpt lat="44.45654" lon="5.61165">
        <ele>1446</ele>
        <time>2022-06-09T21:51:25Z</time>
      </trkpt>
      <trkpt lat="44.45659" lon="5.61167">
        <ele>1446</ele>
        <time>2022-06-09T21:51:26Z</time>
      </trkpt>
      <trkpt lat="44.45663" lon="5.61162">
        <ele>1446</ele>
        <time>2022-06-09T21:51:28Z</time>
      </trkpt>
      <trkpt lat="44.4567" lon="5.61163">
        <ele>1446</ele>
        <time>2022-06-09T21:51:29Z</time>
      </trkpt>
      <trkpt lat="44.45674" lon="5.61154">
        <ele>1447</ele>
        <time>2022-06-09T21:51:31Z</time>
      </trkpt>
      <trkpt lat="44.45684" lon="5.61143">
        <ele>1447</ele>
        <time>2022-06-09T21:51:34Z</time>
      </trkpt>
      <trkpt lat="44.45694" lon="5.61139">
        <ele>1447</ele>
        <time>2022-06-09T21:51:36Z</time>
      </trkpt>
      <trkpt lat="44.45696" lon="5.61128">
        <ele>1447</ele>
        <time>2022-06-09T21:51:38Z</time>
      </trkpt>
      <trkpt lat="44.45698" lon="5.61129">
        <ele>1447</ele>
        <time>2022-06-09T21:51:39Z</time>
      </trkpt>
      <trkpt lat="44.45706" lon="5.61105">
        <ele>1447</ele>
        <time>2022-06-09T21:51:43Z</time>
      </trkpt>
      <trkpt lat="44.45716" lon="5.61094">
        <ele>1447</ele>
        <time>2022-06-09T21:51:46Z</time>
      </trkpt>
      <trkpt lat="44.4572" lon="5.61083">
        <ele>1447</ele>
        <time>2022-06-09T21:51:48Z</time>
      </trkpt>
      <trkpt lat="44.45724" lon="5.61056">
        <ele>1447</ele>
        <time>2022-06-09T21:51:53Z</time>
      </trkpt>
      <trkpt lat="44.45731" lon="5.61047">
        <ele>1447</ele>
        <time>2022-06-09T21:51:55Z</time>
      </trkpt>
      <trkpt lat="44.45741" lon="5.61044">
        <ele>1446</ele>
        <time>2022-06-09T21:51:57Z</time>
      </trkpt>
      <trkpt lat="44.45754" lon="5.61032">
        <ele>1446</ele>
        <time>2022-06-09T21:52:01Z</time>
      </trkpt>
      <trkpt lat="44.45787" lon="5.61028">
        <ele>1449</ele>
        <time>2022-06-09T21:52:09Z</time>
      </trkpt>
      <trkpt lat="44.458" lon="5.61021">
        <ele>1450</ele>
        <time>2022-06-09T21:52:12Z</time>
      </trkpt>
      <trkpt lat="44.4581" lon="5.61019">
        <ele>1451</ele>
        <time>2022-06-09T21:52:14Z</time>
      </trkpt>
      <trkpt lat="44.45819" lon="5.61012">
        <ele>1452</ele>
        <time>2022-06-09T21:52:17Z</time>
      </trkpt>
      <trkpt lat="44.4582" lon="5.61008">
        <ele>1452</ele>
        <time>2022-06-09T21:52:18Z</time>
      </trkpt>
      <trkpt lat="44.45831" lon="5.6101">
        <ele>1453</ele>
        <time>2022-06-09T21:52:20Z</time>
      </trkpt>
      <trkpt lat="44.45839" lon="5.61018">
        <ele>1454</ele>
        <time>2022-06-09T21:52:22Z</time>
      </trkpt>
      <trkpt lat="44.45835" lon="5.61013">
        <ele>1453</ele>
        <time>2022-06-09T21:52:24Z</time>
      </trkpt>
      <trkpt lat="44.45831" lon="5.60979">
        <ele>1454</ele>
        <time>2022-06-09T21:52:29Z</time>
      </trkpt>
      <trkpt lat="44.45827" lon="5.60966">
        <ele>1454</ele>
        <time>2022-06-09T21:52:32Z</time>
      </trkpt>
      <trkpt lat="44.45802" lon="5.60916">
        <ele>1454</ele>
        <time>2022-06-09T21:52:42Z</time>
      </trkpt>
      <trkpt lat="44.45789" lon="5.60895">
        <ele>1454</ele>
        <time>2022-06-09T21:52:47Z</time>
      </trkpt>
      <trkpt lat="44.45757" lon="5.60826">
        <ele>1454</ele>
        <time>2022-06-09T21:53:00Z</time>
      </trkpt>
      <trkpt lat="44.45734" lon="5.60787">
        <ele>1455</ele>
        <time>2022-06-09T21:53:09Z</time>
      </trkpt>
      <trkpt lat="44.45715" lon="5.60749">
        <ele>1455</ele>
        <time>2022-06-09T21:53:16Z</time>
      </trkpt>
      <trkpt lat="44.45704" lon="5.6072">
        <ele>1456</ele>
        <time>2022-06-09T21:53:22Z</time>
      </trkpt>
      <trkpt lat="44.4566" lon="5.60643">
        <ele>1457</ele>
        <time>2022-06-09T21:53:38Z</time>
      </trkpt>
      <trkpt lat="44.45651" lon="5.60609">
        <ele>1457</ele>
        <time>2022-06-09T21:53:44Z</time>
      </trkpt>
      <trkpt lat="44.45641" lon="5.60554">
        <ele>1457</ele>
        <time>2022-06-09T21:53:54Z</time>
      </trkpt>
      <trkpt lat="44.45644" lon="5.60526">
        <ele>1457</ele>
        <time>2022-06-09T21:53:59Z</time>
      </trkpt>
      <trkpt lat="44.45664" lon="5.60494">
        <ele>1457</ele>
        <time>2022-06-09T21:54:06Z</time>
      </trkpt>
      <trkpt lat="44.45674" lon="5.60469">
        <ele>1456</ele>
        <time>2022-06-09T21:54:10Z</time>
      </trkpt>
      <trkpt lat="44.45699" lon="5.60437">
        <ele>1455</ele>
        <time>2022-06-09T21:54:18Z</time>
      </trkpt>
      <trkpt lat="44.45713" lon="5.60428">
        <ele>1455</ele>
        <time>2022-06-09T21:54:22Z</time>
      </trkpt>
      <trkpt lat="44.45729" lon="5.60424">
        <ele>1456</ele>
        <time>2022-06-09T21:54:26Z</time>
      </trkpt>
      <trkpt lat="44.45729" lon="5.6042">
        <ele>1456</ele>
        <time>2022-06-09T21:54:26Z</time>
      </trkpt>
      <trkpt lat="44.45744" lon="5.60407">
        <ele>1456</ele>
        <time>2022-06-09T21:54:31Z</time>
      </trkpt>
      <trkpt lat="44.45759" lon="5.60403">
        <ele>1458</ele>
        <time>2022-06-09T21:54:34Z</time>
      </trkpt>
      <trkpt lat="44.4577" lon="5.60392">
        <ele>1459</ele>
        <time>2022-06-09T21:54:37Z</time>
      </trkpt>
      <trkpt lat="44.45806" lon="5.6033">
        <ele>1459</ele>
        <time>2022-06-09T21:54:51Z</time>
      </trkpt>
      <trkpt lat="44.45815" lon="5.60306">
        <ele>1458</ele>
        <time>2022-06-09T21:54:55Z</time>
      </trkpt>
      <trkpt lat="44.45828" lon="5.60281">
        <ele>1457</ele>
        <time>2022-06-09T21:55:00Z</time>
      </trkpt>
      <trkpt lat="44.45851" lon="5.60258">
        <ele>1460</ele>
        <time>2022-06-09T21:55:07Z</time>
      </trkpt>
      <trkpt lat="44.45859" lon="5.60224">
        <ele>1457</ele>
        <time>2022-06-09T21:55:13Z</time>
      </trkpt>
      <trkpt lat="44.45876" lon="5.60186">
        <ele>1457</ele>
        <time>2022-06-09T21:55:20Z</time>
      </trkpt>
      <trkpt lat="44.45885" lon="5.60159">
        <ele>1457</ele>
        <time>2022-06-09T21:55:25Z</time>
      </trkpt>
      <trkpt lat="44.45897" lon="5.60137">
        <ele>1460</ele>
        <time>2022-06-09T21:55:30Z</time>
      </trkpt>
      <trkpt lat="44.45896" lon="5.60102">
        <ele>1455</ele>
        <time>2022-06-09T21:55:36Z</time>
      </trkpt>
      <trkpt lat="44.45901" lon="5.60069">
        <ele>1453</ele>
        <time>2022-06-09T21:55:41Z</time>
      </trkpt>
      <trkpt lat="44.45901" lon="5.60054">
        <ele>1450</ele>
        <time>2022-06-09T21:55:44Z</time>
      </trkpt>
      <trkpt lat="44.45905" lon="5.60049">
        <ele>1451</ele>
        <time>2022-06-09T21:55:45Z</time>
      </trkpt>
      <trkpt lat="44.45913" lon="5.60028">
        <ele>1451</ele>
        <time>2022-06-09T21:55:49Z</time>
      </trkpt>
      <trkpt lat="44.45926" lon="5.60007">
        <ele>1454</ele>
        <time>2022-06-09T21:55:54Z</time>
      </trkpt>
      <trkpt lat="44.45936" lon="5.59983">
        <ele>1454</ele>
        <time>2022-06-09T21:55:58Z</time>
      </trkpt>
      <trkpt lat="44.45944" lon="5.59969">
        <ele>1456</ele>
        <time>2022-06-09T21:56:01Z</time>
      </trkpt>
      <trkpt lat="44.45954" lon="5.59962">
        <ele>1460</ele>
        <time>2022-06-09T21:56:04Z</time>
      </trkpt>
      <trkpt lat="44.45961" lon="5.59948">
        <ele>1461</ele>
        <time>2022-06-09T21:56:07Z</time>
      </trkpt>
      <trkpt lat="44.45961" lon="5.59891">
        <ele>1453</ele>
        <time>2022-06-09T21:56:16Z</time>
      </trkpt>
      <trkpt lat="44.45989" lon="5.59813">
        <ele>1457</ele>
        <time>2022-06-09T21:56:31Z</time>
      </trkpt>
      <trkpt lat="44.45995" lon="5.59804">
        <ele>1458</ele>
        <time>2022-06-09T21:56:33Z</time>
      </trkpt>
      <trkpt lat="44.4601" lon="5.59797">
        <ele>1462</ele>
        <time>2022-06-09T21:56:37Z</time>
      </trkpt>
      <trkpt lat="44.46009" lon="5.59785">
        <ele>1459</ele>
        <time>2022-06-09T21:56:39Z</time>
      </trkpt>
      <trkpt lat="44.46013" lon="5.59775">
        <ele>1459</ele>
        <time>2022-06-09T21:56:41Z</time>
      </trkpt>
      <trkpt lat="44.46027" lon="5.59772">
        <ele>1462</ele>
        <time>2022-06-09T21:56:44Z</time>
      </trkpt>
      <trkpt lat="44.46036" lon="5.59777">
        <ele>1466</ele>
        <time>2022-06-09T21:56:46Z</time>
      </trkpt>
      <trkpt lat="44.46041" lon="5.59776">
        <ele>1467</ele>
        <time>2022-06-09T21:56:47Z</time>
      </trkpt>
      <trkpt lat="44.46054" lon="5.59766">
        <ele>1469</ele>
        <time>2022-06-09T21:56:51Z</time>
      </trkpt>
      <trkpt lat="44.4606" lon="5.59757">
        <ele>1469</ele>
        <time>2022-06-09T21:56:53Z</time>
      </trkpt>
      <trkpt lat="44.46063" lon="5.59734">
        <ele>1466</ele>
        <time>2022-06-09T21:56:57Z</time>
      </trkpt>
      <trkpt lat="44.4608" lon="5.59707">
        <ele>1465</ele>
        <time>2022-06-09T21:57:03Z</time>
      </trkpt>
      <trkpt lat="44.46085" lon="5.59689">
        <ele>1463</ele>
        <time>2022-06-09T21:57:06Z</time>
      </trkpt>
      <trkpt lat="44.46101" lon="5.59672">
        <ele>1466</ele>
        <time>2022-06-09T21:57:11Z</time>
      </trkpt>
      <trkpt lat="44.46111" lon="5.59657">
        <ele>1467</ele>
        <time>2022-06-09T21:57:14Z</time>
      </trkpt>
      <trkpt lat="44.46123" lon="5.59652">
        <ele>1471</ele>
        <time>2022-06-09T21:57:17Z</time>
      </trkpt>
      <trkpt lat="44.46136" lon="5.59608">
        <ele>1470</ele>
        <time>2022-06-09T21:57:25Z</time>
      </trkpt>
      <trkpt lat="44.46148" lon="5.59554">
        <ele>1468</ele>
        <time>2022-06-09T21:57:34Z</time>
      </trkpt>
      <trkpt lat="44.46156" lon="5.59533">
        <ele>1469</ele>
        <time>2022-06-09T21:57:38Z</time>
      </trkpt>
      <trkpt lat="44.46167" lon="5.59522">
        <ele>1472</ele>
        <time>2022-06-09T21:57:41Z</time>
      </trkpt>
      <trkpt lat="44.46198" lon="5.59456">
        <ele>1477</ele>
        <time>2022-06-09T21:57:55Z</time>
      </trkpt>
      <trkpt lat="44.46214" lon="5.59438">
        <ele>1482</ele>
        <time>2022-06-09T21:57:59Z</time>
      </trkpt>
      <trkpt lat="44.46225" lon="5.59418">
        <ele>1484</ele>
        <time>2022-06-09T21:58:04Z</time>
      </trkpt>
      <trkpt lat="44.46253" lon="5.59389">
        <ele>1491</ele>
        <time>2022-06-09T21:58:12Z</time>
      </trkpt>
      <trkpt lat="44.46261" lon="5.59369">
        <ele>1491</ele>
        <time>2022-06-09T21:58:16Z</time>
      </trkpt>
      <trkpt lat="44.46292" lon="5.59315">
        <ele>1495</ele>
        <time>2022-06-09T21:58:27Z</time>
      </trkpt>
      <trkpt lat="44.46296" lon="5.59304">
        <ele>1495</ele>
        <time>2022-06-09T21:58:29Z</time>
      </trkpt>
      <trkpt lat="44.46308" lon="5.59289">
        <ele>1498</ele>
        <time>2022-06-09T21:58:33Z</time>
      </trkpt>
      <trkpt lat="44.46316" lon="5.59234">
        <ele>1490</ele>
        <time>2022-06-09T21:58:42Z</time>
      </trkpt>
      <trkpt lat="44.46335" lon="5.59183">
        <ele>1489</ele>
        <time>2022-06-09T21:58:52Z</time>
      </trkpt>
      <trkpt lat="44.46337" lon="5.59163">
        <ele>1486</ele>
        <time>2022-06-09T21:58:55Z</time>
      </trkpt>
      <trkpt lat="44.46344" lon="5.59133">
        <ele>1482</ele>
        <time>2022-06-09T21:59:01Z</time>
      </trkpt>
      <trkpt lat="44.46377" lon="5.59049">
        <ele>1475</ele>
        <time>2022-06-09T21:59:16Z</time>
      </trkpt>
      <trkpt lat="44.46405" lon="5.59">
        <ele>1471</ele>
        <time>2022-06-09T21:59:27Z</time>
      </trkpt>
      <trkpt lat="44.46431" lon="5.58976">
        <ele>1475</ele>
        <time>2022-06-09T21:59:34Z</time>
      </trkpt>
      <trkpt lat="44.4645" lon="5.58949">
        <ele>1476</ele>
        <time>2022-06-09T21:59:41Z</time>
      </trkpt>
      <trkpt lat="44.46453" lon="5.58915">
        <ele>1470</ele>
        <time>2022-06-09T21:59:46Z</time>
      </trkpt>
      <trkpt lat="44.46438" lon="5.58876">
        <ele>1460</ele>
        <time>2022-06-09T21:59:54Z</time>
      </trkpt>
      <trkpt lat="44.46432" lon="5.58844">
        <ele>1455</ele>
        <time>2022-06-09T21:59:59Z</time>
      </trkpt>
      <trkpt lat="44.46431" lon="5.58833">
        <ele>1454</ele>
        <time>2022-06-09T22:00:01Z</time>
      </trkpt>
      <trkpt lat="44.46437" lon="5.58812">
        <ele>1451</ele>
        <time>2022-06-09T22:00:05Z</time>
      </trkpt>
      <trkpt lat="44.46469" lon="5.58757">
        <ele>1452</ele>
        <time>2022-06-09T22:00:17Z</time>
      </trkpt>
      <trkpt lat="44.4649" lon="5.58729">
        <ele>1453</ele>
        <time>2022-06-09T22:00:23Z</time>
      </trkpt>
      <trkpt lat="44.46504" lon="5.58701">
        <ele>1449</ele>
        <time>2022-06-09T22:00:29Z</time>
      </trkpt>
      <trkpt lat="44.46516" lon="5.58686">
        <ele>1448</ele>
        <time>2022-06-09T22:00:33Z</time>
      </trkpt>
      <trkpt lat="44.46513" lon="5.5869">
        <ele>1448</ele>
        <time>2022-06-09T22:00:34Z</time>
      </trkpt>
      <trkpt lat="44.46532" lon="5.58642">
        <ele>1438</ele>
        <time>2022-06-09T22:00:43Z</time>
      </trkpt>
      <trkpt lat="44.46557" lon="5.58601">
        <ele>1436</ele>
        <time>2022-06-09T22:00:52Z</time>
      </trkpt>
      <trkpt lat="44.46575" lon="5.58566">
        <ele>1430</ele>
        <time>2022-06-09T22:00:59Z</time>
      </trkpt>
      <trkpt lat="44.46591" lon="5.58547">
        <ele>1427</ele>
        <time>2022-06-09T22:01:04Z</time>
      </trkpt>
      <trkpt lat="44.46599" lon="5.58546">
        <ele>1430</ele>
        <time>2022-06-09T22:01:06Z</time>
      </trkpt>
      <trkpt lat="44.46596" lon="5.58549">
        <ele>1430</ele>
        <time>2022-06-09T22:01:07Z</time>
      </trkpt>
      <trkpt lat="44.46598" lon="5.58552">
        <ele>1433</ele>
        <time>2022-06-09T22:01:07Z</time>
      </trkpt>
      <trkpt lat="44.46614" lon="5.58534">
        <ele>1430</ele>
        <time>2022-06-09T22:01:12Z</time>
      </trkpt>
      <trkpt lat="44.4661" lon="5.58533">
        <ele>1428</ele>
        <time>2022-06-09T22:01:13Z</time>
      </trkpt>
      <trkpt lat="44.4663" lon="5.58521">
        <ele>1431</ele>
        <time>2022-06-09T22:01:18Z</time>
      </trkpt>
      <trkpt lat="44.46655" lon="5.58493">
        <ele>1431</ele>
        <time>2022-06-09T22:01:26Z</time>
      </trkpt>
      <trkpt lat="44.46657" lon="5.58477">
        <ele>1425</ele>
        <time>2022-06-09T22:01:28Z</time>
      </trkpt>
      <trkpt lat="44.46664" lon="5.58465">
        <ele>1424</ele>
        <time>2022-06-09T22:01:31Z</time>
      </trkpt>
      <trkpt lat="44.46668" lon="5.58449">
        <ele>1420</ele>
        <time>2022-06-09T22:01:34Z</time>
      </trkpt>
      <trkpt lat="44.4668" lon="5.58423">
        <ele>1417</ele>
        <time>2022-06-09T22:01:39Z</time>
      </trkpt>
      <trkpt lat="44.46702" lon="5.58389">
        <ele>1420</ele>
        <time>2022-06-09T22:01:47Z</time>
      </trkpt>
      <trkpt lat="44.46713" lon="5.58346">
        <ele>1413</ele>
        <time>2022-06-09T22:01:54Z</time>
      </trkpt>
      <trkpt lat="44.46721" lon="5.58334">
        <ele>1415</ele>
        <time>2022-06-09T22:01:57Z</time>
      </trkpt>
      <trkpt lat="44.46725" lon="5.58318">
        <ele>1413</ele>
        <time>2022-06-09T22:02:00Z</time>
      </trkpt>
      <trkpt lat="44.46735" lon="5.58303">
        <ele>1415</ele>
        <time>2022-06-09T22:02:03Z</time>
      </trkpt>
      <trkpt lat="44.46747" lon="5.58251">
        <ele>1408</ele>
        <time>2022-06-09T22:02:12Z</time>
      </trkpt>
      <trkpt lat="44.46755" lon="5.58236">
        <ele>1410</ele>
        <time>2022-06-09T22:02:15Z</time>
      </trkpt>
      <trkpt lat="44.46765" lon="5.58203">
        <ele>1408</ele>
        <time>2022-06-09T22:02:21Z</time>
      </trkpt>
      <trkpt lat="44.46773" lon="5.58188">
        <ele>1410</ele>
        <time>2022-06-09T22:02:25Z</time>
      </trkpt>
      <trkpt lat="44.46784" lon="5.58136">
        <ele>1403</ele>
        <time>2022-06-09T22:02:34Z</time>
      </trkpt>
      <trkpt lat="44.46784" lon="5.58125">
        <ele>1399</ele>
        <time>2022-06-09T22:02:35Z</time>
      </trkpt>
      <trkpt lat="44.46792" lon="5.58108">
        <ele>1400</ele>
        <time>2022-06-09T22:02:39Z</time>
      </trkpt>
      <trkpt lat="44.46794" lon="5.58088">
        <ele>1396</ele>
        <time>2022-06-09T22:02:42Z</time>
      </trkpt>
      <trkpt lat="44.46799" lon="5.58074">
        <ele>1396</ele>
        <time>2022-06-09T22:02:45Z</time>
      </trkpt>
      <trkpt lat="44.46804" lon="5.58044">
        <ele>1392</ele>
        <time>2022-06-09T22:02:50Z</time>
      </trkpt>
      <trkpt lat="44.46805" lon="5.58006">
        <ele>1383</ele>
        <time>2022-06-09T22:02:56Z</time>
      </trkpt>
      <trkpt lat="44.46816" lon="5.5795">
        <ele>1376</ele>
        <time>2022-06-09T22:03:06Z</time>
      </trkpt>
      <trkpt lat="44.46815" lon="5.57939">
        <ele>1373</ele>
        <time>2022-06-09T22:03:08Z</time>
      </trkpt>
      <trkpt lat="44.46852" lon="5.5785">
        <ele>1371</ele>
        <time>2022-06-09T22:03:25Z</time>
      </trkpt>
      <trkpt lat="44.46861" lon="5.57819">
        <ele>1368</ele>
        <time>2022-06-09T22:03:31Z</time>
      </trkpt>
      <trkpt lat="44.46871" lon="5.57796">
        <ele>1368</ele>
        <time>2022-06-09T22:03:35Z</time>
      </trkpt>
      <trkpt lat="44.46874" lon="5.57777">
        <ele>1364</ele>
        <time>2022-06-09T22:03:38Z</time>
      </trkpt>
      <trkpt lat="44.46881" lon="5.57755">
        <ele>1362</ele>
        <time>2022-06-09T22:03:42Z</time>
      </trkpt>
      <trkpt lat="44.46898" lon="5.57719">
        <ele>1361</ele>
        <time>2022-06-09T22:03:49Z</time>
      </trkpt>
      <trkpt lat="44.46918" lon="5.57668">
        <ele>1357</ele>
        <time>2022-06-09T22:03:59Z</time>
      </trkpt>
      <trkpt lat="44.46936" lon="5.57598">
        <ele>1349</ele>
        <time>2022-06-09T22:04:12Z</time>
      </trkpt>
      <trkpt lat="44.46957" lon="5.57564">
        <ele>1350</ele>
        <time>2022-06-09T22:04:19Z</time>
      </trkpt>
      <trkpt lat="44.4698" lon="5.57513">
        <ele>1347</ele>
        <time>2022-06-09T22:04:29Z</time>
      </trkpt>
      <trkpt lat="44.46992" lon="5.57502">
        <ele>1350</ele>
        <time>2022-06-09T22:04:32Z</time>
      </trkpt>
      <trkpt lat="44.47014" lon="5.57473">
        <ele>1352</ele>
        <time>2022-06-09T22:04:40Z</time>
      </trkpt>
      <trkpt lat="44.47025" lon="5.57446">
        <ele>1349</ele>
        <time>2022-06-09T22:04:45Z</time>
      </trkpt>
      <trkpt lat="44.47058" lon="5.57395">
        <ele>1348</ele>
        <time>2022-06-09T22:04:56Z</time>
      </trkpt>
      <trkpt lat="44.47078" lon="5.57351">
        <ele>1344</ele>
        <time>2022-06-09T22:05:05Z</time>
      </trkpt>
      <trkpt lat="44.47084" lon="5.57334">
        <ele>1341</ele>
        <time>2022-06-09T22:05:08Z</time>
      </trkpt>
      <trkpt lat="44.47087" lon="5.57313">
        <ele>1337</ele>
        <time>2022-06-09T22:05:12Z</time>
      </trkpt>
      <trkpt lat="44.47094" lon="5.57299">
        <ele>1336</ele>
        <time>2022-06-09T22:05:14Z</time>
      </trkpt>
      <trkpt lat="44.47126" lon="5.57252">
        <ele>1333</ele>
        <time>2022-06-09T22:05:25Z</time>
      </trkpt>
      <trkpt lat="44.47159" lon="5.57193">
        <ele>1326</ele>
        <time>2022-06-09T22:05:38Z</time>
      </trkpt>
      <trkpt lat="44.4717" lon="5.57182">
        <ele>1326</ele>
        <time>2022-06-09T22:05:41Z</time>
      </trkpt>
      <trkpt lat="44.47193" lon="5.57145">
        <ele>1323</ele>
        <time>2022-06-09T22:05:49Z</time>
      </trkpt>
      <trkpt lat="44.47199" lon="5.57142">
        <ele>1323</ele>
        <time>2022-06-09T22:05:51Z</time>
      </trkpt>
      <trkpt lat="44.47211" lon="5.57122">
        <ele>1321</ele>
        <time>2022-06-09T22:05:55Z</time>
      </trkpt>
      <trkpt lat="44.47247" lon="5.57077">
        <ele>1317</ele>
        <time>2022-06-09T22:06:06Z</time>
      </trkpt>
      <trkpt lat="44.47256" lon="5.57062">
        <ele>1314</ele>
        <time>2022-06-09T22:06:09Z</time>
      </trkpt>
      <trkpt lat="44.47283" lon="5.57031">
        <ele>1311</ele>
        <time>2022-06-09T22:06:18Z</time>
      </trkpt>
      <trkpt lat="44.47292" lon="5.57013">
        <ele>1307</ele>
        <time>2022-06-09T22:06:21Z</time>
      </trkpt>
      <trkpt lat="44.47305" lon="5.56995">
        <ele>1305</ele>
        <time>2022-06-09T22:06:26Z</time>
      </trkpt>
      <trkpt lat="44.47354" lon="5.5694">
        <ele>1301</ele>
        <time>2022-06-09T22:06:40Z</time>
      </trkpt>
      <trkpt lat="44.47397" lon="5.5688">
        <ele>1293</ele>
        <time>2022-06-09T22:06:54Z</time>
      </trkpt>
      <trkpt lat="44.47429" lon="5.56848">
        <ele>1290</ele>
        <time>2022-06-09T22:07:04Z</time>
      </trkpt>
      <trkpt lat="44.47443" lon="5.56828">
        <ele>1287</ele>
        <time>2022-06-09T22:07:08Z</time>
      </trkpt>
      <trkpt lat="44.47437" lon="5.56821">
        <ele>1284</ele>
        <time>2022-06-09T22:07:10Z</time>
      </trkpt>
      <trkpt lat="44.47431" lon="5.5682">
        <ele>1283</ele>
        <time>2022-06-09T22:07:11Z</time>
      </trkpt>
      <trkpt lat="44.47397" lon="5.56836">
        <ele>1281</ele>
        <time>2022-06-09T22:07:20Z</time>
      </trkpt>
      <trkpt lat="44.47383" lon="5.56839">
        <ele>1279</ele>
        <time>2022-06-09T22:07:23Z</time>
      </trkpt>
      <trkpt lat="44.47375" lon="5.56845">
        <ele>1280</ele>
        <time>2022-06-09T22:07:25Z</time>
      </trkpt>
      <trkpt lat="44.47355" lon="5.56853">
        <ele>1279</ele>
        <time>2022-06-09T22:07:30Z</time>
      </trkpt>
      <trkpt lat="44.47327" lon="5.56857">
        <ele>1275</ele>
        <time>2022-06-09T22:07:37Z</time>
      </trkpt>
      <trkpt lat="44.47257" lon="5.56876">
        <ele>1266</ele>
        <time>2022-06-09T22:07:53Z</time>
      </trkpt>
      <trkpt lat="44.47236" lon="5.56878">
        <ele>1264</ele>
        <time>2022-06-09T22:07:58Z</time>
      </trkpt>
      <trkpt lat="44.47209" lon="5.5689">
        <ele>1263</ele>
        <time>2022-06-09T22:08:05Z</time>
      </trkpt>
      <trkpt lat="44.47198" lon="5.569">
        <ele>1264</ele>
        <time>2022-06-09T22:08:08Z</time>
      </trkpt>
      <trkpt lat="44.47167" lon="5.5692">
        <ele>1265</ele>
        <time>2022-06-09T22:08:16Z</time>
      </trkpt>
      <trkpt lat="44.47142" lon="5.56928">
        <ele>1264</ele>
        <time>2022-06-09T22:08:22Z</time>
      </trkpt>
      <trkpt lat="44.47115" lon="5.5692">
        <ele>1260</ele>
        <time>2022-06-09T22:08:28Z</time>
      </trkpt>
      <trkpt lat="44.47099" lon="5.56909">
        <ele>1258</ele>
        <time>2022-06-09T22:08:33Z</time>
      </trkpt>
      <trkpt lat="44.47097" lon="5.56903">
        <ele>1258</ele>
        <time>2022-06-09T22:08:34Z</time>
      </trkpt>
      <trkpt lat="44.47101" lon="5.56899">
        <ele>1258</ele>
        <time>2022-06-09T22:08:35Z</time>
      </trkpt>
      <trkpt lat="44.47112" lon="5.56895">
        <ele>1258</ele>
        <time>2022-06-09T22:08:37Z</time>
      </trkpt>
      <trkpt lat="44.47135" lon="5.56875">
        <ele>1257</ele>
        <time>2022-06-09T22:08:44Z</time>
      </trkpt>
      <trkpt lat="44.47143" lon="5.56874">
        <ele>1257</ele>
        <time>2022-06-09T22:08:46Z</time>
      </trkpt>
      <trkpt lat="44.47156" lon="5.56866">
        <ele>1256</ele>
        <time>2022-06-09T22:08:49Z</time>
      </trkpt>
      <trkpt lat="44.47181" lon="5.56839">
        <ele>1253</ele>
        <time>2022-06-09T22:08:56Z</time>
      </trkpt>
      <trkpt lat="44.47217" lon="5.56794">
        <ele>1251</ele>
        <time>2022-06-09T22:09:08Z</time>
      </trkpt>
      <trkpt lat="44.47261" lon="5.56751">
        <ele>1246</ele>
        <time>2022-06-09T22:09:20Z</time>
      </trkpt>
      <trkpt lat="44.47336" lon="5.56689">
        <ele>1243</ele>
        <time>2022-06-09T22:09:40Z</time>
      </trkpt>
      <trkpt lat="44.47424" lon="5.5659">
        <ele>1237</ele>
        <time>2022-06-09T22:10:07Z</time>
      </trkpt>
      <trkpt lat="44.47441" lon="5.56575">
        <ele>1238</ele>
        <time>2022-06-09T22:10:11Z</time>
      </trkpt>
      <trkpt lat="44.47462" lon="5.56562">
        <ele>1238</ele>
        <time>2022-06-09T22:10:17Z</time>
      </trkpt>
      <trkpt lat="44.47475" lon="5.56547">
        <ele>1236</ele>
        <time>2022-06-09T22:10:21Z</time>
      </trkpt>
      <trkpt lat="44.47538" lon="5.56491">
        <ele>1229</ele>
        <time>2022-06-09T22:10:38Z</time>
      </trkpt>
      <trkpt lat="44.47627" lon="5.56444">
        <ele>1222</ele>
        <time>2022-06-09T22:11:00Z</time>
      </trkpt>
      <trkpt lat="44.47659" lon="5.5643">
        <ele>1218</ele>
        <time>2022-06-09T22:11:08Z</time>
      </trkpt>
      <trkpt lat="44.47681" lon="5.56427">
        <ele>1218</ele>
        <time>2022-06-09T22:11:13Z</time>
      </trkpt>
      <trkpt lat="44.47696" lon="5.56422">
        <ele>1217</ele>
        <time>2022-06-09T22:11:17Z</time>
      </trkpt>
      <trkpt lat="44.4771" lon="5.56411">
        <ele>1215</ele>
        <time>2022-06-09T22:11:21Z</time>
      </trkpt>
      <trkpt lat="44.47722" lon="5.56405">
        <ele>1215</ele>
        <time>2022-06-09T22:11:24Z</time>
      </trkpt>
      <trkpt lat="44.47723" lon="5.56396">
        <ele>1215</ele>
        <time>2022-06-09T22:11:25Z</time>
      </trkpt>
      <trkpt lat="44.47716" lon="5.56389">
        <ele>1215</ele>
        <time>2022-06-09T22:11:27Z</time>
      </trkpt>
      <trkpt lat="44.47704" lon="5.56384">
        <ele>1215</ele>
        <time>2022-06-09T22:11:30Z</time>
      </trkpt>
      <trkpt lat="44.47701" lon="5.5638">
        <ele>1215</ele>
        <time>2022-06-09T22:11:31Z</time>
      </trkpt>
      <trkpt lat="44.47701" lon="5.5637">
        <ele>1214</ele>
        <time>2022-06-09T22:11:33Z</time>
      </trkpt>
      <trkpt lat="44.47709" lon="5.56354">
        <ele>1214</ele>
        <time>2022-06-09T22:11:36Z</time>
      </trkpt>
      <trkpt lat="44.47715" lon="5.56349">
        <ele>1213</ele>
        <time>2022-06-09T22:11:38Z</time>
      </trkpt>
      <trkpt lat="44.47728" lon="5.5633">
        <ele>1211</ele>
        <time>2022-06-09T22:11:42Z</time>
      </trkpt>
      <trkpt lat="44.47746" lon="5.56315">
        <ele>1212</ele>
        <time>2022-06-09T22:11:47Z</time>
      </trkpt>
      <trkpt lat="44.4775" lon="5.56309">
        <ele>1212</ele>
        <time>2022-06-09T22:11:48Z</time>
      </trkpt>
      <trkpt lat="44.47743" lon="5.56319">
        <ele>1211</ele>
        <time>2022-06-09T22:11:51Z</time>
      </trkpt>
      <trkpt lat="44.47712" lon="5.5635">
        <ele>1213</ele>
        <time>2022-06-09T22:12:00Z</time>
      </trkpt>
      <trkpt lat="44.47697" lon="5.56374">
        <ele>1215</ele>
        <time>2022-06-09T22:12:05Z</time>
      </trkpt>
      <trkpt lat="44.47695" lon="5.56364">
        <ele>1215</ele>
        <time>2022-06-09T22:12:07Z</time>
      </trkpt>
      <trkpt lat="44.47696" lon="5.56353">
        <ele>1215</ele>
        <time>2022-06-09T22:12:08Z</time>
      </trkpt>
      <trkpt lat="44.477" lon="5.56343">
        <ele>1214</ele>
        <time>2022-06-09T22:12:10Z</time>
      </trkpt>
      <trkpt lat="44.47716" lon="5.56315">
        <ele>1215</ele>
        <time>2022-06-09T22:12:16Z</time>
      </trkpt>
      <trkpt lat="44.47723" lon="5.56311">
        <ele>1215</ele>
        <time>2022-06-09T22:12:18Z</time>
      </trkpt>
      <trkpt lat="44.4773" lon="5.56291">
        <ele>1218</ele>
        <time>2022-06-09T22:12:22Z</time>
      </trkpt>
      <trkpt lat="44.47743" lon="5.5627">
        <ele>1220</ele>
        <time>2022-06-09T22:12:26Z</time>
      </trkpt>
      <trkpt lat="44.47758" lon="5.56234">
        <ele>1224</ele>
        <time>2022-06-09T22:12:33Z</time>
      </trkpt>
      <trkpt lat="44.4778" lon="5.56199">
        <ele>1226</ele>
        <time>2022-06-09T22:12:41Z</time>
      </trkpt>
      <trkpt lat="44.47789" lon="5.56179">
        <ele>1229</ele>
        <time>2022-06-09T22:12:45Z</time>
      </trkpt>
      <trkpt lat="44.47794" lon="5.56175">
        <ele>1229</ele>
        <time>2022-06-09T22:12:46Z</time>
      </trkpt>
      <trkpt lat="44.47796" lon="5.56167">
        <ele>1230</ele>
        <time>2022-06-09T22:12:48Z</time>
      </trkpt>
      <trkpt lat="44.47804" lon="5.56156">
        <ele>1231</ele>
        <time>2022-06-09T22:12:50Z</time>
      </trkpt>
      <trkpt lat="44.47827" lon="5.56108">
        <ele>1240</ele>
        <time>2022-06-09T22:13:00Z</time>
      </trkpt>
      <trkpt lat="44.47848" lon="5.56084">
        <ele>1241</ele>
        <time>2022-06-09T22:13:06Z</time>
      </trkpt>
      <trkpt lat="44.47871" lon="5.56039">
        <ele>1248</ele>
        <time>2022-06-09T22:13:16Z</time>
      </trkpt>
      <trkpt lat="44.47887" lon="5.56013">
        <ele>1251</ele>
        <time>2022-06-09T22:13:21Z</time>
      </trkpt>
      <trkpt lat="44.47894" lon="5.56007">
        <ele>1250</ele>
        <time>2022-06-09T22:13:23Z</time>
      </trkpt>
      <trkpt lat="44.47912" lon="5.55969">
        <ele>1253</ele>
        <time>2022-06-09T22:13:31Z</time>
      </trkpt>
      <trkpt lat="44.47925" lon="5.55956">
        <ele>1252</ele>
        <time>2022-06-09T22:13:35Z</time>
      </trkpt>
      <trkpt lat="44.47937" lon="5.5592">
        <ele>1257</ele>
        <time>2022-06-09T22:13:41Z</time>
      </trkpt>
      <trkpt lat="44.4794" lon="5.55919">
        <ele>1257</ele>
        <time>2022-06-09T22:13:42Z</time>
      </trkpt>
      <trkpt lat="44.47978" lon="5.55844">
        <ele>1265</ele>
        <time>2022-06-09T22:13:57Z</time>
      </trkpt>
      <trkpt lat="44.4799" lon="5.55832">
        <ele>1265</ele>
        <time>2022-06-09T22:14:01Z</time>
      </trkpt>
      <trkpt lat="44.47989" lon="5.55819">
        <ele>1269</ele>
        <time>2022-06-09T22:14:03Z</time>
      </trkpt>
      <trkpt lat="44.47978" lon="5.55816">
        <ele>1273</ele>
        <time>2022-06-09T22:14:06Z</time>
      </trkpt>
      <trkpt lat="44.47971" lon="5.55821">
        <ele>1274</ele>
        <time>2022-06-09T22:14:07Z</time>
      </trkpt>
      <trkpt lat="44.47965" lon="5.55835">
        <ele>1272</ele>
        <time>2022-06-09T22:14:10Z</time>
      </trkpt>
      <trkpt lat="44.47957" lon="5.55843">
        <ele>1272</ele>
        <time>2022-06-09T22:14:12Z</time>
      </trkpt>
      <trkpt lat="44.47936" lon="5.55852">
        <ele>1276</ele>
        <time>2022-06-09T22:14:18Z</time>
      </trkpt>
      <trkpt lat="44.47928" lon="5.55862">
        <ele>1276</ele>
        <time>2022-06-09T22:14:20Z</time>
      </trkpt>
      <trkpt lat="44.47903" lon="5.55874">
        <ele>1280</ele>
        <time>2022-06-09T22:14:26Z</time>
      </trkpt>
      <trkpt lat="44.47894" lon="5.55881">
        <ele>1281</ele>
        <time>2022-06-09T22:14:29Z</time>
      </trkpt>
      <trkpt lat="44.47878" lon="5.55898">
        <ele>1281</ele>
        <time>2022-06-09T22:14:33Z</time>
      </trkpt>
      <trkpt lat="44.47857" lon="5.55905">
        <ele>1286</ele>
        <time>2022-06-09T22:14:38Z</time>
      </trkpt>
      <trkpt lat="44.47849" lon="5.55916">
        <ele>1285</ele>
        <time>2022-06-09T22:14:41Z</time>
      </trkpt>
      <trkpt lat="44.47833" lon="5.55926">
        <ele>1288</ele>
        <time>2022-06-09T22:14:45Z</time>
      </trkpt>
      <trkpt lat="44.47819" lon="5.55928">
        <ele>1291</ele>
        <time>2022-06-09T22:14:48Z</time>
      </trkpt>
      <trkpt lat="44.478" lon="5.55944">
        <ele>1291</ele>
        <time>2022-06-09T22:14:54Z</time>
      </trkpt>
      <trkpt lat="44.47784" lon="5.5595">
        <ele>1293</ele>
        <time>2022-06-09T22:14:57Z</time>
      </trkpt>
      <trkpt lat="44.47752" lon="5.55975">
        <ele>1292</ele>
        <time>2022-06-09T22:15:06Z</time>
      </trkpt>
      <trkpt lat="44.47702" lon="5.55994">
        <ele>1294</ele>
        <time>2022-06-09T22:15:18Z</time>
      </trkpt>
      <trkpt lat="44.47653" lon="5.56002">
        <ele>1301</ele>
        <time>2022-06-09T22:15:30Z</time>
      </trkpt>
      <trkpt lat="44.4763" lon="5.56011">
        <ele>1305</ele>
        <time>2022-06-09T22:15:35Z</time>
      </trkpt>
      <trkpt lat="44.47618" lon="5.56019">
        <ele>1307</ele>
        <time>2022-06-09T22:15:38Z</time>
      </trkpt>
      <trkpt lat="44.47615" lon="5.56019">
        <ele>1307</ele>
        <time>2022-06-09T22:15:39Z</time>
      </trkpt>
      <trkpt lat="44.47613" lon="5.56014">
        <ele>1310</ele>
        <time>2022-06-09T22:15:40Z</time>
      </trkpt>
      <trkpt lat="44.47615" lon="5.56009">
        <ele>1311</ele>
        <time>2022-06-09T22:15:41Z</time>
      </trkpt>
      <trkpt lat="44.47622" lon="5.56006">
        <ele>1310</ele>
        <time>2022-06-09T22:15:43Z</time>
      </trkpt>
      <trkpt lat="44.47626" lon="5.55999">
        <ele>1311</ele>
        <time>2022-06-09T22:15:44Z</time>
      </trkpt>
      <trkpt lat="44.47632" lon="5.56">
        <ele>1308</ele>
        <time>2022-06-09T22:15:45Z</time>
      </trkpt>
      <trkpt lat="44.47642" lon="5.55996">
        <ele>1307</ele>
        <time>2022-06-09T22:15:48Z</time>
      </trkpt>
      <trkpt lat="44.47678" lon="5.55959">
        <ele>1312</ele>
        <time>2022-06-09T22:15:58Z</time>
      </trkpt>
      <trkpt lat="44.47696" lon="5.55934">
        <ele>1318</ele>
        <time>2022-06-09T22:16:04Z</time>
      </trkpt>
      <trkpt lat="44.47701" lon="5.55931">
        <ele>1318</ele>
        <time>2022-06-09T22:16:06Z</time>
      </trkpt>
      <trkpt lat="44.47705" lon="5.55924">
        <ele>1319</ele>
        <time>2022-06-09T22:16:07Z</time>
      </trkpt>
      <trkpt lat="44.47722" lon="5.55907">
        <ele>1321</ele>
        <time>2022-06-09T22:16:12Z</time>
      </trkpt>
      <trkpt lat="44.47744" lon="5.55874">
        <ele>1329</ele>
        <time>2022-06-09T22:16:19Z</time>
      </trkpt>
      <trkpt lat="44.47764" lon="5.55852">
        <ele>1331</ele>
        <time>2022-06-09T22:16:25Z</time>
      </trkpt>
      <trkpt lat="44.47788" lon="5.55831">
        <ele>1330</ele>
        <time>2022-06-09T22:16:32Z</time>
      </trkpt>
      <trkpt lat="44.47794" lon="5.55821">
        <ele>1332</ele>
        <time>2022-06-09T22:16:34Z</time>
      </trkpt>
      <trkpt lat="44.478" lon="5.55816">
        <ele>1332</ele>
        <time>2022-06-09T22:16:36Z</time>
      </trkpt>
      <trkpt lat="44.47813" lon="5.55796">
        <ele>1336</ele>
        <time>2022-06-09T22:16:40Z</time>
      </trkpt>
      <trkpt lat="44.47816" lon="5.55795">
        <ele>1335</ele>
        <time>2022-06-09T22:16:41Z</time>
      </trkpt>
      <trkpt lat="44.4782" lon="5.55783">
        <ele>1339</ele>
        <time>2022-06-09T22:16:43Z</time>
      </trkpt>
      <trkpt lat="44.47837" lon="5.55757">
        <ele>1344</ele>
        <time>2022-06-09T22:16:49Z</time>
      </trkpt>
      <trkpt lat="44.47861" lon="5.55739">
        <ele>1341</ele>
        <time>2022-06-09T22:16:55Z</time>
      </trkpt>
      <trkpt lat="44.47877" lon="5.55721">
        <ele>1340</ele>
        <time>2022-06-09T22:17:00Z</time>
      </trkpt>
      <trkpt lat="44.47888" lon="5.557">
        <ele>1342</ele>
        <time>2022-06-09T22:17:05Z</time>
      </trkpt>
      <trkpt lat="44.47902" lon="5.55662">
        <ele>1348</ele>
        <time>2022-06-09T22:17:12Z</time>
      </trkpt>
      <trkpt lat="44.47935" lon="5.55612">
        <ele>1348</ele>
        <time>2022-06-09T22:17:23Z</time>
      </trkpt>
      <trkpt lat="44.47951" lon="5.55568">
        <ele>1353</ele>
        <time>2022-06-09T22:17:31Z</time>
      </trkpt>
      <trkpt lat="44.47971" lon="5.55541">
        <ele>1351</ele>
        <time>2022-06-09T22:17:38Z</time>
      </trkpt>
      <trkpt lat="44.47977" lon="5.55524">
        <ele>1352</ele>
        <time>2022-06-09T22:17:41Z</time>
      </trkpt>
      <trkpt lat="44.47982" lon="5.55525">
        <ele>1349</ele>
        <time>2022-06-09T22:17:42Z</time>
      </trkpt>
      <trkpt lat="44.47995" lon="5.55517">
        <ele>1344</ele>
        <time>2022-06-09T22:17:45Z</time>
      </trkpt>
      <trkpt lat="44.48001" lon="5.55516">
        <ele>1341</ele>
        <time>2022-06-09T22:17:47Z</time>
      </trkpt>
      <trkpt lat="44.48012" lon="5.55516">
        <ele>1338</ele>
        <time>2022-06-09T22:17:49Z</time>
      </trkpt>
      <trkpt lat="44.48027" lon="5.5552">
        <ele>1332</ele>
        <time>2022-06-09T22:17:53Z</time>
      </trkpt>
      <trkpt lat="44.48041" lon="5.55518">
        <ele>1329</ele>
        <time>2022-06-09T22:17:56Z</time>
      </trkpt>
      <trkpt lat="44.48057" lon="5.55512">
        <ele>1325</ele>
        <time>2022-06-09T22:18:00Z</time>
      </trkpt>
      <trkpt lat="44.48073" lon="5.555">
        <ele>1324</ele>
        <time>2022-06-09T22:18:04Z</time>
      </trkpt>
      <trkpt lat="44.48088" lon="5.55476">
        <ele>1323</ele>
        <time>2022-06-09T22:18:10Z</time>
      </trkpt>
      <trkpt lat="44.48093" lon="5.55452">
        <ele>1325</ele>
        <time>2022-06-09T22:18:14Z</time>
      </trkpt>
      <trkpt lat="44.48102" lon="5.55446">
        <ele>1322</ele>
        <time>2022-06-09T22:18:16Z</time>
      </trkpt>
      <trkpt lat="44.48107" lon="5.55437">
        <ele>1321</ele>
        <time>2022-06-09T22:18:18Z</time>
      </trkpt>
      <trkpt lat="44.48119" lon="5.55405">
        <ele>1322</ele>
        <time>2022-06-09T22:18:24Z</time>
      </trkpt>
      <trkpt lat="44.48128" lon="5.55371">
        <ele>1327</ele>
        <time>2022-06-09T22:18:30Z</time>
      </trkpt>
      <trkpt lat="44.48137" lon="5.55359">
        <ele>1326</ele>
        <time>2022-06-09T22:18:33Z</time>
      </trkpt>
      <trkpt lat="44.4815" lon="5.55348">
        <ele>1324</ele>
        <time>2022-06-09T22:18:37Z</time>
      </trkpt>
      <trkpt lat="44.48165" lon="5.55319">
        <ele>1326</ele>
        <time>2022-06-09T22:18:43Z</time>
      </trkpt>
      <trkpt lat="44.48193" lon="5.55297">
        <ele>1322</ele>
        <time>2022-06-09T22:18:50Z</time>
      </trkpt>
      <trkpt lat="44.48221" lon="5.55286">
        <ele>1317</ele>
        <time>2022-06-09T22:18:57Z</time>
      </trkpt>
      <trkpt lat="44.48227" lon="5.5528">
        <ele>1317</ele>
        <time>2022-06-09T22:18:59Z</time>
      </trkpt>
      <trkpt lat="44.48238" lon="5.55279">
        <ele>1314</ele>
        <time>2022-06-09T22:19:01Z</time>
      </trkpt>
      <trkpt lat="44.48258" lon="5.55265">
        <ele>1311</ele>
        <time>2022-06-09T22:19:06Z</time>
      </trkpt>
      <trkpt lat="44.48298" lon="5.55193">
        <ele>1314</ele>
        <time>2022-06-09T22:19:22Z</time>
      </trkpt>
      <trkpt lat="44.48323" lon="5.55185">
        <ele>1309</ele>
        <time>2022-06-09T22:19:28Z</time>
      </trkpt>
      <trkpt lat="44.4834" lon="5.55185">
        <ele>1305</ele>
        <time>2022-06-09T22:19:31Z</time>
      </trkpt>
      <trkpt lat="44.4837" lon="5.5518">
        <ele>1301</ele>
        <time>2022-06-09T22:19:39Z</time>
      </trkpt>
      <trkpt lat="44.484" lon="5.55162">
        <ele>1301</ele>
        <time>2022-06-09T22:19:46Z</time>
      </trkpt>
      <trkpt lat="44.48409" lon="5.55154">
        <ele>1301</ele>
        <time>2022-06-09T22:19:49Z</time>
      </trkpt>
      <trkpt lat="44.48417" lon="5.55151">
        <ele>1301</ele>
        <time>2022-06-09T22:19:51Z</time>
      </trkpt>
      <trkpt lat="44.48432" lon="5.55156">
        <ele>1296</ele>
        <time>2022-06-09T22:19:54Z</time>
      </trkpt>
      <trkpt lat="44.48465" lon="5.55154">
        <ele>1289</ele>
        <time>2022-06-09T22:20:02Z</time>
      </trkpt>
      <trkpt lat="44.48495" lon="5.55124">
        <ele>1291</ele>
        <time>2022-06-09T22:20:11Z</time>
      </trkpt>
      <trkpt lat="44.4851" lon="5.55115">
        <ele>1289</ele>
        <time>2022-06-09T22:20:14Z</time>
      </trkpt>
      <trkpt lat="44.48513" lon="5.5511">
        <ele>1289</ele>
        <time>2022-06-09T22:20:15Z</time>
      </trkpt>
      <trkpt lat="44.48531" lon="5.55096">
        <ele>1287</ele>
        <time>2022-06-09T22:20:20Z</time>
      </trkpt>
      <trkpt lat="44.48544" lon="5.5508">
        <ele>1288</ele>
        <time>2022-06-09T22:20:24Z</time>
      </trkpt>
      <trkpt lat="44.48547" lon="5.55081">
        <ele>1286</ele>
        <time>2022-06-09T22:20:25Z</time>
      </trkpt>
      <trkpt lat="44.48556" lon="5.55053">
        <ele>1292</ele>
        <time>2022-06-09T22:20:30Z</time>
      </trkpt>
      <trkpt lat="44.48562" lon="5.55048">
        <ele>1292</ele>
        <time>2022-06-09T22:20:32Z</time>
      </trkpt>
      <trkpt lat="44.48575" lon="5.55013">
        <ele>1298</ele>
        <time>2022-06-09T22:20:38Z</time>
      </trkpt>
      <trkpt lat="44.48578" lon="5.55013">
        <ele>1298</ele>
        <time>2022-06-09T22:20:39Z</time>
      </trkpt>
      <trkpt lat="44.48581" lon="5.54993">
        <ele>1303</ele>
        <time>2022-06-09T22:20:42Z</time>
      </trkpt>
      <trkpt lat="44.48593" lon="5.54995">
        <ele>1300</ele>
        <time>2022-06-09T22:20:45Z</time>
      </trkpt>
      <trkpt lat="44.48605" lon="5.54983">
        <ele>1302</ele>
        <time>2022-06-09T22:20:49Z</time>
      </trkpt>
      <trkpt lat="44.48618" lon="5.54981">
        <ele>1300</ele>
        <time>2022-06-09T22:20:52Z</time>
      </trkpt>
      <trkpt lat="44.48619" lon="5.54983">
        <ele>1299</ele>
        <time>2022-06-09T22:20:52Z</time>
      </trkpt>
      <trkpt lat="44.48616" lon="5.54988">
        <ele>1298</ele>
        <time>2022-06-09T22:20:53Z</time>
      </trkpt>
      <trkpt lat="44.48627" lon="5.54978">
        <ele>1300</ele>
        <time>2022-06-09T22:20:56Z</time>
      </trkpt>
      <trkpt lat="44.48641" lon="5.54976">
        <ele>1298</ele>
        <time>2022-06-09T22:21:00Z</time>
      </trkpt>
      <trkpt lat="44.48649" lon="5.54968">
        <ele>1300</ele>
        <time>2022-06-09T22:21:02Z</time>
      </trkpt>
      <trkpt lat="44.48672" lon="5.54967">
        <ele>1296</ele>
        <time>2022-06-09T22:21:07Z</time>
      </trkpt>
      <trkpt lat="44.48674" lon="5.54973">
        <ele>1294</ele>
        <time>2022-06-09T22:21:08Z</time>
      </trkpt>
      <trkpt lat="44.48688" lon="5.54967">
        <ele>1294</ele>
        <time>2022-06-09T22:21:12Z</time>
      </trkpt>
      <trkpt lat="44.4869" lon="5.54971">
        <ele>1292</ele>
        <time>2022-06-09T22:21:13Z</time>
      </trkpt>
      <trkpt lat="44.48705" lon="5.54963">
        <ele>1293</ele>
        <time>2022-06-09T22:21:16Z</time>
      </trkpt>
      <trkpt lat="44.48734" lon="5.54959">
        <ele>1291</ele>
        <time>2022-06-09T22:21:23Z</time>
      </trkpt>
      <trkpt lat="44.48745" lon="5.54954">
        <ele>1292</ele>
        <time>2022-06-09T22:21:26Z</time>
      </trkpt>
      <trkpt lat="44.48776" lon="5.54951">
        <ele>1288</ele>
        <time>2022-06-09T22:21:33Z</time>
      </trkpt>
      <trkpt lat="44.48809" lon="5.54937">
        <ele>1288</ele>
        <time>2022-06-09T22:21:41Z</time>
      </trkpt>
      <trkpt lat="44.48835" lon="5.54933">
        <ele>1285</ele>
        <time>2022-06-09T22:21:47Z</time>
      </trkpt>
      <trkpt lat="44.48842" lon="5.5493">
        <ele>1285</ele>
        <time>2022-06-09T22:21:49Z</time>
      </trkpt>
      <trkpt lat="44.48861" lon="5.54914">
        <ele>1286</ele>
        <time>2022-06-09T22:21:54Z</time>
      </trkpt>
      <trkpt lat="44.48868" lon="5.54913">
        <ele>1285</ele>
        <time>2022-06-09T22:21:56Z</time>
      </trkpt>
      <trkpt lat="44.48872" lon="5.54908">
        <ele>1284</ele>
        <time>2022-06-09T22:21:57Z</time>
      </trkpt>
      <trkpt lat="44.48886" lon="5.54905">
        <ele>1281</ele>
        <time>2022-06-09T22:22:00Z</time>
      </trkpt>
      <trkpt lat="44.48914" lon="5.54888">
        <ele>1275</ele>
        <time>2022-06-09T22:22:07Z</time>
      </trkpt>
      <trkpt lat="44.48933" lon="5.54879">
        <ele>1275</ele>
        <time>2022-06-09T22:22:12Z</time>
      </trkpt>
      <trkpt lat="44.48941" lon="5.54878">
        <ele>1274</ele>
        <time>2022-06-09T22:22:14Z</time>
      </trkpt>
      <trkpt lat="44.4901" lon="5.54917">
        <ele>1273</ele>
        <time>2022-06-09T22:22:31Z</time>
      </trkpt>
      <trkpt lat="44.4905" lon="5.54931">
        <ele>1272</ele>
        <time>2022-06-09T22:22:41Z</time>
      </trkpt>
      <trkpt lat="44.49051" lon="5.54939">
        <ele>1270</ele>
        <time>2022-06-09T22:22:42Z</time>
      </trkpt>
      <trkpt lat="44.49058" lon="5.54944">
        <ele>1269</ele>
        <time>2022-06-09T22:22:44Z</time>
      </trkpt>
      <trkpt lat="44.49066" lon="5.54955">
        <ele>1268</ele>
        <time>2022-06-09T22:22:47Z</time>
      </trkpt>
      <trkpt lat="44.49084" lon="5.5499">
        <ele>1264</ele>
        <time>2022-06-09T22:22:54Z</time>
      </trkpt>
      <trkpt lat="44.49082" lon="5.54996">
        <ele>1262</ele>
        <time>2022-06-09T22:22:55Z</time>
      </trkpt>
      <trkpt lat="44.4907" lon="5.54996">
        <ele>1260</ele>
        <time>2022-06-09T22:22:58Z</time>
      </trkpt>
      <trkpt lat="44.4905" lon="5.5499">
        <ele>1257</ele>
        <time>2022-06-09T22:23:03Z</time>
      </trkpt>
      <trkpt lat="44.49049" lon="5.54992">
        <ele>1257</ele>
        <time>2022-06-09T22:23:03Z</time>
      </trkpt>
      <trkpt lat="44.49051" lon="5.55">
        <ele>1255</ele>
        <time>2022-06-09T22:23:05Z</time>
      </trkpt>
      <trkpt lat="44.49068" lon="5.55016">
        <ele>1252</ele>
        <time>2022-06-09T22:23:09Z</time>
      </trkpt>
      <trkpt lat="44.49073" lon="5.55025">
        <ele>1250</ele>
        <time>2022-06-09T22:23:11Z</time>
      </trkpt>
      <trkpt lat="44.49069" lon="5.55028">
        <ele>1247</ele>
        <time>2022-06-09T22:23:12Z</time>
      </trkpt>
      <trkpt lat="44.49069" lon="5.55026">
        <ele>1248</ele>
        <time>2022-06-09T22:23:13Z</time>
      </trkpt>
      <trkpt lat="44.49071" lon="5.55032">
        <ele>1246</ele>
        <time>2022-06-09T22:23:14Z</time>
      </trkpt>
      <trkpt lat="44.49057" lon="5.55031">
        <ele>1243</ele>
        <time>2022-06-09T22:23:17Z</time>
      </trkpt>
      <trkpt lat="44.4904" lon="5.55023">
        <ele>1242</ele>
        <time>2022-06-09T22:23:21Z</time>
      </trkpt>
      <trkpt lat="44.49033" lon="5.55025">
        <ele>1240</ele>
        <time>2022-06-09T22:23:23Z</time>
      </trkpt>
      <trkpt lat="44.49006" lon="5.55024">
        <ele>1234</ele>
        <time>2022-06-09T22:23:29Z</time>
      </trkpt>
      <trkpt lat="44.48994" lon="5.5502">
        <ele>1234</ele>
        <time>2022-06-09T22:23:32Z</time>
      </trkpt>
      <trkpt lat="44.48972" lon="5.55003">
        <ele>1240</ele>
        <time>2022-06-09T22:23:38Z</time>
      </trkpt>
      <trkpt lat="44.4897" lon="5.55008">
        <ele>1237</ele>
        <time>2022-06-09T22:23:39Z</time>
      </trkpt>
      <trkpt lat="44.48981" lon="5.55044">
        <ele>1221</ele>
        <time>2022-06-09T22:23:45Z</time>
      </trkpt>
      <trkpt lat="44.49003" lon="5.55058">
        <ele>1216</ele>
        <time>2022-06-09T22:23:51Z</time>
      </trkpt>
      <trkpt lat="44.49008" lon="5.55057">
        <ele>1218</ele>
        <time>2022-06-09T22:23:52Z</time>
      </trkpt>
      <trkpt lat="44.49013" lon="5.5506">
        <ele>1218</ele>
        <time>2022-06-09T22:23:53Z</time>
      </trkpt>
      <trkpt lat="44.49014" lon="5.55064">
        <ele>1217</ele>
        <time>2022-06-09T22:23:54Z</time>
      </trkpt>
      <trkpt lat="44.4901" lon="5.55065">
        <ele>1215</ele>
        <time>2022-06-09T22:23:55Z</time>
      </trkpt>
      <trkpt lat="44.4901" lon="5.55069">
        <ele>1213</ele>
        <time>2022-06-09T22:23:56Z</time>
      </trkpt>
      <trkpt lat="44.4902" lon="5.55076">
        <ele>1213</ele>
        <time>2022-06-09T22:23:58Z</time>
      </trkpt>
      <trkpt lat="44.49031" lon="5.55101">
        <ele>1208</ele>
        <time>2022-06-09T22:24:03Z</time>
      </trkpt>
      <trkpt lat="44.49055" lon="5.55122">
        <ele>1210</ele>
        <time>2022-06-09T22:24:10Z</time>
      </trkpt>
      <trkpt lat="44.49058" lon="5.55135">
        <ele>1208</ele>
        <time>2022-06-09T22:24:12Z</time>
      </trkpt>
      <trkpt lat="44.49046" lon="5.552">
        <ele>1186</ele>
        <time>2022-06-09T22:24:23Z</time>
      </trkpt>
      <trkpt lat="44.49053" lon="5.55218">
        <ele>1185</ele>
        <time>2022-06-09T22:24:27Z</time>
      </trkpt>
      <trkpt lat="44.49068" lon="5.55235">
        <ele>1187</ele>
        <time>2022-06-09T22:24:31Z</time>
      </trkpt>
      <trkpt lat="44.49072" lon="5.55247">
        <ele>1186</ele>
        <time>2022-06-09T22:24:33Z</time>
      </trkpt>
      <trkpt lat="44.4908" lon="5.55257">
        <ele>1185</ele>
        <time>2022-06-09T22:24:36Z</time>
      </trkpt>
      <trkpt lat="44.49102" lon="5.55274">
        <ele>1184</ele>
        <time>2022-06-09T22:24:42Z</time>
      </trkpt>
      <trkpt lat="44.49115" lon="5.55274">
        <ele>1188</ele>
        <time>2022-06-09T22:24:45Z</time>
      </trkpt>
      <trkpt lat="44.49116" lon="5.55272">
        <ele>1189</ele>
        <time>2022-06-09T22:24:45Z</time>
      </trkpt>
      <trkpt lat="44.491" lon="5.55276">
        <ele>1183</ele>
        <time>2022-06-09T22:24:49Z</time>
      </trkpt>
      <trkpt lat="44.49097" lon="5.55273">
        <ele>1183</ele>
        <time>2022-06-09T22:24:50Z</time>
      </trkpt>
      <trkpt lat="44.49088" lon="5.55271">
        <ele>1182</ele>
        <time>2022-06-09T22:24:52Z</time>
      </trkpt>
      <trkpt lat="44.49081" lon="5.55257">
        <ele>1186</ele>
        <time>2022-06-09T22:24:55Z</time>
      </trkpt>
      <trkpt lat="44.49062" lon="5.55244">
        <ele>1182</ele>
        <time>2022-06-09T22:25:00Z</time>
      </trkpt>
      <trkpt lat="44.49059" lon="5.55232">
        <ele>1184</ele>
        <time>2022-06-09T22:25:02Z</time>
      </trkpt>
      <trkpt lat="44.49052" lon="5.55232">
        <ele>1180</ele>
        <time>2022-06-09T22:25:04Z</time>
      </trkpt>
      <trkpt lat="44.49048" lon="5.55235">
        <ele>1178</ele>
        <time>2022-06-09T22:25:05Z</time>
      </trkpt>
      <trkpt lat="44.49046" lon="5.5524">
        <ele>1176</ele>
        <time>2022-06-09T22:25:06Z</time>
      </trkpt>
      <trkpt lat="44.4905" lon="5.55248">
        <ele>1175</ele>
        <time>2022-06-09T22:25:07Z</time>
      </trkpt>
      <trkpt lat="44.49057" lon="5.55246">
        <ele>1179</ele>
        <time>2022-06-09T22:25:09Z</time>
      </trkpt>
      <trkpt lat="44.49068" lon="5.55251">
        <ele>1183</ele>
        <time>2022-06-09T22:25:12Z</time>
      </trkpt>
      <trkpt lat="44.49092" lon="5.55286">
        <ele>1176</ele>
        <time>2022-06-09T22:25:20Z</time>
      </trkpt>
      <trkpt lat="44.49096" lon="5.5529">
        <ele>1176</ele>
        <time>2022-06-09T22:25:21Z</time>
      </trkpt>
      <trkpt lat="44.49101" lon="5.55287">
        <ele>1178</ele>
        <time>2022-06-09T22:25:22Z</time>
      </trkpt>
      <trkpt lat="44.49107" lon="5.55291">
        <ele>1178</ele>
        <time>2022-06-09T22:25:24Z</time>
      </trkpt>
      <trkpt lat="44.49108" lon="5.55329">
        <ele>1163</ele>
        <time>2022-06-09T22:25:30Z</time>
      </trkpt>
      <trkpt lat="44.49101" lon="5.55364">
        <ele>1147</ele>
        <time>2022-06-09T22:25:36Z</time>
      </trkpt>
      <trkpt lat="44.49091" lon="5.55392">
        <ele>1132</ele>
        <time>2022-06-09T22:25:41Z</time>
      </trkpt>
      <trkpt lat="44.49085" lon="5.5543">
        <ele>1115</ele>
        <time>2022-06-09T22:25:48Z</time>
      </trkpt>
      <trkpt lat="44.49089" lon="5.55468">
        <ele>1101</ele>
        <time>2022-06-09T22:25:54Z</time>
      </trkpt>
      <trkpt lat="44.49099" lon="5.55502">
        <ele>1091</ele>
        <time>2022-06-09T22:26:00Z</time>
      </trkpt>
      <trkpt lat="44.49104" lon="5.55509">
        <ele>1090</ele>
        <time>2022-06-09T22:26:02Z</time>
      </trkpt>
      <trkpt lat="44.491" lon="5.55509">
        <ele>1088</ele>
        <time>2022-06-09T22:26:03Z</time>
      </trkpt>
      <trkpt lat="44.49099" lon="5.55506">
        <ele>1089</ele>
        <time>2022-06-09T22:26:03Z</time>
      </trkpt>
      <trkpt lat="44.49102" lon="5.55513">
        <ele>1087</ele>
        <time>2022-06-09T22:26:05Z</time>
      </trkpt>
      <trkpt lat="44.49116" lon="5.55522">
        <ele>1088</ele>
        <time>2022-06-09T22:26:08Z</time>
      </trkpt>
      <trkpt lat="44.49135" lon="5.55517">
        <ele>1097</ele>
        <time>2022-06-09T22:26:13Z</time>
      </trkpt>
      <trkpt lat="44.49143" lon="5.5552">
        <ele>1099</ele>
        <time>2022-06-09T22:26:15Z</time>
      </trkpt>
      <trkpt lat="44.4915" lon="5.55531">
        <ele>1095</ele>
        <time>2022-06-09T22:26:17Z</time>
      </trkpt>
      <trkpt lat="44.49149" lon="5.55526">
        <ele>1097</ele>
        <time>2022-06-09T22:26:18Z</time>
      </trkpt>
      <trkpt lat="44.49146" lon="5.5553">
        <ele>1094</ele>
        <time>2022-06-09T22:26:19Z</time>
      </trkpt>
      <trkpt lat="44.4915" lon="5.55536">
        <ele>1092</ele>
        <time>2022-06-09T22:26:20Z</time>
      </trkpt>
      <trkpt lat="44.49154" lon="5.55556">
        <ele>1081</ele>
        <time>2022-06-09T22:26:24Z</time>
      </trkpt>
      <trkpt lat="44.4916" lon="5.55569">
        <ele>1075</ele>
        <time>2022-06-09T22:26:27Z</time>
      </trkpt>
      <trkpt lat="44.49165" lon="5.5557">
        <ele>1076</ele>
        <time>2022-06-09T22:26:28Z</time>
      </trkpt>
      <trkpt lat="44.49188" lon="5.55563">
        <ele>1085</ele>
        <time>2022-06-09T22:26:33Z</time>
      </trkpt>
      <trkpt lat="44.49211" lon="5.55584">
        <ele>1078</ele>
        <time>2022-06-09T22:26:40Z</time>
      </trkpt>
      <trkpt lat="44.4922" lon="5.55589">
        <ele>1077</ele>
        <time>2022-06-09T22:26:42Z</time>
      </trkpt>
      <trkpt lat="44.49248" lon="5.55585">
        <ele>1086</ele>
        <time>2022-06-09T22:26:48Z</time>
      </trkpt>
      <trkpt lat="44.49257" lon="5.55581">
        <ele>1090</ele>
        <time>2022-06-09T22:26:51Z</time>
      </trkpt>
      <trkpt lat="44.49278" lon="5.55587">
        <ele>1090</ele>
        <time>2022-06-09T22:26:56Z</time>
      </trkpt>
      <trkpt lat="44.49295" lon="5.55602">
        <ele>1086</ele>
        <time>2022-06-09T22:27:00Z</time>
      </trkpt>
      <trkpt lat="44.49309" lon="5.55625">
        <ele>1077</ele>
        <time>2022-06-09T22:27:05Z</time>
      </trkpt>
      <trkpt lat="44.49317" lon="5.55644">
        <ele>1069</ele>
        <time>2022-06-09T22:27:09Z</time>
      </trkpt>
      <trkpt lat="44.49326" lon="5.55652">
        <ele>1067</ele>
        <time>2022-06-09T22:27:12Z</time>
      </trkpt>
      <trkpt lat="44.49335" lon="5.55655">
        <ele>1067</ele>
        <time>2022-06-09T22:27:14Z</time>
      </trkpt>
      <trkpt lat="44.4935" lon="5.55653">
        <ele>1070</ele>
        <time>2022-06-09T22:27:17Z</time>
      </trkpt>
      <trkpt lat="44.49374" lon="5.55642">
        <ele>1077</ele>
        <time>2022-06-09T22:27:23Z</time>
      </trkpt>
      <trkpt lat="44.49399" lon="5.55646">
        <ele>1078</ele>
        <time>2022-06-09T22:27:29Z</time>
      </trkpt>
      <trkpt lat="44.49408" lon="5.55654">
        <ele>1075</ele>
        <time>2022-06-09T22:27:31Z</time>
      </trkpt>
      <trkpt lat="44.49424" lon="5.55659">
        <ele>1074</ele>
        <time>2022-06-09T22:27:35Z</time>
      </trkpt>
      <trkpt lat="44.49432" lon="5.55667">
        <ele>1071</ele>
        <time>2022-06-09T22:27:38Z</time>
      </trkpt>
      <trkpt lat="44.49439" lon="5.5567">
        <ele>1069</ele>
        <time>2022-06-09T22:27:39Z</time>
      </trkpt>
      <trkpt lat="44.49446" lon="5.55668">
        <ele>1071</ele>
        <time>2022-06-09T22:27:41Z</time>
      </trkpt>
      <trkpt lat="44.49452" lon="5.55671">
        <ele>1070</ele>
        <time>2022-06-09T22:27:42Z</time>
      </trkpt>
      <trkpt lat="44.4947" lon="5.55686">
        <ele>1062</ele>
        <time>2022-06-09T22:27:47Z</time>
      </trkpt>
      <trkpt lat="44.49546" lon="5.55714">
        <ele>1046</ele>
        <time>2022-06-09T22:28:06Z</time>
      </trkpt>
      <trkpt lat="44.49555" lon="5.55719">
        <ele>1044</ele>
        <time>2022-06-09T22:28:08Z</time>
      </trkpt>
      <trkpt lat="44.49579" lon="5.5574">
        <ele>1034</ele>
        <time>2022-06-09T22:28:15Z</time>
      </trkpt>
      <trkpt lat="44.49589" lon="5.55743">
        <ele>1033</ele>
        <time>2022-06-09T22:28:17Z</time>
      </trkpt>
      <trkpt lat="44.49593" lon="5.55742">
        <ele>1033</ele>
        <time>2022-06-09T22:28:18Z</time>
      </trkpt>
      <trkpt lat="44.49613" lon="5.55755">
        <ele>1026</ele>
        <time>2022-06-09T22:28:23Z</time>
      </trkpt>
      <trkpt lat="44.49614" lon="5.55763">
        <ele>1022</ele>
        <time>2022-06-09T22:28:24Z</time>
      </trkpt>
      <trkpt lat="44.49609" lon="5.5577">
        <ele>1019</ele>
        <time>2022-06-09T22:28:26Z</time>
      </trkpt>
      <trkpt lat="44.49596" lon="5.55776">
        <ele>1016</ele>
        <time>2022-06-09T22:28:29Z</time>
      </trkpt>
      <trkpt lat="44.49584" lon="5.55776">
        <ele>1016</ele>
        <time>2022-06-09T22:28:32Z</time>
      </trkpt>
      <trkpt lat="44.49566" lon="5.5577">
        <ele>1018</ele>
        <time>2022-06-09T22:28:36Z</time>
      </trkpt>
      <trkpt lat="44.49555" lon="5.55769">
        <ele>1018</ele>
        <time>2022-06-09T22:28:39Z</time>
      </trkpt>
      <trkpt lat="44.49557" lon="5.55768">
        <ele>1019</ele>
        <time>2022-06-09T22:28:39Z</time>
      </trkpt>
      <trkpt lat="44.49556" lon="5.55764">
        <ele>1021</ele>
        <time>2022-06-09T22:28:40Z</time>
      </trkpt>
      <trkpt lat="44.49573" lon="5.55771">
        <ele>1018</ele>
        <time>2022-06-09T22:28:44Z</time>
      </trkpt>
      <trkpt lat="44.4961" lon="5.55773">
        <ele>1018</ele>
        <time>2022-06-09T22:28:53Z</time>
      </trkpt>
      <trkpt lat="44.49637" lon="5.55783">
        <ele>1014</ele>
        <time>2022-06-09T22:28:59Z</time>
      </trkpt>
      <trkpt lat="44.4968" lon="5.55813">
        <ele>1005</ele>
        <time>2022-06-09T22:29:11Z</time>
      </trkpt>
      <trkpt lat="44.49708" lon="5.55838">
        <ele>998</ele>
        <time>2022-06-09T22:29:18Z</time>
      </trkpt>
      <trkpt lat="44.4975" lon="5.55882">
        <ele>988</ele>
        <time>2022-06-09T22:29:31Z</time>
      </trkpt>
      <trkpt lat="44.49773" lon="5.55896">
        <ele>983</ele>
        <time>2022-06-09T22:29:37Z</time>
      </trkpt>
      <trkpt lat="44.49781" lon="5.55925">
        <ele>976</ele>
        <time>2022-06-09T22:29:42Z</time>
      </trkpt>
      <trkpt lat="44.49771" lon="5.55953">
        <ele>969</ele>
        <time>2022-06-09T22:29:47Z</time>
      </trkpt>
      <trkpt lat="44.49772" lon="5.55969">
        <ele>965</ele>
        <time>2022-06-09T22:29:50Z</time>
      </trkpt>
      <trkpt lat="44.49776" lon="5.55999">
        <ele>958</ele>
        <time>2022-06-09T22:29:55Z</time>
      </trkpt>
      <trkpt lat="44.49789" lon="5.56032">
        <ele>953</ele>
        <time>2022-06-09T22:30:01Z</time>
      </trkpt>
      <trkpt lat="44.49807" lon="5.56056">
        <ele>952</ele>
        <time>2022-06-09T22:30:07Z</time>
      </trkpt>
      <trkpt lat="44.49851" lon="5.56098">
        <ele>948</ele>
        <time>2022-06-09T22:30:19Z</time>
      </trkpt>
      <trkpt lat="44.49874" lon="5.5613">
        <ele>941</ele>
        <time>2022-06-09T22:30:27Z</time>
      </trkpt>
      <trkpt lat="44.49915" lon="5.56178">
        <ele>940</ele>
        <time>2022-06-09T22:30:39Z</time>
      </trkpt>
      <trkpt lat="44.49924" lon="5.562">
        <ele>934</ele>
        <time>2022-06-09T22:30:43Z</time>
      </trkpt>
      <trkpt lat="44.49933" lon="5.56213">
        <ele>930</ele>
        <time>2022-06-09T22:30:46Z</time>
      </trkpt>
      <trkpt lat="44.49946" lon="5.56224">
        <ele>926</ele>
        <time>2022-06-09T22:30:50Z</time>
      </trkpt>
      <trkpt lat="44.49989" lon="5.56277">
        <ele>912</ele>
        <time>2022-06-09T22:31:03Z</time>
      </trkpt>
      <trkpt lat="44.49998" lon="5.56284">
        <ele>911</ele>
        <time>2022-06-09T22:31:06Z</time>
      </trkpt>
      <trkpt lat="44.50018" lon="5.56292">
        <ele>906</ele>
        <time>2022-06-09T22:31:11Z</time>
      </trkpt>
      <trkpt lat="44.50046" lon="5.56309">
        <ele>901</ele>
        <time>2022-06-09T22:31:18Z</time>
      </trkpt>
      <trkpt lat="44.50117" lon="5.56338">
        <ele>896</ele>
        <time>2022-06-09T22:31:35Z</time>
      </trkpt>
      <trkpt lat="44.50168" lon="5.56368">
        <ele>893</ele>
        <time>2022-06-09T22:31:48Z</time>
      </trkpt>
      <trkpt lat="44.50184" lon="5.56386">
        <ele>893</ele>
        <time>2022-06-09T22:31:53Z</time>
      </trkpt>
      <trkpt lat="44.50183" lon="5.56388">
        <ele>893</ele>
        <time>2022-06-09T22:31:53Z</time>
      </trkpt>
      <trkpt lat="44.50187" lon="5.56395">
        <ele>894</ele>
        <time>2022-06-09T22:31:55Z</time>
      </trkpt>
      <trkpt lat="44.50189" lon="5.56393">
        <ele>894</ele>
        <time>2022-06-09T22:31:55Z</time>
      </trkpt>
      <trkpt lat="44.50192" lon="5.56394">
        <ele>894</ele>
        <time>2022-06-09T22:31:56Z</time>
      </trkpt>
      <trkpt lat="44.50198" lon="5.56405">
        <ele>896</ele>
        <time>2022-06-09T22:31:58Z</time>
      </trkpt>
      <trkpt lat="44.50231" lon="5.56425">
        <ele>900</ele>
        <time>2022-06-09T22:32:07Z</time>
      </trkpt>
      <trkpt lat="44.50249" lon="5.56426">
        <ele>903</ele>
        <time>2022-06-09T22:32:11Z</time>
      </trkpt>
      <trkpt lat="44.50261" lon="5.56432">
        <ele>901</ele>
        <time>2022-06-09T22:32:14Z</time>
      </trkpt>
      <trkpt lat="44.50263" lon="5.56431">
        <ele>900</ele>
        <time>2022-06-09T22:32:14Z</time>
      </trkpt>
      <trkpt lat="44.50277" lon="5.56465">
        <ele>896</ele>
        <time>2022-06-09T22:32:21Z</time>
      </trkpt>
      <trkpt lat="44.50288" lon="5.56474">
        <ele>895</ele>
        <time>2022-06-09T22:32:24Z</time>
      </trkpt>
      <trkpt lat="44.50317" lon="5.56509">
        <ele>894</ele>
        <time>2022-06-09T22:32:33Z</time>
      </trkpt>
      <trkpt lat="44.50357" lon="5.56592">
        <ele>877</ele>
        <time>2022-06-09T22:32:49Z</time>
      </trkpt>
      <trkpt lat="44.50367" lon="5.56625">
        <ele>867</ele>
        <time>2022-06-09T22:32:55Z</time>
      </trkpt>
      <trkpt lat="44.50366" lon="5.56642">
        <ele>865</ele>
        <time>2022-06-09T22:32:58Z</time>
      </trkpt>
      <trkpt lat="44.50375" lon="5.56672">
        <ele>858</ele>
        <time>2022-06-09T22:33:04Z</time>
      </trkpt>
      <trkpt lat="44.50383" lon="5.56747">
        <ele>842</ele>
        <time>2022-06-09T22:33:16Z</time>
      </trkpt>
      <trkpt lat="44.50382" lon="5.56799">
        <ele>834</ele>
        <time>2022-06-09T22:33:25Z</time>
      </trkpt>
      <trkpt lat="44.50385" lon="5.56827">
        <ele>829</ele>
        <time>2022-06-09T22:33:30Z</time>
      </trkpt>
      <trkpt lat="44.50381" lon="5.56876">
        <ele>821</ele>
        <time>2022-06-09T22:33:38Z</time>
      </trkpt>
      <trkpt lat="44.50383" lon="5.56925">
        <ele>813</ele>
        <time>2022-06-09T22:33:46Z</time>
      </trkpt>
      <trkpt lat="44.5038" lon="5.56964">
        <ele>810</ele>
        <time>2022-06-09T22:33:53Z</time>
      </trkpt>
      <trkpt lat="44.50376" lon="5.56977">
        <ele>810</ele>
        <time>2022-06-09T22:33:55Z</time>
      </trkpt>
      <trkpt lat="44.50378" lon="5.56985">
        <ele>809</ele>
        <time>2022-06-09T22:33:56Z</time>
      </trkpt>
      <trkpt lat="44.50386" lon="5.56991">
        <ele>808</ele>
        <time>2022-06-09T22:33:59Z</time>
      </trkpt>
      <trkpt lat="44.50389" lon="5.56999">
        <ele>808</ele>
        <time>2022-06-09T22:34:00Z</time>
      </trkpt>
      <trkpt lat="44.50387" lon="5.57055">
        <ele>805</ele>
        <time>2022-06-09T22:34:09Z</time>
      </trkpt>
      <trkpt lat="44.50399" lon="5.57078">
        <ele>804</ele>
        <time>2022-06-09T22:34:14Z</time>
      </trkpt>
      <trkpt lat="44.50401" lon="5.5709">
        <ele>804</ele>
        <time>2022-06-09T22:34:16Z</time>
      </trkpt>
      <trkpt lat="44.50401" lon="5.57088">
        <ele>804</ele>
        <time>2022-06-09T22:34:17Z</time>
      </trkpt>
      <trkpt lat="44.50398" lon="5.5707">
        <ele>805</ele>
        <time>2022-06-09T22:34:20Z</time>
      </trkpt>
      <trkpt lat="44.50393" lon="5.57064">
        <ele>805</ele>
        <time>2022-06-09T22:34:21Z</time>
      </trkpt>
      <trkpt lat="44.50393" lon="5.57055">
        <ele>805</ele>
        <time>2022-06-09T22:34:23Z</time>
      </trkpt>
      <trkpt lat="44.50386" lon="5.57046">
        <ele>806</ele>
        <time>2022-06-09T22:34:25Z</time>
      </trkpt>
      <trkpt lat="44.50385" lon="5.5705">
        <ele>806</ele>
        <time>2022-06-09T22:34:26Z</time>
      </trkpt>
      <trkpt lat="44.50389" lon="5.57054">
        <ele>806</ele>
        <time>2022-06-09T22:34:27Z</time>
      </trkpt>
      <trkpt lat="44.50391" lon="5.57067">
        <ele>805</ele>
        <time>2022-06-09T22:34:29Z</time>
      </trkpt>
      <trkpt lat="44.50395" lon="5.5707">
        <ele>805</ele>
        <time>2022-06-09T22:34:30Z</time>
      </trkpt>
      <trkpt lat="44.50397" lon="5.57077">
        <ele>804</ele>
        <time>2022-06-09T22:34:31Z</time>
      </trkpt>
      <trkpt lat="44.50391" lon="5.57099">
        <ele>804</ele>
        <time>2022-06-09T22:34:35Z</time>
      </trkpt>
      <trkpt lat="44.50384" lon="5.57099">
        <ele>804</ele>
        <time>2022-06-09T22:34:37Z</time>
      </trkpt>
      <trkpt lat="44.50391" lon="5.5711">
        <ele>804</ele>
        <time>2022-06-09T22:34:39Z</time>
      </trkpt>
      <trkpt lat="44.504" lon="5.57161">
        <ele>803</ele>
        <time>2022-06-09T22:34:48Z</time>
      </trkpt>
      <trkpt lat="44.50403" lon="5.57158">
        <ele>803</ele>
        <time>2022-06-09T22:34:49Z</time>
      </trkpt>
      <trkpt lat="44.50406" lon="5.57159">
        <ele>802</ele>
        <time>2022-06-09T22:34:50Z</time>
      </trkpt>
      <trkpt lat="44.50414" lon="5.57182">
        <ele>802</ele>
        <time>2022-06-09T22:34:54Z</time>
      </trkpt>
      <trkpt lat="44.50423" lon="5.57188">
        <ele>801</ele>
        <time>2022-06-09T22:34:56Z</time>
      </trkpt>
      <trkpt lat="44.5043" lon="5.57208">
        <ele>801</ele>
        <time>2022-06-09T22:35:00Z</time>
      </trkpt>
      <trkpt lat="44.50441" lon="5.57218">
        <ele>800</ele>
        <time>2022-06-09T22:35:03Z</time>
      </trkpt>
      <trkpt lat="44.50446" lon="5.57238">
        <ele>800</ele>
        <time>2022-06-09T22:35:06Z</time>
      </trkpt>
      <trkpt lat="44.50449" lon="5.57259">
        <ele>800</ele>
        <time>2022-06-09T22:35:10Z</time>
      </trkpt>
      <trkpt lat="44.50445" lon="5.57283">
        <ele>801</ele>
        <time>2022-06-09T22:35:14Z</time>
      </trkpt>
      <trkpt lat="44.50442" lon="5.57288">
        <ele>802</ele>
        <time>2022-06-09T22:35:15Z</time>
      </trkpt>
      <trkpt lat="44.50445" lon="5.57328">
        <ele>803</ele>
        <time>2022-06-09T22:35:22Z</time>
      </trkpt>
      <trkpt lat="44.5044" lon="5.57336">
        <ele>804</ele>
        <time>2022-06-09T22:35:24Z</time>
      </trkpt>
      <trkpt lat="44.50433" lon="5.57364">
        <ele>802</ele>
        <time>2022-06-09T22:35:29Z</time>
      </trkpt>
      <trkpt lat="44.50436" lon="5.57369">
        <ele>802</ele>
        <time>2022-06-09T22:35:30Z</time>
      </trkpt>
      <trkpt lat="44.50443" lon="5.57339">
        <ele>803</ele>
        <time>2022-06-09T22:35:35Z</time>
      </trkpt>
      <trkpt lat="44.50445" lon="5.57291">
        <ele>802</ele>
        <time>2022-06-09T22:35:43Z</time>
      </trkpt>
      <trkpt lat="44.50452" lon="5.57263">
        <ele>800</ele>
        <time>2022-06-09T22:35:48Z</time>
      </trkpt>
      <trkpt lat="44.50445" lon="5.5723">
        <ele>800</ele>
        <time>2022-06-09T22:35:54Z</time>
      </trkpt>
      <trkpt lat="44.50439" lon="5.57216">
        <ele>800</ele>
        <time>2022-06-09T22:35:56Z</time>
      </trkpt>
      <trkpt lat="44.50442" lon="5.57218">
        <ele>800</ele>
        <time>2022-06-09T22:35:57Z</time>
      </trkpt>
      <trkpt lat="44.50443" lon="5.57259">
        <ele>800</ele>
        <time>2022-06-09T22:36:04Z</time>
      </trkpt>
      <trkpt lat="44.50449" lon="5.57271">
        <ele>801</ele>
        <time>2022-06-09T22:36:06Z</time>
      </trkpt>
      <trkpt lat="44.50457" lon="5.57274">
        <ele>800</ele>
        <time>2022-06-09T22:36:08Z</time>
      </trkpt>
    </trkseg>
  </trk>
</gpx>